<?xml version="1.0" encoding="UTF-8" standalone="no" ?>
<gpx xmlns="http://www.topografix.com/GPX/1/1" xmlns:xsi="http://www.w3.org/2001/XMLSchema-instance" xsi:schemaLocation="http://www.topografix.com/GPX/1/1 http://www.topografix.com/GPX/1/1/gpx.xsd" version="1.1" creator="VisuGPX - https://www.visugpx.com">
  <metadata>
    <name>Paulhiac avril 2014</name>
    <desc><![CDATA[randonnée vtt à Paulhiac lot et garonne avril 2014]]></desc>
  </metadata>
  <trk>
    <name><![CDATA[PAULIAC USEP]]></name>
    <trkseg>
      <trkpt lat="44.56179" lon="0.82032">
        <ele>144.34</ele>
        <time>2014-04-06T07:51:03Z</time>
      </trkpt>
      <trkpt lat="44.56177" lon="0.82037">
        <ele>144.34</ele>
        <time>2014-04-06T07:51:04Z</time>
      </trkpt>
      <trkpt lat="44.56174" lon="0.8204">
        <ele>144.34</ele>
        <time>2014-04-06T07:51:05Z</time>
      </trkpt>
      <trkpt lat="44.5617" lon="0.82042">
        <ele>143.85</ele>
        <time>2014-04-06T07:51:06Z</time>
      </trkpt>
      <trkpt lat="44.56167" lon="0.82044">
        <ele>143.85</ele>
        <time>2014-04-06T07:51:07Z</time>
      </trkpt>
      <trkpt lat="44.56164" lon="0.82046">
        <ele>143.85</ele>
        <time>2014-04-06T07:51:08Z</time>
      </trkpt>
      <trkpt lat="44.56157" lon="0.82049">
        <ele>144.34</ele>
        <time>2014-04-06T07:51:10Z</time>
      </trkpt>
      <trkpt lat="44.56132" lon="0.8205">
        <ele>145.3</ele>
        <time>2014-04-06T07:51:17Z</time>
      </trkpt>
      <trkpt lat="44.5613" lon="0.82054">
        <ele>145.3</ele>
        <time>2014-04-06T07:51:18Z</time>
      </trkpt>
      <trkpt lat="44.5613" lon="0.82059">
        <ele>144.82</ele>
        <time>2014-04-06T07:51:19Z</time>
      </trkpt>
      <trkpt lat="44.56131" lon="0.82064">
        <ele>144.82</ele>
        <time>2014-04-06T07:51:20Z</time>
      </trkpt>
      <trkpt lat="44.56132" lon="0.82066">
        <ele>143.37</ele>
        <time>2014-04-06T07:51:21Z</time>
      </trkpt>
      <trkpt lat="44.56138" lon="0.82091">
        <ele>142.89</ele>
        <time>2014-04-06T07:51:25Z</time>
      </trkpt>
      <trkpt lat="44.56156" lon="0.82156">
        <ele>138.09</ele>
        <time>2014-04-06T07:51:37Z</time>
      </trkpt>
      <trkpt lat="44.56169" lon="0.82201">
        <ele>136.64</ele>
        <time>2014-04-06T07:51:51Z</time>
      </trkpt>
      <trkpt lat="44.56178" lon="0.82234">
        <ele>137.13</ele>
        <time>2014-04-06T07:52:03Z</time>
      </trkpt>
      <trkpt lat="44.56199" lon="0.82292">
        <ele>135.2</ele>
        <time>2014-04-06T07:52:14Z</time>
      </trkpt>
      <trkpt lat="44.56234" lon="0.82384">
        <ele>133.28</ele>
        <time>2014-04-06T07:52:30Z</time>
      </trkpt>
      <trkpt lat="44.56249" lon="0.8243">
        <ele>131.36</ele>
        <time>2014-04-06T07:52:41Z</time>
      </trkpt>
      <trkpt lat="44.56228" lon="0.82471">
        <ele>129.43</ele>
        <time>2014-04-06T07:52:52Z</time>
      </trkpt>
      <trkpt lat="44.56198" lon="0.8253">
        <ele>128.47</ele>
        <time>2014-04-06T07:53:06Z</time>
      </trkpt>
      <trkpt lat="44.56161" lon="0.82588">
        <ele>125.59</ele>
        <time>2014-04-06T07:53:21Z</time>
      </trkpt>
      <trkpt lat="44.56146" lon="0.82603">
        <ele>124.63</ele>
        <time>2014-04-06T07:53:29Z</time>
      </trkpt>
      <trkpt lat="44.56144" lon="0.82605">
        <ele>124.63</ele>
        <time>2014-04-06T07:53:31Z</time>
      </trkpt>
      <trkpt lat="44.56139" lon="0.82611">
        <ele>124.63</ele>
        <time>2014-04-06T07:53:36Z</time>
      </trkpt>
      <trkpt lat="44.56127" lon="0.8264">
        <ele>122.22</ele>
        <time>2014-04-06T07:53:47Z</time>
      </trkpt>
      <trkpt lat="44.56122" lon="0.8266">
        <ele>120.78</ele>
        <time>2014-04-06T07:53:58Z</time>
      </trkpt>
      <trkpt lat="44.56108" lon="0.82692">
        <ele>119.82</ele>
        <time>2014-04-06T07:54:08Z</time>
      </trkpt>
      <trkpt lat="44.56088" lon="0.8272">
        <ele>117.42</ele>
        <time>2014-04-06T07:54:19Z</time>
      </trkpt>
      <trkpt lat="44.56065" lon="0.82731">
        <ele>117.42</ele>
        <time>2014-04-06T07:54:30Z</time>
      </trkpt>
      <trkpt lat="44.56038" lon="0.82745">
        <ele>115.5</ele>
        <time>2014-04-06T07:54:41Z</time>
      </trkpt>
      <trkpt lat="44.56021" lon="0.82763">
        <ele>114.05</ele>
        <time>2014-04-06T07:54:49Z</time>
      </trkpt>
      <trkpt lat="44.56017" lon="0.82805">
        <ele>116.94</ele>
        <time>2014-04-06T07:54:58Z</time>
      </trkpt>
      <trkpt lat="44.56014" lon="0.82842">
        <ele>119.82</ele>
        <time>2014-04-06T07:55:06Z</time>
      </trkpt>
      <trkpt lat="44.56009" lon="0.82872">
        <ele>125.11</ele>
        <time>2014-04-06T07:55:15Z</time>
      </trkpt>
      <trkpt lat="44.55998" lon="0.82923">
        <ele>130.88</ele>
        <time>2014-04-06T07:55:29Z</time>
      </trkpt>
      <trkpt lat="44.55983" lon="0.82994">
        <ele>131.36</ele>
        <time>2014-04-06T07:55:44Z</time>
      </trkpt>
      <trkpt lat="44.55967" lon="0.8307">
        <ele>132.32</ele>
        <time>2014-04-06T07:56:01Z</time>
      </trkpt>
      <trkpt lat="44.55951" lon="0.83133">
        <ele>132.32</ele>
        <time>2014-04-06T07:56:13Z</time>
      </trkpt>
      <trkpt lat="44.55942" lon="0.83191">
        <ele>133.76</ele>
        <time>2014-04-06T07:56:23Z</time>
      </trkpt>
      <trkpt lat="44.55934" lon="0.8327">
        <ele>135.2</ele>
        <time>2014-04-06T07:56:35Z</time>
      </trkpt>
      <trkpt lat="44.55934" lon="0.83288">
        <ele>135.68</ele>
        <time>2014-04-06T07:56:38Z</time>
      </trkpt>
      <trkpt lat="44.55934" lon="0.833">
        <ele>136.16</ele>
        <time>2014-04-06T07:56:40Z</time>
      </trkpt>
      <trkpt lat="44.55927" lon="0.83392">
        <ele>135.2</ele>
        <time>2014-04-06T07:56:52Z</time>
      </trkpt>
      <trkpt lat="44.55922" lon="0.83434">
        <ele>135.2</ele>
        <time>2014-04-06T07:57:00Z</time>
      </trkpt>
      <trkpt lat="44.55922" lon="0.83436">
        <ele>134.72</ele>
        <time>2014-04-06T07:57:01Z</time>
      </trkpt>
      <trkpt lat="44.55931" lon="0.83428">
        <ele>135.2</ele>
        <time>2014-04-06T07:57:05Z</time>
      </trkpt>
      <trkpt lat="44.55935" lon="0.83425">
        <ele>135.2</ele>
        <time>2014-04-06T07:57:06Z</time>
      </trkpt>
      <trkpt lat="44.55939" lon="0.83421">
        <ele>135.2</ele>
        <time>2014-04-06T07:57:07Z</time>
      </trkpt>
      <trkpt lat="44.55944" lon="0.83418">
        <ele>135.2</ele>
        <time>2014-04-06T07:57:08Z</time>
      </trkpt>
      <trkpt lat="44.55948" lon="0.83414">
        <ele>135.2</ele>
        <time>2014-04-06T07:57:09Z</time>
      </trkpt>
      <trkpt lat="44.55952" lon="0.83411">
        <ele>134.72</ele>
        <time>2014-04-06T07:57:10Z</time>
      </trkpt>
      <trkpt lat="44.55987" lon="0.83377">
        <ele>133.76</ele>
        <time>2014-04-06T07:57:19Z</time>
      </trkpt>
      <trkpt lat="44.55991" lon="0.83375">
        <ele>133.76</ele>
        <time>2014-04-06T07:57:20Z</time>
      </trkpt>
      <trkpt lat="44.55996" lon="0.83375">
        <ele>133.76</ele>
        <time>2014-04-06T07:57:21Z</time>
      </trkpt>
      <trkpt lat="44.56" lon="0.83378">
        <ele>133.76</ele>
        <time>2014-04-06T07:57:22Z</time>
      </trkpt>
      <trkpt lat="44.56003" lon="0.83382">
        <ele>133.76</ele>
        <time>2014-04-06T07:57:23Z</time>
      </trkpt>
      <trkpt lat="44.56014" lon="0.83394">
        <ele>134.24</ele>
        <time>2014-04-06T07:57:26Z</time>
      </trkpt>
      <trkpt lat="44.56052" lon="0.83427">
        <ele>135.2</ele>
        <time>2014-04-06T07:57:38Z</time>
      </trkpt>
      <trkpt lat="44.56092" lon="0.83438">
        <ele>135.68</ele>
        <time>2014-04-06T07:57:48Z</time>
      </trkpt>
      <trkpt lat="44.56095" lon="0.83441">
        <ele>136.16</ele>
        <time>2014-04-06T07:57:49Z</time>
      </trkpt>
      <trkpt lat="44.56098" lon="0.83443">
        <ele>136.64</ele>
        <time>2014-04-06T07:57:50Z</time>
      </trkpt>
      <trkpt lat="44.56101" lon="0.83446">
        <ele>137.13</ele>
        <time>2014-04-06T07:57:51Z</time>
      </trkpt>
      <trkpt lat="44.56103" lon="0.8345">
        <ele>137.61</ele>
        <time>2014-04-06T07:57:52Z</time>
      </trkpt>
      <trkpt lat="44.56131" lon="0.8349">
        <ele>137.61</ele>
        <time>2014-04-06T07:58:05Z</time>
      </trkpt>
      <trkpt lat="44.56162" lon="0.83532">
        <ele>140.01</ele>
        <time>2014-04-06T07:58:20Z</time>
      </trkpt>
      <trkpt lat="44.56166" lon="0.83537">
        <ele>141.45</ele>
        <time>2014-04-06T07:58:23Z</time>
      </trkpt>
      <trkpt lat="44.56167" lon="0.83538">
        <ele>141.45</ele>
        <time>2014-04-06T07:58:24Z</time>
      </trkpt>
      <trkpt lat="44.56165" lon="0.8354">
        <ele>140.97</ele>
        <time>2014-04-06T07:58:26Z</time>
      </trkpt>
      <trkpt lat="44.56164" lon="0.83539">
        <ele>140.97</ele>
        <time>2014-04-06T07:58:27Z</time>
      </trkpt>
      <trkpt lat="44.5616" lon="0.8354">
        <ele>140.97</ele>
        <time>2014-04-06T07:58:29Z</time>
      </trkpt>
      <trkpt lat="44.56158" lon="0.83541">
        <ele>140.97</ele>
        <time>2014-04-06T07:58:30Z</time>
      </trkpt>
      <trkpt lat="44.56156" lon="0.83543">
        <ele>140.49</ele>
        <time>2014-04-06T07:58:31Z</time>
      </trkpt>
      <trkpt lat="44.56116" lon="0.83578">
        <ele>134.72</ele>
        <time>2014-04-06T07:58:39Z</time>
      </trkpt>
      <trkpt lat="44.56082" lon="0.83608">
        <ele>137.61</ele>
        <time>2014-04-06T07:58:48Z</time>
      </trkpt>
      <trkpt lat="44.56049" lon="0.83635">
        <ele>141.93</ele>
        <time>2014-04-06T07:58:59Z</time>
      </trkpt>
      <trkpt lat="44.56006" lon="0.83684">
        <ele>143.85</ele>
        <time>2014-04-06T07:59:14Z</time>
      </trkpt>
      <trkpt lat="44.55965" lon="0.83757">
        <ele>141.45</ele>
        <time>2014-04-06T07:59:27Z</time>
      </trkpt>
      <trkpt lat="44.55928" lon="0.83812">
        <ele>137.61</ele>
        <time>2014-04-06T07:59:37Z</time>
      </trkpt>
      <trkpt lat="44.55916" lon="0.83833">
        <ele>136.16</ele>
        <time>2014-04-06T07:59:41Z</time>
      </trkpt>
      <trkpt lat="44.55913" lon="0.83839">
        <ele>135.68</ele>
        <time>2014-04-06T07:59:42Z</time>
      </trkpt>
      <trkpt lat="44.5589" lon="0.83888">
        <ele>128.95</ele>
        <time>2014-04-06T07:59:54Z</time>
      </trkpt>
      <trkpt lat="44.55874" lon="0.83916">
        <ele>123.19</ele>
        <time>2014-04-06T08:00:02Z</time>
      </trkpt>
      <trkpt lat="44.55866" lon="0.83938">
        <ele>119.34</ele>
        <time>2014-04-06T08:00:06Z</time>
      </trkpt>
      <trkpt lat="44.55834" lon="0.83988">
        <ele>113.09</ele>
        <time>2014-04-06T08:00:18Z</time>
      </trkpt>
      <trkpt lat="44.55815" lon="0.84006">
        <ele>107.32</ele>
        <time>2014-04-06T08:00:26Z</time>
      </trkpt>
      <trkpt lat="44.55809" lon="0.84011">
        <ele>110.21</ele>
        <time>2014-04-06T08:00:34Z</time>
      </trkpt>
      <trkpt lat="44.55806" lon="0.84014">
        <ele>111.65</ele>
        <time>2014-04-06T08:00:37Z</time>
      </trkpt>
      <trkpt lat="44.55803" lon="0.84024">
        <ele>113.57</ele>
        <time>2014-04-06T08:00:42Z</time>
      </trkpt>
      <trkpt lat="44.55801" lon="0.8403">
        <ele>115.01</ele>
        <time>2014-04-06T08:00:45Z</time>
      </trkpt>
      <trkpt lat="44.55793" lon="0.84059">
        <ele>118.38</ele>
        <time>2014-04-06T08:00:54Z</time>
      </trkpt>
      <trkpt lat="44.55786" lon="0.8408">
        <ele>121.74</ele>
        <time>2014-04-06T08:01:02Z</time>
      </trkpt>
      <trkpt lat="44.55776" lon="0.84105">
        <ele>125.11</ele>
        <time>2014-04-06T08:01:15Z</time>
      </trkpt>
      <trkpt lat="44.55771" lon="0.84117">
        <ele>126.07</ele>
        <time>2014-04-06T08:01:22Z</time>
      </trkpt>
      <trkpt lat="44.55761" lon="0.84133">
        <ele>126.55</ele>
        <time>2014-04-06T08:01:33Z</time>
      </trkpt>
      <trkpt lat="44.55753" lon="0.84141">
        <ele>126.07</ele>
        <time>2014-04-06T08:01:36Z</time>
      </trkpt>
      <trkpt lat="44.55737" lon="0.8417">
        <ele>123.67</ele>
        <time>2014-04-06T08:01:41Z</time>
      </trkpt>
      <trkpt lat="44.5572" lon="0.84199">
        <ele>125.59</ele>
        <time>2014-04-06T08:01:51Z</time>
      </trkpt>
      <trkpt lat="44.55711" lon="0.84214">
        <ele>126.55</ele>
        <time>2014-04-06T08:02:02Z</time>
      </trkpt>
      <trkpt lat="44.557" lon="0.84238">
        <ele>128.95</ele>
        <time>2014-04-06T08:02:17Z</time>
      </trkpt>
      <trkpt lat="44.55687" lon="0.84264">
        <ele>130.88</ele>
        <time>2014-04-06T08:02:33Z</time>
      </trkpt>
      <trkpt lat="44.5567" lon="0.84293">
        <ele>134.24</ele>
        <time>2014-04-06T08:02:53Z</time>
      </trkpt>
      <trkpt lat="44.55659" lon="0.84314">
        <ele>137.61</ele>
        <time>2014-04-06T08:03:10Z</time>
      </trkpt>
      <trkpt lat="44.55647" lon="0.84338">
        <ele>140.01</ele>
        <time>2014-04-06T08:03:27Z</time>
      </trkpt>
      <trkpt lat="44.55642" lon="0.84347">
        <ele>140.01</ele>
        <time>2014-04-06T08:03:33Z</time>
      </trkpt>
      <trkpt lat="44.55633" lon="0.84358">
        <ele>140.49</ele>
        <time>2014-04-06T08:03:45Z</time>
      </trkpt>
      <trkpt lat="44.5563" lon="0.84364">
        <ele>140.97</ele>
        <time>2014-04-06T08:03:49Z</time>
      </trkpt>
      <trkpt lat="44.55616" lon="0.84388">
        <ele>142.41</ele>
        <time>2014-04-06T08:03:57Z</time>
      </trkpt>
      <trkpt lat="44.55623" lon="0.84406">
        <ele>142.89</ele>
        <time>2014-04-06T08:04:04Z</time>
      </trkpt>
      <trkpt lat="44.55656" lon="0.84418">
        <ele>143.85</ele>
        <time>2014-04-06T08:04:18Z</time>
      </trkpt>
      <trkpt lat="44.55701" lon="0.84431">
        <ele>140.97</ele>
        <time>2014-04-06T08:04:32Z</time>
      </trkpt>
      <trkpt lat="44.55713" lon="0.84432">
        <ele>140.49</ele>
        <time>2014-04-06T08:04:35Z</time>
      </trkpt>
      <trkpt lat="44.55731" lon="0.84437">
        <ele>138.57</ele>
        <time>2014-04-06T08:04:39Z</time>
      </trkpt>
      <trkpt lat="44.55747" lon="0.84444">
        <ele>135.68</ele>
        <time>2014-04-06T08:04:49Z</time>
      </trkpt>
      <trkpt lat="44.55764" lon="0.84451">
        <ele>134.72</ele>
        <time>2014-04-06T08:05:00Z</time>
      </trkpt>
      <trkpt lat="44.55778" lon="0.84453">
        <ele>134.24</ele>
        <time>2014-04-06T08:05:06Z</time>
      </trkpt>
      <trkpt lat="44.55787" lon="0.84456">
        <ele>133.28</ele>
        <time>2014-04-06T08:05:09Z</time>
      </trkpt>
      <trkpt lat="44.55787" lon="0.84492">
        <ele>133.76</ele>
        <time>2014-04-06T08:05:19Z</time>
      </trkpt>
      <trkpt lat="44.55787" lon="0.84516">
        <ele>136.64</ele>
        <time>2014-04-06T08:05:25Z</time>
      </trkpt>
      <trkpt lat="44.55799" lon="0.84562">
        <ele>137.13</ele>
        <time>2014-04-06T08:05:36Z</time>
      </trkpt>
      <trkpt lat="44.55803" lon="0.84578">
        <ele>137.61</ele>
        <time>2014-04-06T08:05:40Z</time>
      </trkpt>
      <trkpt lat="44.55804" lon="0.84584">
        <ele>139.05</ele>
        <time>2014-04-06T08:05:43Z</time>
      </trkpt>
      <trkpt lat="44.5581" lon="0.84605">
        <ele>140.01</ele>
        <time>2014-04-06T08:05:51Z</time>
      </trkpt>
      <trkpt lat="44.55816" lon="0.84638">
        <ele>140.97</ele>
        <time>2014-04-06T08:06:03Z</time>
      </trkpt>
      <trkpt lat="44.55814" lon="0.84666">
        <ele>144.82</ele>
        <time>2014-04-06T08:06:13Z</time>
      </trkpt>
      <trkpt lat="44.55805" lon="0.8471">
        <ele>146.74</ele>
        <time>2014-04-06T08:06:26Z</time>
      </trkpt>
      <trkpt lat="44.55801" lon="0.84725">
        <ele>145.78</ele>
        <time>2014-04-06T08:06:32Z</time>
      </trkpt>
      <trkpt lat="44.55804" lon="0.8473">
        <ele>145.78</ele>
        <time>2014-04-06T08:06:35Z</time>
      </trkpt>
      <trkpt lat="44.55805" lon="0.8473">
        <ele>145.78</ele>
        <time>2014-04-06T08:06:36Z</time>
      </trkpt>
      <trkpt lat="44.55807" lon="0.84728">
        <ele>145.78</ele>
        <time>2014-04-06T08:06:37Z</time>
      </trkpt>
      <trkpt lat="44.55809" lon="0.84726">
        <ele>145.78</ele>
        <time>2014-04-06T08:06:38Z</time>
      </trkpt>
      <trkpt lat="44.55831" lon="0.84715">
        <ele>145.78</ele>
        <time>2014-04-06T08:06:49Z</time>
      </trkpt>
      <trkpt lat="44.55861" lon="0.84708">
        <ele>146.74</ele>
        <time>2014-04-06T08:07:01Z</time>
      </trkpt>
      <trkpt lat="44.55895" lon="0.84687">
        <ele>147.7</ele>
        <time>2014-04-06T08:07:12Z</time>
      </trkpt>
      <trkpt lat="44.55925" lon="0.84666">
        <ele>146.74</ele>
        <time>2014-04-06T08:07:21Z</time>
      </trkpt>
      <trkpt lat="44.55952" lon="0.84643">
        <ele>148.18</ele>
        <time>2014-04-06T08:07:31Z</time>
      </trkpt>
      <trkpt lat="44.55981" lon="0.84615">
        <ele>150.1</ele>
        <time>2014-04-06T08:07:40Z</time>
      </trkpt>
      <trkpt lat="44.56023" lon="0.84597">
        <ele>148.18</ele>
        <time>2014-04-06T08:07:47Z</time>
      </trkpt>
      <trkpt lat="44.5603" lon="0.84597">
        <ele>147.7</ele>
        <time>2014-04-06T08:07:48Z</time>
      </trkpt>
      <trkpt lat="44.5607" lon="0.84602">
        <ele>145.3</ele>
        <time>2014-04-06T08:07:53Z</time>
      </trkpt>
      <trkpt lat="44.56077" lon="0.84601">
        <ele>144.82</ele>
        <time>2014-04-06T08:07:54Z</time>
      </trkpt>
      <trkpt lat="44.56085" lon="0.846">
        <ele>144.34</ele>
        <time>2014-04-06T08:07:55Z</time>
      </trkpt>
      <trkpt lat="44.56097" lon="0.84597">
        <ele>144.34</ele>
        <time>2014-04-06T08:07:57Z</time>
      </trkpt>
      <trkpt lat="44.56102" lon="0.84599">
        <ele>144.82</ele>
        <time>2014-04-06T08:07:58Z</time>
      </trkpt>
      <trkpt lat="44.56162" lon="0.84625">
        <ele>152.99</ele>
        <time>2014-04-06T08:08:13Z</time>
      </trkpt>
      <trkpt lat="44.56189" lon="0.84667">
        <ele>154.91</ele>
        <time>2014-04-06T08:08:25Z</time>
      </trkpt>
      <trkpt lat="44.56191" lon="0.84686">
        <ele>154.91</ele>
        <time>2014-04-06T08:08:30Z</time>
      </trkpt>
      <trkpt lat="44.56193" lon="0.84689">
        <ele>154.91</ele>
        <time>2014-04-06T08:08:31Z</time>
      </trkpt>
      <trkpt lat="44.56228" lon="0.84736">
        <ele>157.79</ele>
        <time>2014-04-06T08:08:46Z</time>
      </trkpt>
      <trkpt lat="44.56251" lon="0.84778">
        <ele>159.72</ele>
        <time>2014-04-06T08:09:00Z</time>
      </trkpt>
      <trkpt lat="44.56267" lon="0.84818">
        <ele>160.68</ele>
        <time>2014-04-06T08:09:14Z</time>
      </trkpt>
      <trkpt lat="44.56268" lon="0.8482">
        <ele>161.16</ele>
        <time>2014-04-06T08:09:15Z</time>
      </trkpt>
      <trkpt lat="44.5627" lon="0.84822">
        <ele>161.16</ele>
        <time>2014-04-06T08:09:16Z</time>
      </trkpt>
      <trkpt lat="44.56271" lon="0.84824">
        <ele>161.64</ele>
        <time>2014-04-06T08:09:17Z</time>
      </trkpt>
      <trkpt lat="44.56273" lon="0.84826">
        <ele>161.64</ele>
        <time>2014-04-06T08:09:18Z</time>
      </trkpt>
      <trkpt lat="44.56274" lon="0.84828">
        <ele>161.64</ele>
        <time>2014-04-06T08:09:19Z</time>
      </trkpt>
      <trkpt lat="44.56276" lon="0.8483">
        <ele>162.12</ele>
        <time>2014-04-06T08:09:20Z</time>
      </trkpt>
      <trkpt lat="44.56305" lon="0.84856">
        <ele>162.6</ele>
        <time>2014-04-06T08:09:34Z</time>
      </trkpt>
      <trkpt lat="44.56342" lon="0.84874">
        <ele>164.52</ele>
        <time>2014-04-06T08:09:48Z</time>
      </trkpt>
      <trkpt lat="44.56377" lon="0.84865">
        <ele>165</ele>
        <time>2014-04-06T08:10:01Z</time>
      </trkpt>
      <trkpt lat="44.56379" lon="0.84865">
        <ele>165</ele>
        <time>2014-04-06T08:10:02Z</time>
      </trkpt>
      <trkpt lat="44.56382" lon="0.84864">
        <ele>165</ele>
        <time>2014-04-06T08:10:03Z</time>
      </trkpt>
      <trkpt lat="44.56384" lon="0.84864">
        <ele>165</ele>
        <time>2014-04-06T08:10:04Z</time>
      </trkpt>
      <trkpt lat="44.56387" lon="0.84864">
        <ele>165</ele>
        <time>2014-04-06T08:10:05Z</time>
      </trkpt>
      <trkpt lat="44.56391" lon="0.84863">
        <ele>164.52</ele>
        <time>2014-04-06T08:10:06Z</time>
      </trkpt>
      <trkpt lat="44.56406" lon="0.84861">
        <ele>164.04</ele>
        <time>2014-04-06T08:10:10Z</time>
      </trkpt>
      <trkpt lat="44.56471" lon="0.8486">
        <ele>160.68</ele>
        <time>2014-04-06T08:10:21Z</time>
      </trkpt>
      <trkpt lat="44.56478" lon="0.84858">
        <ele>160.68</ele>
        <time>2014-04-06T08:10:22Z</time>
      </trkpt>
      <trkpt lat="44.56576" lon="0.84826">
        <ele>152.51</ele>
        <time>2014-04-06T08:10:34Z</time>
      </trkpt>
      <trkpt lat="44.56625" lon="0.848">
        <ele>148.66</ele>
        <time>2014-04-06T08:10:40Z</time>
      </trkpt>
      <trkpt lat="44.56659" lon="0.84767">
        <ele>146.74</ele>
        <time>2014-04-06T08:10:45Z</time>
      </trkpt>
      <trkpt lat="44.56678" lon="0.8475">
        <ele>145.3</ele>
        <time>2014-04-06T08:10:48Z</time>
      </trkpt>
      <trkpt lat="44.56719" lon="0.84709">
        <ele>142.89</ele>
        <time>2014-04-06T08:10:55Z</time>
      </trkpt>
      <trkpt lat="44.56725" lon="0.84704">
        <ele>142.41</ele>
        <time>2014-04-06T08:10:56Z</time>
      </trkpt>
      <trkpt lat="44.56731" lon="0.84698">
        <ele>141.93</ele>
        <time>2014-04-06T08:10:57Z</time>
      </trkpt>
      <trkpt lat="44.56736" lon="0.84692">
        <ele>141.45</ele>
        <time>2014-04-06T08:10:58Z</time>
      </trkpt>
      <trkpt lat="44.56741" lon="0.84685">
        <ele>141.45</ele>
        <time>2014-04-06T08:10:59Z</time>
      </trkpt>
      <trkpt lat="44.56745" lon="0.84677">
        <ele>140.97</ele>
        <time>2014-04-06T08:11:00Z</time>
      </trkpt>
      <trkpt lat="44.56748" lon="0.84668">
        <ele>140.97</ele>
        <time>2014-04-06T08:11:01Z</time>
      </trkpt>
      <trkpt lat="44.56751" lon="0.8466">
        <ele>140.49</ele>
        <time>2014-04-06T08:11:02Z</time>
      </trkpt>
      <trkpt lat="44.56759" lon="0.84615">
        <ele>139.53</ele>
        <time>2014-04-06T08:11:07Z</time>
      </trkpt>
      <trkpt lat="44.5676" lon="0.8458">
        <ele>139.53</ele>
        <time>2014-04-06T08:11:13Z</time>
      </trkpt>
      <trkpt lat="44.56762" lon="0.84578">
        <ele>139.05</ele>
        <time>2014-04-06T08:11:14Z</time>
      </trkpt>
      <trkpt lat="44.56764" lon="0.84577">
        <ele>139.05</ele>
        <time>2014-04-06T08:11:15Z</time>
      </trkpt>
      <trkpt lat="44.56766" lon="0.84579">
        <ele>139.05</ele>
        <time>2014-04-06T08:11:16Z</time>
      </trkpt>
      <trkpt lat="44.56767" lon="0.8458">
        <ele>139.05</ele>
        <time>2014-04-06T08:11:17Z</time>
      </trkpt>
      <trkpt lat="44.56769" lon="0.84582">
        <ele>138.57</ele>
        <time>2014-04-06T08:11:18Z</time>
      </trkpt>
      <trkpt lat="44.56771" lon="0.84584">
        <ele>138.57</ele>
        <time>2014-04-06T08:11:19Z</time>
      </trkpt>
      <trkpt lat="44.56796" lon="0.84614">
        <ele>139.05</ele>
        <time>2014-04-06T08:11:31Z</time>
      </trkpt>
      <trkpt lat="44.56833" lon="0.84638">
        <ele>141.93</ele>
        <time>2014-04-06T08:11:45Z</time>
      </trkpt>
      <trkpt lat="44.56865" lon="0.84671">
        <ele>142.89</ele>
        <time>2014-04-06T08:11:58Z</time>
      </trkpt>
      <trkpt lat="44.56882" lon="0.84706">
        <ele>144.82</ele>
        <time>2014-04-06T08:12:08Z</time>
      </trkpt>
      <trkpt lat="44.56904" lon="0.84744">
        <ele>143.37</ele>
        <time>2014-04-06T08:12:19Z</time>
      </trkpt>
      <trkpt lat="44.56915" lon="0.84785">
        <ele>144.82</ele>
        <time>2014-04-06T08:12:29Z</time>
      </trkpt>
      <trkpt lat="44.56925" lon="0.84833">
        <ele>148.18</ele>
        <time>2014-04-06T08:12:40Z</time>
      </trkpt>
      <trkpt lat="44.56942" lon="0.84859">
        <ele>151.54</ele>
        <time>2014-04-06T08:12:50Z</time>
      </trkpt>
      <trkpt lat="44.56954" lon="0.84858">
        <ele>156.35</ele>
        <time>2014-04-06T08:13:03Z</time>
      </trkpt>
      <trkpt lat="44.56964" lon="0.84856">
        <ele>160.68</ele>
        <time>2014-04-06T08:13:15Z</time>
      </trkpt>
      <trkpt lat="44.56975" lon="0.84865">
        <ele>163.08</ele>
        <time>2014-04-06T08:13:29Z</time>
      </trkpt>
      <trkpt lat="44.56977" lon="0.84867">
        <ele>165</ele>
        <time>2014-04-06T08:13:34Z</time>
      </trkpt>
      <trkpt lat="44.56978" lon="0.84873">
        <ele>166.93</ele>
        <time>2014-04-06T08:13:38Z</time>
      </trkpt>
      <trkpt lat="44.5699" lon="0.84882">
        <ele>171.73</ele>
        <time>2014-04-06T08:13:50Z</time>
      </trkpt>
      <trkpt lat="44.57004" lon="0.84883">
        <ele>171.25</ele>
        <time>2014-04-06T08:14:02Z</time>
      </trkpt>
      <trkpt lat="44.57008" lon="0.84882">
        <ele>171.73</ele>
        <time>2014-04-06T08:14:05Z</time>
      </trkpt>
      <trkpt lat="44.5702" lon="0.84888">
        <ele>172.21</ele>
        <time>2014-04-06T08:14:16Z</time>
      </trkpt>
      <trkpt lat="44.57038" lon="0.849">
        <ele>173.66</ele>
        <time>2014-04-06T08:14:32Z</time>
      </trkpt>
      <trkpt lat="44.5704" lon="0.849">
        <ele>174.14</ele>
        <time>2014-04-06T08:14:49Z</time>
      </trkpt>
      <trkpt lat="44.57041" lon="0.84898">
        <ele>173.17</ele>
        <time>2014-04-06T08:15:09Z</time>
      </trkpt>
      <trkpt lat="44.57045" lon="0.849">
        <ele>173.66</ele>
        <time>2014-04-06T08:15:12Z</time>
      </trkpt>
      <trkpt lat="44.5705" lon="0.84907">
        <ele>173.66</ele>
        <time>2014-04-06T08:15:15Z</time>
      </trkpt>
      <trkpt lat="44.57064" lon="0.84911">
        <ele>175.1</ele>
        <time>2014-04-06T08:15:21Z</time>
      </trkpt>
      <trkpt lat="44.57069" lon="0.8491">
        <ele>176.06</ele>
        <time>2014-04-06T08:15:23Z</time>
      </trkpt>
      <trkpt lat="44.57097" lon="0.84909">
        <ele>177.02</ele>
        <time>2014-04-06T08:15:35Z</time>
      </trkpt>
      <trkpt lat="44.57128" lon="0.84911">
        <ele>177.02</ele>
        <time>2014-04-06T08:15:46Z</time>
      </trkpt>
      <trkpt lat="44.57157" lon="0.84905">
        <ele>177.98</ele>
        <time>2014-04-06T08:15:57Z</time>
      </trkpt>
      <trkpt lat="44.57184" lon="0.8492">
        <ele>177.5</ele>
        <time>2014-04-06T08:16:06Z</time>
      </trkpt>
      <trkpt lat="44.57219" lon="0.84913">
        <ele>176.06</ele>
        <time>2014-04-06T08:16:17Z</time>
      </trkpt>
      <trkpt lat="44.57217" lon="0.8493">
        <ele>174.62</ele>
        <time>2014-04-06T08:16:24Z</time>
      </trkpt>
      <trkpt lat="44.57206" lon="0.84965">
        <ele>175.1</ele>
        <time>2014-04-06T08:16:33Z</time>
      </trkpt>
      <trkpt lat="44.57174" lon="0.85048">
        <ele>175.1</ele>
        <time>2014-04-06T08:16:45Z</time>
      </trkpt>
      <trkpt lat="44.57159" lon="0.85088">
        <ele>172.21</ele>
        <time>2014-04-06T08:16:51Z</time>
      </trkpt>
      <trkpt lat="44.57156" lon="0.85133">
        <ele>169.81</ele>
        <time>2014-04-06T08:16:56Z</time>
      </trkpt>
      <trkpt lat="44.57157" lon="0.85161">
        <ele>168.37</ele>
        <time>2014-04-06T08:16:59Z</time>
      </trkpt>
      <trkpt lat="44.5716" lon="0.85185">
        <ele>165.48</ele>
        <time>2014-04-06T08:17:02Z</time>
      </trkpt>
      <trkpt lat="44.57155" lon="0.85219">
        <ele>165</ele>
        <time>2014-04-06T08:17:09Z</time>
      </trkpt>
      <trkpt lat="44.57146" lon="0.85253">
        <ele>171.25</ele>
        <time>2014-04-06T08:17:19Z</time>
      </trkpt>
      <trkpt lat="44.57137" lon="0.85258">
        <ele>171.73</ele>
        <time>2014-04-06T08:17:22Z</time>
      </trkpt>
      <trkpt lat="44.57126" lon="0.85265">
        <ele>172.21</ele>
        <time>2014-04-06T08:17:25Z</time>
      </trkpt>
      <trkpt lat="44.57114" lon="0.85293">
        <ele>174.14</ele>
        <time>2014-04-06T08:17:32Z</time>
      </trkpt>
      <trkpt lat="44.57099" lon="0.85297">
        <ele>175.1</ele>
        <time>2014-04-06T08:17:37Z</time>
      </trkpt>
      <trkpt lat="44.57062" lon="0.85306">
        <ele>177.02</ele>
        <time>2014-04-06T08:17:48Z</time>
      </trkpt>
      <trkpt lat="44.57049" lon="0.8533">
        <ele>179.42</ele>
        <time>2014-04-06T08:17:57Z</time>
      </trkpt>
      <trkpt lat="44.57054" lon="0.85364">
        <ele>182.31</ele>
        <time>2014-04-06T08:18:09Z</time>
      </trkpt>
      <trkpt lat="44.57057" lon="0.85399">
        <ele>183.75</ele>
        <time>2014-04-06T08:18:20Z</time>
      </trkpt>
      <trkpt lat="44.57058" lon="0.85407">
        <ele>183.27</ele>
        <time>2014-04-06T08:18:23Z</time>
      </trkpt>
      <trkpt lat="44.57044" lon="0.8543">
        <ele>185.67</ele>
        <time>2014-04-06T08:18:36Z</time>
      </trkpt>
      <trkpt lat="44.57022" lon="0.85434">
        <ele>189.52</ele>
        <time>2014-04-06T08:18:51Z</time>
      </trkpt>
      <trkpt lat="44.57006" lon="0.85433">
        <ele>190.96</ele>
        <time>2014-04-06T08:18:59Z</time>
      </trkpt>
      <trkpt lat="44.57003" lon="0.85423">
        <ele>190.96</ele>
        <time>2014-04-06T08:19:05Z</time>
      </trkpt>
      <trkpt lat="44.56994" lon="0.85426">
        <ele>190</ele>
        <time>2014-04-06T08:19:12Z</time>
      </trkpt>
      <trkpt lat="44.5697" lon="0.85432">
        <ele>193.36</ele>
        <time>2014-04-06T08:19:26Z</time>
      </trkpt>
      <trkpt lat="44.56942" lon="0.85431">
        <ele>195.77</ele>
        <time>2014-04-06T08:19:39Z</time>
      </trkpt>
      <trkpt lat="44.5691" lon="0.85428">
        <ele>196.25</ele>
        <time>2014-04-06T08:19:52Z</time>
      </trkpt>
      <trkpt lat="44.56886" lon="0.85429">
        <ele>194.32</ele>
        <time>2014-04-06T08:20:02Z</time>
      </trkpt>
      <trkpt lat="44.56877" lon="0.8543">
        <ele>193.36</ele>
        <time>2014-04-06T08:20:06Z</time>
      </trkpt>
      <trkpt lat="44.56847" lon="0.85435">
        <ele>193.36</ele>
        <time>2014-04-06T08:20:18Z</time>
      </trkpt>
      <trkpt lat="44.56808" lon="0.85428">
        <ele>188.56</ele>
        <time>2014-04-06T08:20:31Z</time>
      </trkpt>
      <trkpt lat="44.56767" lon="0.8544">
        <ele>184.71</ele>
        <time>2014-04-06T08:20:45Z</time>
      </trkpt>
      <trkpt lat="44.56734" lon="0.85458">
        <ele>185.19</ele>
        <time>2014-04-06T08:20:54Z</time>
      </trkpt>
      <trkpt lat="44.5673" lon="0.8546">
        <ele>184.71</ele>
        <time>2014-04-06T08:20:55Z</time>
      </trkpt>
      <trkpt lat="44.56716" lon="0.85467">
        <ele>184.71</ele>
        <time>2014-04-06T08:20:58Z</time>
      </trkpt>
      <trkpt lat="44.56691" lon="0.85488">
        <ele>185.19</ele>
        <time>2014-04-06T08:21:04Z</time>
      </trkpt>
      <trkpt lat="44.56687" lon="0.8549">
        <ele>185.19</ele>
        <time>2014-04-06T08:21:05Z</time>
      </trkpt>
      <trkpt lat="44.56683" lon="0.85491">
        <ele>185.67</ele>
        <time>2014-04-06T08:21:06Z</time>
      </trkpt>
      <trkpt lat="44.56679" lon="0.85494">
        <ele>185.67</ele>
        <time>2014-04-06T08:21:07Z</time>
      </trkpt>
      <trkpt lat="44.56676" lon="0.85496">
        <ele>186.15</ele>
        <time>2014-04-06T08:21:08Z</time>
      </trkpt>
      <trkpt lat="44.56673" lon="0.85498">
        <ele>186.15</ele>
        <time>2014-04-06T08:21:09Z</time>
      </trkpt>
      <trkpt lat="44.56652" lon="0.85541">
        <ele>177.98</ele>
        <time>2014-04-06T08:21:19Z</time>
      </trkpt>
      <trkpt lat="44.56651" lon="0.85547">
        <ele>177.98</ele>
        <time>2014-04-06T08:21:20Z</time>
      </trkpt>
      <trkpt lat="44.56649" lon="0.85554">
        <ele>177.5</ele>
        <time>2014-04-06T08:21:21Z</time>
      </trkpt>
      <trkpt lat="44.56648" lon="0.8556">
        <ele>177.02</ele>
        <time>2014-04-06T08:21:22Z</time>
      </trkpt>
      <trkpt lat="44.56647" lon="0.85567">
        <ele>177.02</ele>
        <time>2014-04-06T08:21:23Z</time>
      </trkpt>
      <trkpt lat="44.56645" lon="0.85575">
        <ele>176.54</ele>
        <time>2014-04-06T08:21:24Z</time>
      </trkpt>
      <trkpt lat="44.56623" lon="0.85691">
        <ele>175.1</ele>
        <time>2014-04-06T08:21:38Z</time>
      </trkpt>
      <trkpt lat="44.5662" lon="0.85809">
        <ele>173.66</ele>
        <time>2014-04-06T08:21:49Z</time>
      </trkpt>
      <trkpt lat="44.56615" lon="0.85942">
        <ele>167.89</ele>
        <time>2014-04-06T08:22:01Z</time>
      </trkpt>
      <trkpt lat="44.56591" lon="0.8606">
        <ele>160.68</ele>
        <time>2014-04-06T08:22:12Z</time>
      </trkpt>
      <trkpt lat="44.56587" lon="0.86067">
        <ele>160.68</ele>
        <time>2014-04-06T08:22:13Z</time>
      </trkpt>
      <trkpt lat="44.56582" lon="0.86074">
        <ele>160.68</ele>
        <time>2014-04-06T08:22:14Z</time>
      </trkpt>
      <trkpt lat="44.56577" lon="0.8608">
        <ele>160.68</ele>
        <time>2014-04-06T08:22:15Z</time>
      </trkpt>
      <trkpt lat="44.56572" lon="0.86086">
        <ele>160.68</ele>
        <time>2014-04-06T08:22:16Z</time>
      </trkpt>
      <trkpt lat="44.56566" lon="0.86091">
        <ele>161.16</ele>
        <time>2014-04-06T08:22:17Z</time>
      </trkpt>
      <trkpt lat="44.56559" lon="0.86095">
        <ele>160.68</ele>
        <time>2014-04-06T08:22:18Z</time>
      </trkpt>
      <trkpt lat="44.56551" lon="0.86098">
        <ele>160.68</ele>
        <time>2014-04-06T08:22:19Z</time>
      </trkpt>
      <trkpt lat="44.56544" lon="0.86101">
        <ele>160.2</ele>
        <time>2014-04-06T08:22:20Z</time>
      </trkpt>
      <trkpt lat="44.56536" lon="0.86102">
        <ele>159.72</ele>
        <time>2014-04-06T08:22:21Z</time>
      </trkpt>
      <trkpt lat="44.56435" lon="0.86116">
        <ele>157.31</ele>
        <time>2014-04-06T08:22:35Z</time>
      </trkpt>
      <trkpt lat="44.56354" lon="0.86129">
        <ele>152.51</ele>
        <time>2014-04-06T08:22:46Z</time>
      </trkpt>
      <trkpt lat="44.56279" lon="0.86141">
        <ele>149.14</ele>
        <time>2014-04-06T08:22:58Z</time>
      </trkpt>
      <trkpt lat="44.56276" lon="0.86143">
        <ele>149.14</ele>
        <time>2014-04-06T08:22:59Z</time>
      </trkpt>
      <trkpt lat="44.56276" lon="0.8615">
        <ele>149.62</ele>
        <time>2014-04-06T08:23:01Z</time>
      </trkpt>
      <trkpt lat="44.56278" lon="0.86153">
        <ele>149.62</ele>
        <time>2014-04-06T08:23:02Z</time>
      </trkpt>
      <trkpt lat="44.56281" lon="0.86156">
        <ele>149.62</ele>
        <time>2014-04-06T08:23:03Z</time>
      </trkpt>
      <trkpt lat="44.56285" lon="0.86158">
        <ele>150.1</ele>
        <time>2014-04-06T08:23:04Z</time>
      </trkpt>
      <trkpt lat="44.56288" lon="0.86161">
        <ele>150.1</ele>
        <time>2014-04-06T08:23:05Z</time>
      </trkpt>
      <trkpt lat="44.56291" lon="0.86164">
        <ele>150.1</ele>
        <time>2014-04-06T08:23:06Z</time>
      </trkpt>
      <trkpt lat="44.56294" lon="0.86167">
        <ele>150.1</ele>
        <time>2014-04-06T08:23:07Z</time>
      </trkpt>
      <trkpt lat="44.56329" lon="0.86204">
        <ele>150.58</ele>
        <time>2014-04-06T08:23:19Z</time>
      </trkpt>
      <trkpt lat="44.56345" lon="0.86242">
        <ele>156.35</ele>
        <time>2014-04-06T08:23:28Z</time>
      </trkpt>
      <trkpt lat="44.5635" lon="0.86288">
        <ele>157.31</ele>
        <time>2014-04-06T08:23:40Z</time>
      </trkpt>
      <trkpt lat="44.56362" lon="0.86329">
        <ele>156.83</ele>
        <time>2014-04-06T08:23:49Z</time>
      </trkpt>
      <trkpt lat="44.56381" lon="0.86375">
        <ele>163.56</ele>
        <time>2014-04-06T08:24:01Z</time>
      </trkpt>
      <trkpt lat="44.56388" lon="0.86398">
        <ele>165.96</ele>
        <time>2014-04-06T08:24:07Z</time>
      </trkpt>
      <trkpt lat="44.56387" lon="0.86423">
        <ele>171.73</ele>
        <time>2014-04-06T08:24:14Z</time>
      </trkpt>
      <trkpt lat="44.56384" lon="0.86447">
        <ele>178.46</ele>
        <time>2014-04-06T08:24:21Z</time>
      </trkpt>
      <trkpt lat="44.56376" lon="0.86472">
        <ele>184.71</ele>
        <time>2014-04-06T08:24:29Z</time>
      </trkpt>
      <trkpt lat="44.5636" lon="0.86511">
        <ele>194.32</ele>
        <time>2014-04-06T08:24:42Z</time>
      </trkpt>
      <trkpt lat="44.56341" lon="0.86542">
        <ele>194.32</ele>
        <time>2014-04-06T08:24:52Z</time>
      </trkpt>
      <trkpt lat="44.56324" lon="0.86566">
        <ele>194.8</ele>
        <time>2014-04-06T08:24:59Z</time>
      </trkpt>
      <trkpt lat="44.56311" lon="0.86592">
        <ele>192.88</ele>
        <time>2014-04-06T08:25:06Z</time>
      </trkpt>
      <trkpt lat="44.56307" lon="0.86607">
        <ele>189.04</ele>
        <time>2014-04-06T08:25:10Z</time>
      </trkpt>
      <trkpt lat="44.56307" lon="0.86619">
        <ele>185.67</ele>
        <time>2014-04-06T08:25:12Z</time>
      </trkpt>
      <trkpt lat="44.56313" lon="0.8667">
        <ele>175.1</ele>
        <time>2014-04-06T08:25:22Z</time>
      </trkpt>
      <trkpt lat="44.56321" lon="0.86706">
        <ele>170.29</ele>
        <time>2014-04-06T08:25:32Z</time>
      </trkpt>
      <trkpt lat="44.56327" lon="0.86724">
        <ele>170.29</ele>
        <time>2014-04-06T08:25:37Z</time>
      </trkpt>
      <trkpt lat="44.56333" lon="0.86743">
        <ele>170.29</ele>
        <time>2014-04-06T08:25:42Z</time>
      </trkpt>
      <trkpt lat="44.56339" lon="0.86764">
        <ele>171.25</ele>
        <time>2014-04-06T08:25:47Z</time>
      </trkpt>
      <trkpt lat="44.5634" lon="0.86781">
        <ele>173.66</ele>
        <time>2014-04-06T08:25:51Z</time>
      </trkpt>
      <trkpt lat="44.56329" lon="0.86801">
        <ele>177.02</ele>
        <time>2014-04-06T08:26:01Z</time>
      </trkpt>
      <trkpt lat="44.56324" lon="0.86813">
        <ele>179.42</ele>
        <time>2014-04-06T08:26:05Z</time>
      </trkpt>
      <trkpt lat="44.56321" lon="0.86822">
        <ele>180.38</ele>
        <time>2014-04-06T08:26:07Z</time>
      </trkpt>
      <trkpt lat="44.5632" lon="0.86833">
        <ele>180.87</ele>
        <time>2014-04-06T08:26:10Z</time>
      </trkpt>
      <trkpt lat="44.56314" lon="0.86847">
        <ele>180.38</ele>
        <time>2014-04-06T08:26:17Z</time>
      </trkpt>
      <trkpt lat="44.5629" lon="0.86855">
        <ele>185.67</ele>
        <time>2014-04-06T08:26:27Z</time>
      </trkpt>
      <trkpt lat="44.56278" lon="0.86868">
        <ele>190.48</ele>
        <time>2014-04-06T08:26:36Z</time>
      </trkpt>
      <trkpt lat="44.56277" lon="0.86893">
        <ele>190</ele>
        <time>2014-04-06T08:26:44Z</time>
      </trkpt>
      <trkpt lat="44.56279" lon="0.86934">
        <ele>185.67</ele>
        <time>2014-04-06T08:26:56Z</time>
      </trkpt>
      <trkpt lat="44.5628" lon="0.86954">
        <ele>184.71</ele>
        <time>2014-04-06T08:27:02Z</time>
      </trkpt>
      <trkpt lat="44.56281" lon="0.86968">
        <ele>183.75</ele>
        <time>2014-04-06T08:27:06Z</time>
      </trkpt>
      <trkpt lat="44.56284" lon="0.87015">
        <ele>177.5</ele>
        <time>2014-04-06T08:27:17Z</time>
      </trkpt>
      <trkpt lat="44.56291" lon="0.87036">
        <ele>175.58</ele>
        <time>2014-04-06T08:27:23Z</time>
      </trkpt>
      <trkpt lat="44.56295" lon="0.8708">
        <ele>173.17</ele>
        <time>2014-04-06T08:27:34Z</time>
      </trkpt>
      <trkpt lat="44.56299" lon="0.87104">
        <ele>173.17</ele>
        <time>2014-04-06T08:27:41Z</time>
      </trkpt>
      <trkpt lat="44.56305" lon="0.87144">
        <ele>175.1</ele>
        <time>2014-04-06T08:27:52Z</time>
      </trkpt>
      <trkpt lat="44.5632" lon="0.87152">
        <ele>181.35</ele>
        <time>2014-04-06T08:28:02Z</time>
      </trkpt>
      <trkpt lat="44.56333" lon="0.87153">
        <ele>185.19</ele>
        <time>2014-04-06T08:28:10Z</time>
      </trkpt>
      <trkpt lat="44.56358" lon="0.87171">
        <ele>191.44</ele>
        <time>2014-04-06T08:28:23Z</time>
      </trkpt>
      <trkpt lat="44.56365" lon="0.87183">
        <ele>193.36</ele>
        <time>2014-04-06T08:28:28Z</time>
      </trkpt>
      <trkpt lat="44.56377" lon="0.87207">
        <ele>196.25</ele>
        <time>2014-04-06T08:28:40Z</time>
      </trkpt>
      <trkpt lat="44.56381" lon="0.87213">
        <ele>195.77</ele>
        <time>2014-04-06T08:28:43Z</time>
      </trkpt>
      <trkpt lat="44.56383" lon="0.87214">
        <ele>195.77</ele>
        <time>2014-04-06T08:28:44Z</time>
      </trkpt>
      <trkpt lat="44.56385" lon="0.87214">
        <ele>195.77</ele>
        <time>2014-04-06T08:28:45Z</time>
      </trkpt>
      <trkpt lat="44.56387" lon="0.87213">
        <ele>195.77</ele>
        <time>2014-04-06T08:28:46Z</time>
      </trkpt>
      <trkpt lat="44.56388" lon="0.87213">
        <ele>195.77</ele>
        <time>2014-04-06T08:28:47Z</time>
      </trkpt>
      <trkpt lat="44.5639" lon="0.87212">
        <ele>195.77</ele>
        <time>2014-04-06T08:28:48Z</time>
      </trkpt>
      <trkpt lat="44.56394" lon="0.87212">
        <ele>195.77</ele>
        <time>2014-04-06T08:28:50Z</time>
      </trkpt>
      <trkpt lat="44.56396" lon="0.87212">
        <ele>196.25</ele>
        <time>2014-04-06T08:28:51Z</time>
      </trkpt>
      <trkpt lat="44.56398" lon="0.87212">
        <ele>196.25</ele>
        <time>2014-04-06T08:28:52Z</time>
      </trkpt>
      <trkpt lat="44.564" lon="0.87212">
        <ele>196.73</ele>
        <time>2014-04-06T08:28:53Z</time>
      </trkpt>
      <trkpt lat="44.56402" lon="0.87213">
        <ele>197.21</ele>
        <time>2014-04-06T08:28:54Z</time>
      </trkpt>
      <trkpt lat="44.56409" lon="0.87212">
        <ele>197.69</ele>
        <time>2014-04-06T08:29:06Z</time>
      </trkpt>
      <trkpt lat="44.56409" lon="0.87212">
        <ele>197.21</ele>
        <time>2014-04-06T08:29:27Z</time>
      </trkpt>
      <trkpt lat="44.56412" lon="0.87211">
        <ele>195.28</ele>
        <time>2014-04-06T08:29:53Z</time>
      </trkpt>
      <trkpt lat="44.56441" lon="0.87207">
        <ele>193.84</ele>
        <time>2014-04-06T08:30:03Z</time>
      </trkpt>
      <trkpt lat="44.56499" lon="0.87209">
        <ele>193.36</ele>
        <time>2014-04-06T08:30:14Z</time>
      </trkpt>
      <trkpt lat="44.56505" lon="0.8721">
        <ele>193.36</ele>
        <time>2014-04-06T08:30:15Z</time>
      </trkpt>
      <trkpt lat="44.56551" lon="0.87208">
        <ele>194.8</ele>
        <time>2014-04-06T08:30:24Z</time>
      </trkpt>
      <trkpt lat="44.56556" lon="0.87209">
        <ele>195.28</ele>
        <time>2014-04-06T08:30:25Z</time>
      </trkpt>
      <trkpt lat="44.5656" lon="0.87208">
        <ele>195.77</ele>
        <time>2014-04-06T08:30:26Z</time>
      </trkpt>
      <trkpt lat="44.56568" lon="0.87207">
        <ele>196.73</ele>
        <time>2014-04-06T08:30:28Z</time>
      </trkpt>
      <trkpt lat="44.56572" lon="0.87207">
        <ele>197.21</ele>
        <time>2014-04-06T08:30:29Z</time>
      </trkpt>
      <trkpt lat="44.56599" lon="0.87204">
        <ele>198.17</ele>
        <time>2014-04-06T08:30:35Z</time>
      </trkpt>
      <trkpt lat="44.56612" lon="0.87205">
        <ele>198.65</ele>
        <time>2014-04-06T08:30:38Z</time>
      </trkpt>
      <trkpt lat="44.56616" lon="0.87206">
        <ele>199.13</ele>
        <time>2014-04-06T08:30:39Z</time>
      </trkpt>
      <trkpt lat="44.5662" lon="0.87206">
        <ele>199.13</ele>
        <time>2014-04-06T08:30:40Z</time>
      </trkpt>
      <trkpt lat="44.56671" lon="0.87198">
        <ele>203.94</ele>
        <time>2014-04-06T08:30:53Z</time>
      </trkpt>
      <trkpt lat="44.56723" lon="0.87183">
        <ele>203.46</ele>
        <time>2014-04-06T08:31:04Z</time>
      </trkpt>
      <trkpt lat="44.56818" lon="0.87157">
        <ele>200.57</ele>
        <time>2014-04-06T08:31:21Z</time>
      </trkpt>
      <trkpt lat="44.56824" lon="0.87156">
        <ele>200.57</ele>
        <time>2014-04-06T08:31:22Z</time>
      </trkpt>
      <trkpt lat="44.5685" lon="0.87152">
        <ele>200.09</ele>
        <time>2014-04-06T08:31:27Z</time>
      </trkpt>
      <trkpt lat="44.56855" lon="0.87152">
        <ele>200.09</ele>
        <time>2014-04-06T08:31:28Z</time>
      </trkpt>
      <trkpt lat="44.56871" lon="0.87154">
        <ele>200.09</ele>
        <time>2014-04-06T08:31:31Z</time>
      </trkpt>
      <trkpt lat="44.56903" lon="0.87148">
        <ele>199.13</ele>
        <time>2014-04-06T08:31:37Z</time>
      </trkpt>
      <trkpt lat="44.56909" lon="0.87147">
        <ele>199.13</ele>
        <time>2014-04-06T08:31:38Z</time>
      </trkpt>
      <trkpt lat="44.56914" lon="0.87146">
        <ele>199.13</ele>
        <time>2014-04-06T08:31:39Z</time>
      </trkpt>
      <trkpt lat="44.56919" lon="0.87146">
        <ele>199.13</ele>
        <time>2014-04-06T08:31:40Z</time>
      </trkpt>
      <trkpt lat="44.56924" lon="0.87145">
        <ele>199.13</ele>
        <time>2014-04-06T08:31:41Z</time>
      </trkpt>
      <trkpt lat="44.57008" lon="0.87125">
        <ele>198.65</ele>
        <time>2014-04-06T08:31:57Z</time>
      </trkpt>
      <trkpt lat="44.5706" lon="0.87098">
        <ele>197.69</ele>
        <time>2014-04-06T08:32:07Z</time>
      </trkpt>
      <trkpt lat="44.57065" lon="0.87094">
        <ele>197.21</ele>
        <time>2014-04-06T08:32:08Z</time>
      </trkpt>
      <trkpt lat="44.5707" lon="0.87089">
        <ele>197.21</ele>
        <time>2014-04-06T08:32:09Z</time>
      </trkpt>
      <trkpt lat="44.57075" lon="0.87085">
        <ele>196.73</ele>
        <time>2014-04-06T08:32:10Z</time>
      </trkpt>
      <trkpt lat="44.5708" lon="0.8708">
        <ele>196.25</ele>
        <time>2014-04-06T08:32:11Z</time>
      </trkpt>
      <trkpt lat="44.57085" lon="0.87075">
        <ele>196.25</ele>
        <time>2014-04-06T08:32:12Z</time>
      </trkpt>
      <trkpt lat="44.57136" lon="0.8701">
        <ele>193.36</ele>
        <time>2014-04-06T08:32:24Z</time>
      </trkpt>
      <trkpt lat="44.57145" lon="0.87001">
        <ele>192.4</ele>
        <time>2014-04-06T08:32:26Z</time>
      </trkpt>
      <trkpt lat="44.57149" lon="0.86997">
        <ele>192.4</ele>
        <time>2014-04-06T08:32:27Z</time>
      </trkpt>
      <trkpt lat="44.57158" lon="0.8699">
        <ele>191.44</ele>
        <time>2014-04-06T08:32:29Z</time>
      </trkpt>
      <trkpt lat="44.57173" lon="0.86973">
        <ele>190.96</ele>
        <time>2014-04-06T08:32:33Z</time>
      </trkpt>
      <trkpt lat="44.57176" lon="0.86967">
        <ele>190.96</ele>
        <time>2014-04-06T08:32:34Z</time>
      </trkpt>
      <trkpt lat="44.57206" lon="0.86907">
        <ele>190.96</ele>
        <time>2014-04-06T08:32:46Z</time>
      </trkpt>
      <trkpt lat="44.57209" lon="0.86896">
        <ele>191.44</ele>
        <time>2014-04-06T08:32:48Z</time>
      </trkpt>
      <trkpt lat="44.57211" lon="0.8689">
        <ele>191.44</ele>
        <time>2014-04-06T08:32:49Z</time>
      </trkpt>
      <trkpt lat="44.57212" lon="0.86883">
        <ele>192.4</ele>
        <time>2014-04-06T08:32:50Z</time>
      </trkpt>
      <trkpt lat="44.57215" lon="0.86871">
        <ele>192.88</ele>
        <time>2014-04-06T08:32:52Z</time>
      </trkpt>
      <trkpt lat="44.57216" lon="0.86865">
        <ele>193.36</ele>
        <time>2014-04-06T08:32:53Z</time>
      </trkpt>
      <trkpt lat="44.57218" lon="0.8686">
        <ele>193.36</ele>
        <time>2014-04-06T08:32:54Z</time>
      </trkpt>
      <trkpt lat="44.57219" lon="0.86855">
        <ele>193.84</ele>
        <time>2014-04-06T08:32:55Z</time>
      </trkpt>
      <trkpt lat="44.57221" lon="0.8685">
        <ele>193.84</ele>
        <time>2014-04-06T08:32:56Z</time>
      </trkpt>
      <trkpt lat="44.57222" lon="0.86844">
        <ele>193.84</ele>
        <time>2014-04-06T08:32:57Z</time>
      </trkpt>
      <trkpt lat="44.57224" lon="0.86833">
        <ele>194.32</ele>
        <time>2014-04-06T08:32:59Z</time>
      </trkpt>
      <trkpt lat="44.57226" lon="0.86827">
        <ele>194.32</ele>
        <time>2014-04-06T08:33:00Z</time>
      </trkpt>
      <trkpt lat="44.57237" lon="0.86796">
        <ele>194.8</ele>
        <time>2014-04-06T08:33:06Z</time>
      </trkpt>
      <trkpt lat="44.57254" lon="0.8672">
        <ele>195.28</ele>
        <time>2014-04-06T08:33:18Z</time>
      </trkpt>
      <trkpt lat="44.57269" lon="0.86656">
        <ele>196.73</ele>
        <time>2014-04-06T08:33:30Z</time>
      </trkpt>
      <trkpt lat="44.57291" lon="0.86602">
        <ele>198.65</ele>
        <time>2014-04-06T08:33:41Z</time>
      </trkpt>
      <trkpt lat="44.57303" lon="0.86576">
        <ele>198.65</ele>
        <time>2014-04-06T08:33:46Z</time>
      </trkpt>
      <trkpt lat="44.57306" lon="0.86571">
        <ele>198.17</ele>
        <time>2014-04-06T08:33:47Z</time>
      </trkpt>
      <trkpt lat="44.57309" lon="0.86566">
        <ele>197.69</ele>
        <time>2014-04-06T08:33:48Z</time>
      </trkpt>
      <trkpt lat="44.57312" lon="0.86561">
        <ele>197.21</ele>
        <time>2014-04-06T08:33:49Z</time>
      </trkpt>
      <trkpt lat="44.57314" lon="0.86556">
        <ele>197.21</ele>
        <time>2014-04-06T08:33:50Z</time>
      </trkpt>
      <trkpt lat="44.57317" lon="0.86551">
        <ele>197.21</ele>
        <time>2014-04-06T08:33:51Z</time>
      </trkpt>
      <trkpt lat="44.57331" lon="0.865">
        <ele>197.21</ele>
        <time>2014-04-06T08:34:01Z</time>
      </trkpt>
      <trkpt lat="44.5733" lon="0.86496">
        <ele>197.21</ele>
        <time>2014-04-06T08:34:02Z</time>
      </trkpt>
      <trkpt lat="44.5733" lon="0.86491">
        <ele>197.21</ele>
        <time>2014-04-06T08:34:03Z</time>
      </trkpt>
      <trkpt lat="44.5733" lon="0.86486">
        <ele>197.21</ele>
        <time>2014-04-06T08:34:04Z</time>
      </trkpt>
      <trkpt lat="44.57331" lon="0.8648">
        <ele>197.21</ele>
        <time>2014-04-06T08:34:05Z</time>
      </trkpt>
      <trkpt lat="44.57335" lon="0.86411">
        <ele>198.17</ele>
        <time>2014-04-06T08:34:17Z</time>
      </trkpt>
      <trkpt lat="44.57333" lon="0.86348">
        <ele>198.65</ele>
        <time>2014-04-06T08:34:28Z</time>
      </trkpt>
      <trkpt lat="44.57332" lon="0.86324">
        <ele>198.65</ele>
        <time>2014-04-06T08:34:32Z</time>
      </trkpt>
      <trkpt lat="44.57331" lon="0.86319">
        <ele>198.17</ele>
        <time>2014-04-06T08:34:33Z</time>
      </trkpt>
      <trkpt lat="44.5733" lon="0.86314">
        <ele>198.17</ele>
        <time>2014-04-06T08:34:34Z</time>
      </trkpt>
      <trkpt lat="44.57329" lon="0.86308">
        <ele>198.17</ele>
        <time>2014-04-06T08:34:35Z</time>
      </trkpt>
      <trkpt lat="44.57328" lon="0.86303">
        <ele>198.17</ele>
        <time>2014-04-06T08:34:36Z</time>
      </trkpt>
      <trkpt lat="44.57327" lon="0.86297">
        <ele>198.17</ele>
        <time>2014-04-06T08:34:37Z</time>
      </trkpt>
      <trkpt lat="44.57327" lon="0.86291">
        <ele>198.17</ele>
        <time>2014-04-06T08:34:38Z</time>
      </trkpt>
      <trkpt lat="44.57326" lon="0.86286">
        <ele>198.65</ele>
        <time>2014-04-06T08:34:39Z</time>
      </trkpt>
      <trkpt lat="44.57325" lon="0.8628">
        <ele>198.65</ele>
        <time>2014-04-06T08:34:40Z</time>
      </trkpt>
      <trkpt lat="44.57324" lon="0.86274">
        <ele>198.65</ele>
        <time>2014-04-06T08:34:41Z</time>
      </trkpt>
      <trkpt lat="44.57321" lon="0.86243">
        <ele>197.69</ele>
        <time>2014-04-06T08:34:46Z</time>
      </trkpt>
      <trkpt lat="44.57321" lon="0.86236">
        <ele>197.69</ele>
        <time>2014-04-06T08:34:47Z</time>
      </trkpt>
      <trkpt lat="44.57312" lon="0.8612">
        <ele>195.77</ele>
        <time>2014-04-06T08:35:01Z</time>
      </trkpt>
      <trkpt lat="44.57314" lon="0.86092">
        <ele>194.8</ele>
        <time>2014-04-06T08:35:04Z</time>
      </trkpt>
      <trkpt lat="44.57324" lon="0.86039">
        <ele>192.4</ele>
        <time>2014-04-06T08:35:10Z</time>
      </trkpt>
      <trkpt lat="44.57327" lon="0.86029">
        <ele>192.4</ele>
        <time>2014-04-06T08:35:11Z</time>
      </trkpt>
      <trkpt lat="44.5733" lon="0.86021">
        <ele>191.92</ele>
        <time>2014-04-06T08:35:12Z</time>
      </trkpt>
      <trkpt lat="44.57334" lon="0.86013">
        <ele>191.44</ele>
        <time>2014-04-06T08:35:13Z</time>
      </trkpt>
      <trkpt lat="44.57338" lon="0.86006">
        <ele>191.44</ele>
        <time>2014-04-06T08:35:14Z</time>
      </trkpt>
      <trkpt lat="44.57367" lon="0.8594">
        <ele>190</ele>
        <time>2014-04-06T08:35:24Z</time>
      </trkpt>
      <trkpt lat="44.5737" lon="0.85933">
        <ele>189.52</ele>
        <time>2014-04-06T08:35:25Z</time>
      </trkpt>
      <trkpt lat="44.57389" lon="0.8588">
        <ele>187.59</ele>
        <time>2014-04-06T08:35:33Z</time>
      </trkpt>
      <trkpt lat="44.5739" lon="0.85873">
        <ele>188.08</ele>
        <time>2014-04-06T08:35:34Z</time>
      </trkpt>
      <trkpt lat="44.5739" lon="0.85866">
        <ele>188.08</ele>
        <time>2014-04-06T08:35:35Z</time>
      </trkpt>
      <trkpt lat="44.5739" lon="0.85859">
        <ele>188.08</ele>
        <time>2014-04-06T08:35:36Z</time>
      </trkpt>
      <trkpt lat="44.57391" lon="0.85851">
        <ele>188.08</ele>
        <time>2014-04-06T08:35:37Z</time>
      </trkpt>
      <trkpt lat="44.57392" lon="0.85844">
        <ele>187.59</ele>
        <time>2014-04-06T08:35:38Z</time>
      </trkpt>
      <trkpt lat="44.57394" lon="0.85836">
        <ele>187.59</ele>
        <time>2014-04-06T08:35:39Z</time>
      </trkpt>
      <trkpt lat="44.57406" lon="0.85779">
        <ele>189.04</ele>
        <time>2014-04-06T08:35:46Z</time>
      </trkpt>
      <trkpt lat="44.57404" lon="0.85753">
        <ele>189.04</ele>
        <time>2014-04-06T08:35:49Z</time>
      </trkpt>
      <trkpt lat="44.57406" lon="0.85709">
        <ele>190</ele>
        <time>2014-04-06T08:35:56Z</time>
      </trkpt>
      <trkpt lat="44.57407" lon="0.85683">
        <ele>190.96</ele>
        <time>2014-04-06T08:36:00Z</time>
      </trkpt>
      <trkpt lat="44.57405" lon="0.85629">
        <ele>190.96</ele>
        <time>2014-04-06T08:36:07Z</time>
      </trkpt>
      <trkpt lat="44.57405" lon="0.85614">
        <ele>190.48</ele>
        <time>2014-04-06T08:36:09Z</time>
      </trkpt>
      <trkpt lat="44.57405" lon="0.85594">
        <ele>189.04</ele>
        <time>2014-04-06T08:36:17Z</time>
      </trkpt>
      <trkpt lat="44.57408" lon="0.85591">
        <ele>190</ele>
        <time>2014-04-06T08:36:40Z</time>
      </trkpt>
      <trkpt lat="44.57409" lon="0.85555">
        <ele>191.92</ele>
        <time>2014-04-06T08:36:48Z</time>
      </trkpt>
      <trkpt lat="44.57409" lon="0.85547">
        <ele>191.44</ele>
        <time>2014-04-06T08:36:49Z</time>
      </trkpt>
      <trkpt lat="44.5741" lon="0.8552">
        <ele>190.96</ele>
        <time>2014-04-06T08:36:52Z</time>
      </trkpt>
      <trkpt lat="44.57397" lon="0.85459">
        <ele>189.52</ele>
        <time>2014-04-06T08:37:01Z</time>
      </trkpt>
      <trkpt lat="44.57395" lon="0.85457">
        <ele>190</ele>
        <time>2014-04-06T08:37:02Z</time>
      </trkpt>
      <trkpt lat="44.57391" lon="0.85453">
        <ele>190.48</ele>
        <time>2014-04-06T08:37:05Z</time>
      </trkpt>
      <trkpt lat="44.57386" lon="0.85448">
        <ele>187.59</ele>
        <time>2014-04-06T08:37:16Z</time>
      </trkpt>
      <trkpt lat="44.57381" lon="0.85446">
        <ele>186.63</ele>
        <time>2014-04-06T08:37:31Z</time>
      </trkpt>
      <trkpt lat="44.57377" lon="0.85444">
        <ele>186.63</ele>
        <time>2014-04-06T08:37:43Z</time>
      </trkpt>
      <trkpt lat="44.57375" lon="0.85442">
        <ele>187.59</ele>
        <time>2014-04-06T08:37:57Z</time>
      </trkpt>
      <trkpt lat="44.57375" lon="0.85442">
        <ele>186.63</ele>
        <time>2014-04-06T08:38:16Z</time>
      </trkpt>
      <trkpt lat="44.57375" lon="0.85442">
        <ele>186.63</ele>
        <time>2014-04-06T08:38:30Z</time>
      </trkpt>
      <trkpt lat="44.57375" lon="0.85442">
        <ele>184.71</ele>
        <time>2014-04-06T08:38:51Z</time>
      </trkpt>
      <trkpt lat="44.57375" lon="0.85443">
        <ele>184.71</ele>
        <time>2014-04-06T08:38:53Z</time>
      </trkpt>
      <trkpt lat="44.5736" lon="0.8544">
        <ele>183.27</ele>
        <time>2014-04-06T08:38:59Z</time>
      </trkpt>
      <trkpt lat="44.57349" lon="0.85407">
        <ele>181.83</ele>
        <time>2014-04-06T08:39:06Z</time>
      </trkpt>
      <trkpt lat="44.57349" lon="0.85387">
        <ele>179.9</ele>
        <time>2014-04-06T08:39:13Z</time>
      </trkpt>
      <trkpt lat="44.57358" lon="0.8537">
        <ele>178.46</ele>
        <time>2014-04-06T08:39:18Z</time>
      </trkpt>
      <trkpt lat="44.57391" lon="0.85328">
        <ele>178.94</ele>
        <time>2014-04-06T08:39:30Z</time>
      </trkpt>
      <trkpt lat="44.57403" lon="0.85313">
        <ele>179.9</ele>
        <time>2014-04-06T08:39:38Z</time>
      </trkpt>
      <trkpt lat="44.57404" lon="0.85314">
        <ele>179.42</ele>
        <time>2014-04-06T08:39:56Z</time>
      </trkpt>
      <trkpt lat="44.57405" lon="0.85311">
        <ele>179.42</ele>
        <time>2014-04-06T08:39:58Z</time>
      </trkpt>
      <trkpt lat="44.57405" lon="0.853">
        <ele>179.9</ele>
        <time>2014-04-06T08:40:01Z</time>
      </trkpt>
      <trkpt lat="44.57403" lon="0.85297">
        <ele>180.38</ele>
        <time>2014-04-06T08:40:02Z</time>
      </trkpt>
      <trkpt lat="44.57401" lon="0.85295">
        <ele>180.38</ele>
        <time>2014-04-06T08:40:03Z</time>
      </trkpt>
      <trkpt lat="44.57397" lon="0.85292">
        <ele>180.87</ele>
        <time>2014-04-06T08:40:04Z</time>
      </trkpt>
      <trkpt lat="44.57394" lon="0.85288">
        <ele>180.87</ele>
        <time>2014-04-06T08:40:05Z</time>
      </trkpt>
      <trkpt lat="44.57381" lon="0.85273">
        <ele>182.31</ele>
        <time>2014-04-06T08:40:09Z</time>
      </trkpt>
      <trkpt lat="44.57377" lon="0.85268">
        <ele>182.31</ele>
        <time>2014-04-06T08:40:10Z</time>
      </trkpt>
      <trkpt lat="44.57339" lon="0.85191">
        <ele>180.38</ele>
        <time>2014-04-06T08:40:21Z</time>
      </trkpt>
      <trkpt lat="44.57319" lon="0.85145">
        <ele>178.46</ele>
        <time>2014-04-06T08:40:27Z</time>
      </trkpt>
      <trkpt lat="44.57316" lon="0.85138">
        <ele>178.46</ele>
        <time>2014-04-06T08:40:28Z</time>
      </trkpt>
      <trkpt lat="44.57306" lon="0.85117">
        <ele>177.98</ele>
        <time>2014-04-06T08:40:31Z</time>
      </trkpt>
      <trkpt lat="44.57272" lon="0.85044">
        <ele>175.58</ele>
        <time>2014-04-06T08:40:41Z</time>
      </trkpt>
      <trkpt lat="44.57263" lon="0.85009">
        <ele>174.62</ele>
        <time>2014-04-06T08:40:45Z</time>
      </trkpt>
      <trkpt lat="44.57246" lon="0.84945">
        <ele>175.1</ele>
        <time>2014-04-06T08:40:53Z</time>
      </trkpt>
      <trkpt lat="44.57245" lon="0.84937">
        <ele>175.1</ele>
        <time>2014-04-06T08:40:54Z</time>
      </trkpt>
      <trkpt lat="44.57241" lon="0.84894">
        <ele>175.1</ele>
        <time>2014-04-06T08:41:00Z</time>
      </trkpt>
      <trkpt lat="44.57235" lon="0.84868">
        <ele>176.54</ele>
        <time>2014-04-06T08:41:04Z</time>
      </trkpt>
      <trkpt lat="44.57225" lon="0.84826">
        <ele>177.5</ele>
        <time>2014-04-06T08:41:10Z</time>
      </trkpt>
      <trkpt lat="44.57223" lon="0.84802">
        <ele>177.02</ele>
        <time>2014-04-06T08:41:13Z</time>
      </trkpt>
      <trkpt lat="44.57223" lon="0.84757">
        <ele>175.58</ele>
        <time>2014-04-06T08:41:19Z</time>
      </trkpt>
      <trkpt lat="44.57217" lon="0.84709">
        <ele>176.54</ele>
        <time>2014-04-06T08:41:25Z</time>
      </trkpt>
      <trkpt lat="44.57217" lon="0.84691">
        <ele>177.02</ele>
        <time>2014-04-06T08:41:27Z</time>
      </trkpt>
      <trkpt lat="44.57217" lon="0.84682">
        <ele>177.5</ele>
        <time>2014-04-06T08:41:28Z</time>
      </trkpt>
      <trkpt lat="44.57211" lon="0.84567">
        <ele>173.66</ele>
        <time>2014-04-06T08:41:40Z</time>
      </trkpt>
      <trkpt lat="44.57208" lon="0.84547">
        <ele>173.17</ele>
        <time>2014-04-06T08:41:42Z</time>
      </trkpt>
      <trkpt lat="44.57208" lon="0.84538">
        <ele>172.69</ele>
        <time>2014-04-06T08:41:43Z</time>
      </trkpt>
      <trkpt lat="44.57207" lon="0.84529">
        <ele>172.69</ele>
        <time>2014-04-06T08:41:44Z</time>
      </trkpt>
      <trkpt lat="44.57203" lon="0.84504">
        <ele>172.21</ele>
        <time>2014-04-06T08:41:47Z</time>
      </trkpt>
      <trkpt lat="44.572" lon="0.84489">
        <ele>172.21</ele>
        <time>2014-04-06T08:41:49Z</time>
      </trkpt>
      <trkpt lat="44.572" lon="0.84483">
        <ele>172.21</ele>
        <time>2014-04-06T08:41:50Z</time>
      </trkpt>
      <trkpt lat="44.57201" lon="0.84476">
        <ele>172.21</ele>
        <time>2014-04-06T08:41:51Z</time>
      </trkpt>
      <trkpt lat="44.57202" lon="0.84412">
        <ele>174.14</ele>
        <time>2014-04-06T08:41:59Z</time>
      </trkpt>
      <trkpt lat="44.57214" lon="0.84374">
        <ele>173.17</ele>
        <time>2014-04-06T08:42:04Z</time>
      </trkpt>
      <trkpt lat="44.57223" lon="0.84346">
        <ele>173.17</ele>
        <time>2014-04-06T08:42:08Z</time>
      </trkpt>
      <trkpt lat="44.57231" lon="0.84286">
        <ele>173.17</ele>
        <time>2014-04-06T08:42:15Z</time>
      </trkpt>
      <trkpt lat="44.57236" lon="0.84267">
        <ele>172.69</ele>
        <time>2014-04-06T08:42:18Z</time>
      </trkpt>
      <trkpt lat="44.57246" lon="0.84255">
        <ele>171.25</ele>
        <time>2014-04-06T08:42:23Z</time>
      </trkpt>
      <trkpt lat="44.5726" lon="0.8424">
        <ele>168.85</ele>
        <time>2014-04-06T08:42:32Z</time>
      </trkpt>
      <trkpt lat="44.57259" lon="0.84239">
        <ele>167.41</ele>
        <time>2014-04-06T08:42:53Z</time>
      </trkpt>
      <trkpt lat="44.57264" lon="0.84223">
        <ele>165.96</ele>
        <time>2014-04-06T08:43:04Z</time>
      </trkpt>
      <trkpt lat="44.57265" lon="0.84223">
        <ele>165.48</ele>
        <time>2014-04-06T08:43:29Z</time>
      </trkpt>
      <trkpt lat="44.57265" lon="0.84222">
        <ele>165.48</ele>
        <time>2014-04-06T08:43:44Z</time>
      </trkpt>
      <trkpt lat="44.57265" lon="0.84221">
        <ele>165</ele>
        <time>2014-04-06T08:44:02Z</time>
      </trkpt>
      <trkpt lat="44.57266" lon="0.84222">
        <ele>163.56</ele>
        <time>2014-04-06T08:44:16Z</time>
      </trkpt>
      <trkpt lat="44.57266" lon="0.84222">
        <ele>163.56</ele>
        <time>2014-04-06T08:44:17Z</time>
      </trkpt>
      <trkpt lat="44.57266" lon="0.84222">
        <ele>162.6</ele>
        <time>2014-04-06T08:44:31Z</time>
      </trkpt>
      <trkpt lat="44.57265" lon="0.84223">
        <ele>164.04</ele>
        <time>2014-04-06T08:44:58Z</time>
      </trkpt>
      <trkpt lat="44.57268" lon="0.84222">
        <ele>165.48</ele>
        <time>2014-04-06T08:45:24Z</time>
      </trkpt>
      <trkpt lat="44.57269" lon="0.84227">
        <ele>164.04</ele>
        <time>2014-04-06T08:45:55Z</time>
      </trkpt>
      <trkpt lat="44.57269" lon="0.84227">
        <ele>164.52</ele>
        <time>2014-04-06T08:46:17Z</time>
      </trkpt>
      <trkpt lat="44.5727" lon="0.84196">
        <ele>163.08</ele>
        <time>2014-04-06T08:46:28Z</time>
      </trkpt>
      <trkpt lat="44.57285" lon="0.84169">
        <ele>164.52</ele>
        <time>2014-04-06T08:46:37Z</time>
      </trkpt>
      <trkpt lat="44.57315" lon="0.84132">
        <ele>162.12</ele>
        <time>2014-04-06T08:46:47Z</time>
      </trkpt>
      <trkpt lat="44.5732" lon="0.84129">
        <ele>160.68</ele>
        <time>2014-04-06T08:46:56Z</time>
      </trkpt>
      <trkpt lat="44.57321" lon="0.84128">
        <ele>160.2</ele>
        <time>2014-04-06T08:47:10Z</time>
      </trkpt>
      <trkpt lat="44.57322" lon="0.84127">
        <ele>159.24</ele>
        <time>2014-04-06T08:47:38Z</time>
      </trkpt>
      <trkpt lat="44.57324" lon="0.84127">
        <ele>158.75</ele>
        <time>2014-04-06T08:48:04Z</time>
      </trkpt>
      <trkpt lat="44.57323" lon="0.84125">
        <ele>158.75</ele>
        <time>2014-04-06T08:48:10Z</time>
      </trkpt>
      <trkpt lat="44.57327" lon="0.84116">
        <ele>159.24</ele>
        <time>2014-04-06T08:48:20Z</time>
      </trkpt>
      <trkpt lat="44.57326" lon="0.84115">
        <ele>161.64</ele>
        <time>2014-04-06T08:48:41Z</time>
      </trkpt>
      <trkpt lat="44.57327" lon="0.84115">
        <ele>160.2</ele>
        <time>2014-04-06T08:48:56Z</time>
      </trkpt>
      <trkpt lat="44.57326" lon="0.84116">
        <ele>159.72</ele>
        <time>2014-04-06T08:49:12Z</time>
      </trkpt>
      <trkpt lat="44.57327" lon="0.84116">
        <ele>158.75</ele>
        <time>2014-04-06T08:49:43Z</time>
      </trkpt>
      <trkpt lat="44.57328" lon="0.84116">
        <ele>158.75</ele>
        <time>2014-04-06T08:50:11Z</time>
      </trkpt>
      <trkpt lat="44.57328" lon="0.84115">
        <ele>159.72</ele>
        <time>2014-04-06T08:50:25Z</time>
      </trkpt>
      <trkpt lat="44.57328" lon="0.84115">
        <ele>159.72</ele>
        <time>2014-04-06T08:50:26Z</time>
      </trkpt>
      <trkpt lat="44.57328" lon="0.84112">
        <ele>159.72</ele>
        <time>2014-04-06T08:50:30Z</time>
      </trkpt>
      <trkpt lat="44.57336" lon="0.84084">
        <ele>157.79</ele>
        <time>2014-04-06T08:50:41Z</time>
      </trkpt>
      <trkpt lat="44.57336" lon="0.84083">
        <ele>157.79</ele>
        <time>2014-04-06T08:50:47Z</time>
      </trkpt>
      <trkpt lat="44.57336" lon="0.84083">
        <ele>157.79</ele>
        <time>2014-04-06T08:51:00Z</time>
      </trkpt>
      <trkpt lat="44.57338" lon="0.84083">
        <ele>157.31</ele>
        <time>2014-04-06T08:51:18Z</time>
      </trkpt>
      <trkpt lat="44.57338" lon="0.84084">
        <ele>157.79</ele>
        <time>2014-04-06T08:51:44Z</time>
      </trkpt>
      <trkpt lat="44.57337" lon="0.84083">
        <ele>157.79</ele>
        <time>2014-04-06T08:52:04Z</time>
      </trkpt>
      <trkpt lat="44.57338" lon="0.84084">
        <ele>157.31</ele>
        <time>2014-04-06T08:52:24Z</time>
      </trkpt>
      <trkpt lat="44.57338" lon="0.84083">
        <ele>157.31</ele>
        <time>2014-04-06T08:52:49Z</time>
      </trkpt>
      <trkpt lat="44.57338" lon="0.84083">
        <ele>157.31</ele>
        <time>2014-04-06T08:53:14Z</time>
      </trkpt>
      <trkpt lat="44.57338" lon="0.84083">
        <ele>157.79</ele>
        <time>2014-04-06T08:53:29Z</time>
      </trkpt>
      <trkpt lat="44.57338" lon="0.84083">
        <ele>159.72</ele>
        <time>2014-04-06T08:53:40Z</time>
      </trkpt>
      <trkpt lat="44.5734" lon="0.8407">
        <ele>157.79</ele>
        <time>2014-04-06T08:53:51Z</time>
      </trkpt>
      <trkpt lat="44.57357" lon="0.84055">
        <ele>155.39</ele>
        <time>2014-04-06T08:54:01Z</time>
      </trkpt>
      <trkpt lat="44.57357" lon="0.84055">
        <ele>155.39</ele>
        <time>2014-04-06T08:54:16Z</time>
      </trkpt>
      <trkpt lat="44.57358" lon="0.84054">
        <ele>154.43</ele>
        <time>2014-04-06T08:54:51Z</time>
      </trkpt>
      <trkpt lat="44.57358" lon="0.84054">
        <ele>154.91</ele>
        <time>2014-04-06T08:55:28Z</time>
      </trkpt>
      <trkpt lat="44.57359" lon="0.84055">
        <ele>155.39</ele>
        <time>2014-04-06T08:55:59Z</time>
      </trkpt>
      <trkpt lat="44.57359" lon="0.84055">
        <ele>155.87</ele>
        <time>2014-04-06T08:56:31Z</time>
      </trkpt>
      <trkpt lat="44.5736" lon="0.84056">
        <ele>154.91</ele>
        <time>2014-04-06T08:57:00Z</time>
      </trkpt>
      <trkpt lat="44.57359" lon="0.84056">
        <ele>154.91</ele>
        <time>2014-04-06T08:57:24Z</time>
      </trkpt>
      <trkpt lat="44.57359" lon="0.84055">
        <ele>155.87</ele>
        <time>2014-04-06T08:57:55Z</time>
      </trkpt>
      <trkpt lat="44.57359" lon="0.84054">
        <ele>155.87</ele>
        <time>2014-04-06T08:58:25Z</time>
      </trkpt>
      <trkpt lat="44.57358" lon="0.84056">
        <ele>154.91</ele>
        <time>2014-04-06T08:58:57Z</time>
      </trkpt>
      <trkpt lat="44.57357" lon="0.84058">
        <ele>154.43</ele>
        <time>2014-04-06T08:59:24Z</time>
      </trkpt>
      <trkpt lat="44.57358" lon="0.84057">
        <ele>153.47</ele>
        <time>2014-04-06T09:00:08Z</time>
      </trkpt>
      <trkpt lat="44.57359" lon="0.84056">
        <ele>153.47</ele>
        <time>2014-04-06T09:00:38Z</time>
      </trkpt>
      <trkpt lat="44.57358" lon="0.84055">
        <ele>153.47</ele>
        <time>2014-04-06T09:00:51Z</time>
      </trkpt>
      <trkpt lat="44.5736" lon="0.84052">
        <ele>153.47</ele>
        <time>2014-04-06T09:00:58Z</time>
      </trkpt>
      <trkpt lat="44.57371" lon="0.84036">
        <ele>151.54</ele>
        <time>2014-04-06T09:01:06Z</time>
      </trkpt>
      <trkpt lat="44.57376" lon="0.84008">
        <ele>148.66</ele>
        <time>2014-04-06T09:01:11Z</time>
      </trkpt>
      <trkpt lat="44.57377" lon="0.83986">
        <ele>147.7</ele>
        <time>2014-04-06T09:01:14Z</time>
      </trkpt>
      <trkpt lat="44.57383" lon="0.83957">
        <ele>146.74</ele>
        <time>2014-04-06T09:01:18Z</time>
      </trkpt>
      <trkpt lat="44.574" lon="0.83915">
        <ele>144.34</ele>
        <time>2014-04-06T09:01:24Z</time>
      </trkpt>
      <trkpt lat="44.57405" lon="0.83895">
        <ele>142.41</ele>
        <time>2014-04-06T09:01:28Z</time>
      </trkpt>
      <trkpt lat="44.57414" lon="0.8388">
        <ele>140.97</ele>
        <time>2014-04-06T09:01:34Z</time>
      </trkpt>
      <trkpt lat="44.57418" lon="0.83875">
        <ele>140.49</ele>
        <time>2014-04-06T09:01:36Z</time>
      </trkpt>
      <trkpt lat="44.57421" lon="0.83873">
        <ele>140.01</ele>
        <time>2014-04-06T09:01:37Z</time>
      </trkpt>
      <trkpt lat="44.57424" lon="0.83872">
        <ele>140.01</ele>
        <time>2014-04-06T09:01:38Z</time>
      </trkpt>
      <trkpt lat="44.57428" lon="0.8387">
        <ele>139.53</ele>
        <time>2014-04-06T09:01:39Z</time>
      </trkpt>
      <trkpt lat="44.57441" lon="0.83864">
        <ele>137.61</ele>
        <time>2014-04-06T09:01:43Z</time>
      </trkpt>
      <trkpt lat="44.57459" lon="0.8381">
        <ele>139.05</ele>
        <time>2014-04-06T09:01:54Z</time>
      </trkpt>
      <trkpt lat="44.5746" lon="0.83795">
        <ele>139.53</ele>
        <time>2014-04-06T09:01:57Z</time>
      </trkpt>
      <trkpt lat="44.5748" lon="0.83781">
        <ele>140.01</ele>
        <time>2014-04-06T09:02:04Z</time>
      </trkpt>
      <trkpt lat="44.5751" lon="0.83752">
        <ele>138.09</ele>
        <time>2014-04-06T09:02:16Z</time>
      </trkpt>
      <trkpt lat="44.57541" lon="0.8374">
        <ele>142.41</ele>
        <time>2014-04-06T09:02:25Z</time>
      </trkpt>
      <trkpt lat="44.5757" lon="0.83729">
        <ele>146.26</ele>
        <time>2014-04-06T09:02:34Z</time>
      </trkpt>
      <trkpt lat="44.57602" lon="0.83716">
        <ele>148.18</ele>
        <time>2014-04-06T09:02:44Z</time>
      </trkpt>
      <trkpt lat="44.57636" lon="0.83716">
        <ele>156.35</ele>
        <time>2014-04-06T09:02:54Z</time>
      </trkpt>
      <trkpt lat="44.57645" lon="0.83718">
        <ele>157.31</ele>
        <time>2014-04-06T09:02:58Z</time>
      </trkpt>
      <trkpt lat="44.5768" lon="0.83723">
        <ele>161.16</ele>
        <time>2014-04-06T09:03:10Z</time>
      </trkpt>
      <trkpt lat="44.57717" lon="0.83733">
        <ele>164.52</ele>
        <time>2014-04-06T09:03:21Z</time>
      </trkpt>
      <trkpt lat="44.57745" lon="0.83731">
        <ele>165</ele>
        <time>2014-04-06T09:03:28Z</time>
      </trkpt>
      <trkpt lat="44.57754" lon="0.8373">
        <ele>165</ele>
        <time>2014-04-06T09:03:30Z</time>
      </trkpt>
      <trkpt lat="44.57769" lon="0.83725">
        <ele>165</ele>
        <time>2014-04-06T09:03:33Z</time>
      </trkpt>
      <trkpt lat="44.57787" lon="0.83724">
        <ele>165</ele>
        <time>2014-04-06T09:03:37Z</time>
      </trkpt>
      <trkpt lat="44.57794" lon="0.83727">
        <ele>165</ele>
        <time>2014-04-06T09:03:39Z</time>
      </trkpt>
      <trkpt lat="44.578" lon="0.83734">
        <ele>162.12</ele>
        <time>2014-04-06T09:03:49Z</time>
      </trkpt>
      <trkpt lat="44.57802" lon="0.83737">
        <ele>162.12</ele>
        <time>2014-04-06T09:03:53Z</time>
      </trkpt>
      <trkpt lat="44.57822" lon="0.83727">
        <ele>162.6</ele>
        <time>2014-04-06T09:04:03Z</time>
      </trkpt>
      <trkpt lat="44.57824" lon="0.83722">
        <ele>162.6</ele>
        <time>2014-04-06T09:04:04Z</time>
      </trkpt>
      <trkpt lat="44.57831" lon="0.83712">
        <ele>161.64</ele>
        <time>2014-04-06T09:04:07Z</time>
      </trkpt>
      <trkpt lat="44.5785" lon="0.83702">
        <ele>159.72</ele>
        <time>2014-04-06T09:04:13Z</time>
      </trkpt>
      <trkpt lat="44.5786" lon="0.83699">
        <ele>159.72</ele>
        <time>2014-04-06T09:04:15Z</time>
      </trkpt>
      <trkpt lat="44.57886" lon="0.83703">
        <ele>159.24</ele>
        <time>2014-04-06T09:04:20Z</time>
      </trkpt>
      <trkpt lat="44.57904" lon="0.83708">
        <ele>159.72</ele>
        <time>2014-04-06T09:04:24Z</time>
      </trkpt>
      <trkpt lat="44.57917" lon="0.83706">
        <ele>159.72</ele>
        <time>2014-04-06T09:04:27Z</time>
      </trkpt>
      <trkpt lat="44.57938" lon="0.83707">
        <ele>158.75</ele>
        <time>2014-04-06T09:04:31Z</time>
      </trkpt>
      <trkpt lat="44.57963" lon="0.83709">
        <ele>157.79</ele>
        <time>2014-04-06T09:04:36Z</time>
      </trkpt>
      <trkpt lat="44.58017" lon="0.83729">
        <ele>154.91</ele>
        <time>2014-04-06T09:04:45Z</time>
      </trkpt>
      <trkpt lat="44.58042" lon="0.8373">
        <ele>153.95</ele>
        <time>2014-04-06T09:04:49Z</time>
      </trkpt>
      <trkpt lat="44.58055" lon="0.83732">
        <ele>153.95</ele>
        <time>2014-04-06T09:04:51Z</time>
      </trkpt>
      <trkpt lat="44.58069" lon="0.83733">
        <ele>153.47</ele>
        <time>2014-04-06T09:04:53Z</time>
      </trkpt>
      <trkpt lat="44.58156" lon="0.83739">
        <ele>152.03</ele>
        <time>2014-04-06T09:05:06Z</time>
      </trkpt>
      <trkpt lat="44.58181" lon="0.83741">
        <ele>152.99</ele>
        <time>2014-04-06T09:05:10Z</time>
      </trkpt>
      <trkpt lat="44.58202" lon="0.83742">
        <ele>152.51</ele>
        <time>2014-04-06T09:05:14Z</time>
      </trkpt>
      <trkpt lat="44.58231" lon="0.83743">
        <ele>152.51</ele>
        <time>2014-04-06T09:05:19Z</time>
      </trkpt>
      <trkpt lat="44.58251" lon="0.83755">
        <ele>152.99</ele>
        <time>2014-04-06T09:05:25Z</time>
      </trkpt>
      <trkpt lat="44.58255" lon="0.83773">
        <ele>154.91</ele>
        <time>2014-04-06T09:05:30Z</time>
      </trkpt>
      <trkpt lat="44.58318" lon="0.83816">
        <ele>151.54</ele>
        <time>2014-04-06T09:05:43Z</time>
      </trkpt>
      <trkpt lat="44.5836" lon="0.83854">
        <ele>147.22</ele>
        <time>2014-04-06T09:05:50Z</time>
      </trkpt>
      <trkpt lat="44.58398" lon="0.8388">
        <ele>141.45</ele>
        <time>2014-04-06T09:05:57Z</time>
      </trkpt>
      <trkpt lat="44.58417" lon="0.83881">
        <ele>135.68</ele>
        <time>2014-04-06T09:06:02Z</time>
      </trkpt>
      <trkpt lat="44.58419" lon="0.83878">
        <ele>134.72</ele>
        <time>2014-04-06T09:06:03Z</time>
      </trkpt>
      <trkpt lat="44.58421" lon="0.83873">
        <ele>134.24</ele>
        <time>2014-04-06T09:06:04Z</time>
      </trkpt>
      <trkpt lat="44.58422" lon="0.8387">
        <ele>133.28</ele>
        <time>2014-04-06T09:06:05Z</time>
      </trkpt>
      <trkpt lat="44.58424" lon="0.83867">
        <ele>132.32</ele>
        <time>2014-04-06T09:06:06Z</time>
      </trkpt>
      <trkpt lat="44.58426" lon="0.83864">
        <ele>131.36</ele>
        <time>2014-04-06T09:06:07Z</time>
      </trkpt>
      <trkpt lat="44.58428" lon="0.83861">
        <ele>130.4</ele>
        <time>2014-04-06T09:06:08Z</time>
      </trkpt>
      <trkpt lat="44.58447" lon="0.83839">
        <ele>129.43</ele>
        <time>2014-04-06T09:06:18Z</time>
      </trkpt>
      <trkpt lat="44.58448" lon="0.83837">
        <ele>129.43</ele>
        <time>2014-04-06T09:06:19Z</time>
      </trkpt>
      <trkpt lat="44.5845" lon="0.83835">
        <ele>128.95</ele>
        <time>2014-04-06T09:06:20Z</time>
      </trkpt>
      <trkpt lat="44.58479" lon="0.83812">
        <ele>130.4</ele>
        <time>2014-04-06T09:06:30Z</time>
      </trkpt>
      <trkpt lat="44.5855" lon="0.83761">
        <ele>127.99</ele>
        <time>2014-04-06T09:06:41Z</time>
      </trkpt>
      <trkpt lat="44.58602" lon="0.8374">
        <ele>126.07</ele>
        <time>2014-04-06T09:06:48Z</time>
      </trkpt>
      <trkpt lat="44.58606" lon="0.83741">
        <ele>126.55</ele>
        <time>2014-04-06T09:06:49Z</time>
      </trkpt>
      <trkpt lat="44.58618" lon="0.8375">
        <ele>128.47</ele>
        <time>2014-04-06T09:06:54Z</time>
      </trkpt>
      <trkpt lat="44.58629" lon="0.83769">
        <ele>131.84</ele>
        <time>2014-04-06T09:07:06Z</time>
      </trkpt>
      <trkpt lat="44.58645" lon="0.83787">
        <ele>134.24</ele>
        <time>2014-04-06T09:07:17Z</time>
      </trkpt>
      <trkpt lat="44.58658" lon="0.838">
        <ele>140.01</ele>
        <time>2014-04-06T09:07:29Z</time>
      </trkpt>
      <trkpt lat="44.58672" lon="0.83812">
        <ele>143.85</ele>
        <time>2014-04-06T09:07:42Z</time>
      </trkpt>
      <trkpt lat="44.5869" lon="0.83826">
        <ele>147.22</ele>
        <time>2014-04-06T09:07:58Z</time>
      </trkpt>
      <trkpt lat="44.58706" lon="0.83835">
        <ele>146.74</ele>
        <time>2014-04-06T09:08:11Z</time>
      </trkpt>
      <trkpt lat="44.58712" lon="0.83838">
        <ele>147.7</ele>
        <time>2014-04-06T09:08:15Z</time>
      </trkpt>
      <trkpt lat="44.58721" lon="0.83842">
        <ele>148.18</ele>
        <time>2014-04-06T09:08:21Z</time>
      </trkpt>
      <trkpt lat="44.58738" lon="0.83846">
        <ele>150.1</ele>
        <time>2014-04-06T09:08:33Z</time>
      </trkpt>
      <trkpt lat="44.58745" lon="0.83854">
        <ele>151.06</ele>
        <time>2014-04-06T09:08:41Z</time>
      </trkpt>
      <trkpt lat="44.58759" lon="0.83875">
        <ele>151.06</ele>
        <time>2014-04-06T09:08:50Z</time>
      </trkpt>
      <trkpt lat="44.58771" lon="0.83892">
        <ele>151.54</ele>
        <time>2014-04-06T09:08:56Z</time>
      </trkpt>
      <trkpt lat="44.58805" lon="0.83927">
        <ele>153.47</ele>
        <time>2014-04-06T09:09:08Z</time>
      </trkpt>
      <trkpt lat="44.58824" lon="0.8396">
        <ele>154.43</ele>
        <time>2014-04-06T09:09:17Z</time>
      </trkpt>
      <trkpt lat="44.58838" lon="0.83993">
        <ele>152.51</ele>
        <time>2014-04-06T09:09:23Z</time>
      </trkpt>
      <trkpt lat="44.58848" lon="0.84017">
        <ele>152.51</ele>
        <time>2014-04-06T09:09:27Z</time>
      </trkpt>
      <trkpt lat="44.58862" lon="0.84047">
        <ele>152.99</ele>
        <time>2014-04-06T09:09:32Z</time>
      </trkpt>
      <trkpt lat="44.58888" lon="0.84119">
        <ele>152.99</ele>
        <time>2014-04-06T09:09:46Z</time>
      </trkpt>
      <trkpt lat="44.58895" lon="0.84135">
        <ele>152.51</ele>
        <time>2014-04-06T09:09:50Z</time>
      </trkpt>
      <trkpt lat="44.58901" lon="0.84157">
        <ele>151.54</ele>
        <time>2014-04-06T09:09:58Z</time>
      </trkpt>
      <trkpt lat="44.58902" lon="0.84162">
        <ele>152.03</ele>
        <time>2014-04-06T09:09:59Z</time>
      </trkpt>
      <trkpt lat="44.58901" lon="0.84173">
        <ele>152.51</ele>
        <time>2014-04-06T09:10:01Z</time>
      </trkpt>
      <trkpt lat="44.589" lon="0.84178">
        <ele>152.51</ele>
        <time>2014-04-06T09:10:02Z</time>
      </trkpt>
      <trkpt lat="44.58891" lon="0.84211">
        <ele>151.54</ele>
        <time>2014-04-06T09:10:08Z</time>
      </trkpt>
      <trkpt lat="44.58883" lon="0.84229">
        <ele>151.06</ele>
        <time>2014-04-06T09:10:11Z</time>
      </trkpt>
      <trkpt lat="44.58876" lon="0.84263">
        <ele>150.58</ele>
        <time>2014-04-06T09:10:16Z</time>
      </trkpt>
      <trkpt lat="44.58874" lon="0.84285">
        <ele>150.1</ele>
        <time>2014-04-06T09:10:19Z</time>
      </trkpt>
      <trkpt lat="44.58874" lon="0.84311">
        <ele>149.62</ele>
        <time>2014-04-06T09:10:23Z</time>
      </trkpt>
      <trkpt lat="44.58876" lon="0.84324">
        <ele>148.66</ele>
        <time>2014-04-06T09:10:27Z</time>
      </trkpt>
      <trkpt lat="44.58896" lon="0.84384">
        <ele>151.54</ele>
        <time>2014-04-06T09:10:40Z</time>
      </trkpt>
      <trkpt lat="44.58897" lon="0.84416">
        <ele>154.91</ele>
        <time>2014-04-06T09:10:47Z</time>
      </trkpt>
      <trkpt lat="44.58908" lon="0.84471">
        <ele>155.39</ele>
        <time>2014-04-06T09:10:59Z</time>
      </trkpt>
      <trkpt lat="44.58918" lon="0.84529">
        <ele>155.39</ele>
        <time>2014-04-06T09:11:11Z</time>
      </trkpt>
      <trkpt lat="44.58911" lon="0.84581">
        <ele>154.43</ele>
        <time>2014-04-06T09:11:18Z</time>
      </trkpt>
      <trkpt lat="44.58909" lon="0.84608">
        <ele>154.43</ele>
        <time>2014-04-06T09:11:22Z</time>
      </trkpt>
      <trkpt lat="44.58906" lon="0.8464">
        <ele>154.91</ele>
        <time>2014-04-06T09:11:27Z</time>
      </trkpt>
      <trkpt lat="44.58891" lon="0.84693">
        <ele>156.83</ele>
        <time>2014-04-06T09:11:37Z</time>
      </trkpt>
      <trkpt lat="44.58869" lon="0.8473">
        <ele>159.72</ele>
        <time>2014-04-06T09:11:47Z</time>
      </trkpt>
      <trkpt lat="44.58848" lon="0.84769">
        <ele>163.08</ele>
        <time>2014-04-06T09:11:56Z</time>
      </trkpt>
      <trkpt lat="44.58831" lon="0.84827">
        <ele>162.6</ele>
        <time>2014-04-06T09:12:08Z</time>
      </trkpt>
      <trkpt lat="44.58813" lon="0.84868">
        <ele>165.48</ele>
        <time>2014-04-06T09:12:19Z</time>
      </trkpt>
      <trkpt lat="44.58798" lon="0.84899">
        <ele>166.45</ele>
        <time>2014-04-06T09:12:29Z</time>
      </trkpt>
      <trkpt lat="44.58791" lon="0.84905">
        <ele>166.45</ele>
        <time>2014-04-06T09:12:31Z</time>
      </trkpt>
      <trkpt lat="44.58785" lon="0.84914">
        <ele>165.96</ele>
        <time>2014-04-06T09:12:34Z</time>
      </trkpt>
      <trkpt lat="44.58766" lon="0.84955">
        <ele>168.37</ele>
        <time>2014-04-06T09:12:45Z</time>
      </trkpt>
      <trkpt lat="44.5876" lon="0.84978">
        <ele>171.25</ele>
        <time>2014-04-06T09:12:56Z</time>
      </trkpt>
      <trkpt lat="44.58759" lon="0.84983">
        <ele>168.85</ele>
        <time>2014-04-06T09:13:17Z</time>
      </trkpt>
      <trkpt lat="44.5876" lon="0.84985">
        <ele>171.25</ele>
        <time>2014-04-06T09:13:53Z</time>
      </trkpt>
      <trkpt lat="44.58761" lon="0.84986">
        <ele>173.17</ele>
        <time>2014-04-06T09:14:27Z</time>
      </trkpt>
      <trkpt lat="44.58762" lon="0.84988">
        <ele>176.06</ele>
        <time>2014-04-06T09:15:04Z</time>
      </trkpt>
      <trkpt lat="44.58762" lon="0.84991">
        <ele>173.66</ele>
        <time>2014-04-06T09:15:41Z</time>
      </trkpt>
      <trkpt lat="44.5876" lon="0.84986">
        <ele>172.69</ele>
        <time>2014-04-06T09:16:16Z</time>
      </trkpt>
      <trkpt lat="44.58761" lon="0.84989">
        <ele>170.29</ele>
        <time>2014-04-06T09:16:48Z</time>
      </trkpt>
      <trkpt lat="44.58762" lon="0.84992">
        <ele>168.85</ele>
        <time>2014-04-06T09:17:22Z</time>
      </trkpt>
      <trkpt lat="44.58761" lon="0.84993">
        <ele>169.33</ele>
        <time>2014-04-06T09:18:08Z</time>
      </trkpt>
      <trkpt lat="44.5876" lon="0.84992">
        <ele>168.85</ele>
        <time>2014-04-06T09:18:44Z</time>
      </trkpt>
      <trkpt lat="44.58761" lon="0.84988">
        <ele>168.37</ele>
        <time>2014-04-06T09:19:16Z</time>
      </trkpt>
      <trkpt lat="44.58761" lon="0.84989">
        <ele>168.37</ele>
        <time>2014-04-06T09:19:48Z</time>
      </trkpt>
      <trkpt lat="44.5876" lon="0.84996">
        <ele>168.85</ele>
        <time>2014-04-06T09:19:51Z</time>
      </trkpt>
      <trkpt lat="44.58759" lon="0.84999">
        <ele>168.85</ele>
        <time>2014-04-06T09:19:52Z</time>
      </trkpt>
      <trkpt lat="44.58757" lon="0.85001">
        <ele>169.33</ele>
        <time>2014-04-06T09:19:53Z</time>
      </trkpt>
      <trkpt lat="44.58755" lon="0.85005">
        <ele>169.33</ele>
        <time>2014-04-06T09:19:54Z</time>
      </trkpt>
      <trkpt lat="44.58753" lon="0.85008">
        <ele>169.33</ele>
        <time>2014-04-06T09:19:55Z</time>
      </trkpt>
      <trkpt lat="44.58751" lon="0.85012">
        <ele>169.81</ele>
        <time>2014-04-06T09:19:56Z</time>
      </trkpt>
      <trkpt lat="44.58751" lon="0.85016">
        <ele>169.81</ele>
        <time>2014-04-06T09:19:57Z</time>
      </trkpt>
      <trkpt lat="44.58751" lon="0.85019">
        <ele>170.77</ele>
        <time>2014-04-06T09:19:58Z</time>
      </trkpt>
      <trkpt lat="44.58753" lon="0.85023">
        <ele>171.25</ele>
        <time>2014-04-06T09:19:59Z</time>
      </trkpt>
      <trkpt lat="44.58769" lon="0.85054">
        <ele>175.1</ele>
        <time>2014-04-06T09:20:08Z</time>
      </trkpt>
      <trkpt lat="44.588" lon="0.85084">
        <ele>177.98</ele>
        <time>2014-04-06T09:20:19Z</time>
      </trkpt>
      <trkpt lat="44.58833" lon="0.85116">
        <ele>177.98</ele>
        <time>2014-04-06T09:20:30Z</time>
      </trkpt>
      <trkpt lat="44.58849" lon="0.85153">
        <ele>181.83</ele>
        <time>2014-04-06T09:20:39Z</time>
      </trkpt>
      <trkpt lat="44.58854" lon="0.85166">
        <ele>183.27</ele>
        <time>2014-04-06T09:20:42Z</time>
      </trkpt>
      <trkpt lat="44.58868" lon="0.8517">
        <ele>182.31</ele>
        <time>2014-04-06T09:20:46Z</time>
      </trkpt>
      <trkpt lat="44.58877" lon="0.85168">
        <ele>181.83</ele>
        <time>2014-04-06T09:20:48Z</time>
      </trkpt>
      <trkpt lat="44.58911" lon="0.85202">
        <ele>177.5</ele>
        <time>2014-04-06T09:20:56Z</time>
      </trkpt>
      <trkpt lat="44.58924" lon="0.85207">
        <ele>176.54</ele>
        <time>2014-04-06T09:20:59Z</time>
      </trkpt>
      <trkpt lat="44.58946" lon="0.85212">
        <ele>175.1</ele>
        <time>2014-04-06T09:21:03Z</time>
      </trkpt>
      <trkpt lat="44.58964" lon="0.85209">
        <ele>173.66</ele>
        <time>2014-04-06T09:21:06Z</time>
      </trkpt>
      <trkpt lat="44.5897" lon="0.85207">
        <ele>172.69</ele>
        <time>2014-04-06T09:21:07Z</time>
      </trkpt>
      <trkpt lat="44.58977" lon="0.85206">
        <ele>172.69</ele>
        <time>2014-04-06T09:21:08Z</time>
      </trkpt>
      <trkpt lat="44.58983" lon="0.85205">
        <ele>172.21</ele>
        <time>2014-04-06T09:21:09Z</time>
      </trkpt>
      <trkpt lat="44.5899" lon="0.85205">
        <ele>171.73</ele>
        <time>2014-04-06T09:21:10Z</time>
      </trkpt>
      <trkpt lat="44.58996" lon="0.85203">
        <ele>171.25</ele>
        <time>2014-04-06T09:21:11Z</time>
      </trkpt>
      <trkpt lat="44.59002" lon="0.852">
        <ele>170.77</ele>
        <time>2014-04-06T09:21:12Z</time>
      </trkpt>
      <trkpt lat="44.59007" lon="0.85196">
        <ele>170.29</ele>
        <time>2014-04-06T09:21:13Z</time>
      </trkpt>
      <trkpt lat="44.59036" lon="0.85179">
        <ele>167.89</ele>
        <time>2014-04-06T09:21:18Z</time>
      </trkpt>
      <trkpt lat="44.59111" lon="0.85156">
        <ele>164.04</ele>
        <time>2014-04-06T09:21:31Z</time>
      </trkpt>
      <trkpt lat="44.59189" lon="0.85104">
        <ele>161.64</ele>
        <time>2014-04-06T09:21:45Z</time>
      </trkpt>
      <trkpt lat="44.59217" lon="0.85083">
        <ele>160.68</ele>
        <time>2014-04-06T09:21:50Z</time>
      </trkpt>
      <trkpt lat="44.59222" lon="0.85079">
        <ele>160.2</ele>
        <time>2014-04-06T09:21:51Z</time>
      </trkpt>
      <trkpt lat="44.59228" lon="0.85075">
        <ele>160.2</ele>
        <time>2014-04-06T09:21:52Z</time>
      </trkpt>
      <trkpt lat="44.59234" lon="0.85072">
        <ele>159.72</ele>
        <time>2014-04-06T09:21:53Z</time>
      </trkpt>
      <trkpt lat="44.59241" lon="0.85069">
        <ele>159.72</ele>
        <time>2014-04-06T09:21:54Z</time>
      </trkpt>
      <trkpt lat="44.59274" lon="0.8505">
        <ele>158.75</ele>
        <time>2014-04-06T09:22:00Z</time>
      </trkpt>
      <trkpt lat="44.59279" lon="0.85046">
        <ele>158.75</ele>
        <time>2014-04-06T09:22:01Z</time>
      </trkpt>
      <trkpt lat="44.59284" lon="0.85043">
        <ele>159.24</ele>
        <time>2014-04-06T09:22:02Z</time>
      </trkpt>
      <trkpt lat="44.59306" lon="0.85021">
        <ele>159.72</ele>
        <time>2014-04-06T09:22:07Z</time>
      </trkpt>
      <trkpt lat="44.5931" lon="0.85015">
        <ele>159.72</ele>
        <time>2014-04-06T09:22:08Z</time>
      </trkpt>
      <trkpt lat="44.59314" lon="0.85009">
        <ele>159.72</ele>
        <time>2014-04-06T09:22:09Z</time>
      </trkpt>
      <trkpt lat="44.59317" lon="0.85003">
        <ele>159.72</ele>
        <time>2014-04-06T09:22:10Z</time>
      </trkpt>
      <trkpt lat="44.5932" lon="0.84996">
        <ele>159.72</ele>
        <time>2014-04-06T09:22:11Z</time>
      </trkpt>
      <trkpt lat="44.59321" lon="0.84989">
        <ele>159.72</ele>
        <time>2014-04-06T09:22:12Z</time>
      </trkpt>
      <trkpt lat="44.59323" lon="0.84983">
        <ele>160.2</ele>
        <time>2014-04-06T09:22:13Z</time>
      </trkpt>
      <trkpt lat="44.59324" lon="0.84977">
        <ele>159.72</ele>
        <time>2014-04-06T09:22:14Z</time>
      </trkpt>
      <trkpt lat="44.59326" lon="0.84971">
        <ele>159.72</ele>
        <time>2014-04-06T09:22:15Z</time>
      </trkpt>
      <trkpt lat="44.59329" lon="0.84966">
        <ele>159.72</ele>
        <time>2014-04-06T09:22:16Z</time>
      </trkpt>
      <trkpt lat="44.59332" lon="0.84961">
        <ele>159.72</ele>
        <time>2014-04-06T09:22:17Z</time>
      </trkpt>
      <trkpt lat="44.59336" lon="0.84956">
        <ele>159.72</ele>
        <time>2014-04-06T09:22:18Z</time>
      </trkpt>
      <trkpt lat="44.59386" lon="0.84902">
        <ele>157.31</ele>
        <time>2014-04-06T09:22:29Z</time>
      </trkpt>
      <trkpt lat="44.59389" lon="0.84896">
        <ele>157.31</ele>
        <time>2014-04-06T09:22:30Z</time>
      </trkpt>
      <trkpt lat="44.59392" lon="0.84889">
        <ele>157.31</ele>
        <time>2014-04-06T09:22:31Z</time>
      </trkpt>
      <trkpt lat="44.59394" lon="0.84881">
        <ele>157.31</ele>
        <time>2014-04-06T09:22:32Z</time>
      </trkpt>
      <trkpt lat="44.59395" lon="0.84873">
        <ele>157.31</ele>
        <time>2014-04-06T09:22:33Z</time>
      </trkpt>
      <trkpt lat="44.59395" lon="0.84865">
        <ele>157.31</ele>
        <time>2014-04-06T09:22:34Z</time>
      </trkpt>
      <trkpt lat="44.59395" lon="0.84857">
        <ele>157.79</ele>
        <time>2014-04-06T09:22:35Z</time>
      </trkpt>
      <trkpt lat="44.59395" lon="0.84841">
        <ele>157.31</ele>
        <time>2014-04-06T09:22:37Z</time>
      </trkpt>
      <trkpt lat="44.59393" lon="0.84826">
        <ele>156.83</ele>
        <time>2014-04-06T09:22:39Z</time>
      </trkpt>
      <trkpt lat="44.59391" lon="0.84818">
        <ele>156.35</ele>
        <time>2014-04-06T09:22:40Z</time>
      </trkpt>
      <trkpt lat="44.59385" lon="0.84804">
        <ele>154.91</ele>
        <time>2014-04-06T09:22:42Z</time>
      </trkpt>
      <trkpt lat="44.59354" lon="0.84755">
        <ele>150.1</ele>
        <time>2014-04-06T09:22:48Z</time>
      </trkpt>
      <trkpt lat="44.59349" lon="0.84745">
        <ele>148.66</ele>
        <time>2014-04-06T09:22:49Z</time>
      </trkpt>
      <trkpt lat="44.59344" lon="0.84733">
        <ele>147.22</ele>
        <time>2014-04-06T09:22:50Z</time>
      </trkpt>
      <trkpt lat="44.59313" lon="0.84649">
        <ele>140.01</ele>
        <time>2014-04-06T09:22:56Z</time>
      </trkpt>
      <trkpt lat="44.59309" lon="0.84634">
        <ele>139.53</ele>
        <time>2014-04-06T09:22:57Z</time>
      </trkpt>
      <trkpt lat="44.59298" lon="0.84575">
        <ele>136.64</ele>
        <time>2014-04-06T09:23:01Z</time>
      </trkpt>
      <trkpt lat="44.59298" lon="0.84561">
        <ele>136.16</ele>
        <time>2014-04-06T09:23:02Z</time>
      </trkpt>
      <trkpt lat="44.59299" lon="0.84547">
        <ele>135.2</ele>
        <time>2014-04-06T09:23:03Z</time>
      </trkpt>
      <trkpt lat="44.593" lon="0.84533">
        <ele>134.72</ele>
        <time>2014-04-06T09:23:04Z</time>
      </trkpt>
      <trkpt lat="44.59302" lon="0.8452">
        <ele>134.24</ele>
        <time>2014-04-06T09:23:05Z</time>
      </trkpt>
      <trkpt lat="44.59304" lon="0.84493">
        <ele>133.76</ele>
        <time>2014-04-06T09:23:07Z</time>
      </trkpt>
      <trkpt lat="44.59303" lon="0.8448">
        <ele>133.76</ele>
        <time>2014-04-06T09:23:08Z</time>
      </trkpt>
      <trkpt lat="44.59302" lon="0.84468">
        <ele>133.28</ele>
        <time>2014-04-06T09:23:09Z</time>
      </trkpt>
      <trkpt lat="44.593" lon="0.84456">
        <ele>133.28</ele>
        <time>2014-04-06T09:23:10Z</time>
      </trkpt>
      <trkpt lat="44.59298" lon="0.84444">
        <ele>133.28</ele>
        <time>2014-04-06T09:23:11Z</time>
      </trkpt>
      <trkpt lat="44.59295" lon="0.84433">
        <ele>133.28</ele>
        <time>2014-04-06T09:23:12Z</time>
      </trkpt>
      <trkpt lat="44.59293" lon="0.84422">
        <ele>132.8</ele>
        <time>2014-04-06T09:23:13Z</time>
      </trkpt>
      <trkpt lat="44.5929" lon="0.84411">
        <ele>132.8</ele>
        <time>2014-04-06T09:23:14Z</time>
      </trkpt>
      <trkpt lat="44.59285" lon="0.84401">
        <ele>132.32</ele>
        <time>2014-04-06T09:23:15Z</time>
      </trkpt>
      <trkpt lat="44.5928" lon="0.84391">
        <ele>131.84</ele>
        <time>2014-04-06T09:23:16Z</time>
      </trkpt>
      <trkpt lat="44.59275" lon="0.84382">
        <ele>131.84</ele>
        <time>2014-04-06T09:23:17Z</time>
      </trkpt>
      <trkpt lat="44.59258" lon="0.84357">
        <ele>130.88</ele>
        <time>2014-04-06T09:23:20Z</time>
      </trkpt>
      <trkpt lat="44.59252" lon="0.8435">
        <ele>130.4</ele>
        <time>2014-04-06T09:23:21Z</time>
      </trkpt>
      <trkpt lat="44.59245" lon="0.84345">
        <ele>130.4</ele>
        <time>2014-04-06T09:23:22Z</time>
      </trkpt>
      <trkpt lat="44.59191" lon="0.8429">
        <ele>130.88</ele>
        <time>2014-04-06T09:23:33Z</time>
      </trkpt>
      <trkpt lat="44.59161" lon="0.84247">
        <ele>133.28</ele>
        <time>2014-04-06T09:23:41Z</time>
      </trkpt>
      <trkpt lat="44.59157" lon="0.84241">
        <ele>133.28</ele>
        <time>2014-04-06T09:23:42Z</time>
      </trkpt>
      <trkpt lat="44.59155" lon="0.84236">
        <ele>133.76</ele>
        <time>2014-04-06T09:23:43Z</time>
      </trkpt>
      <trkpt lat="44.59145" lon="0.84216">
        <ele>136.16</ele>
        <time>2014-04-06T09:23:47Z</time>
      </trkpt>
      <trkpt lat="44.59119" lon="0.8416">
        <ele>142.41</ele>
        <time>2014-04-06T09:24:00Z</time>
      </trkpt>
      <trkpt lat="44.59107" lon="0.84121">
        <ele>148.66</ele>
        <time>2014-04-06T09:24:11Z</time>
      </trkpt>
      <trkpt lat="44.59104" lon="0.8409">
        <ele>152.03</ele>
        <time>2014-04-06T09:24:20Z</time>
      </trkpt>
      <trkpt lat="44.59106" lon="0.84051">
        <ele>152.03</ele>
        <time>2014-04-06T09:24:29Z</time>
      </trkpt>
      <trkpt lat="44.59115" lon="0.83989">
        <ele>151.54</ele>
        <time>2014-04-06T09:24:43Z</time>
      </trkpt>
      <trkpt lat="44.59137" lon="0.83946">
        <ele>150.1</ele>
        <time>2014-04-06T09:24:54Z</time>
      </trkpt>
      <trkpt lat="44.59143" lon="0.83931">
        <ele>147.7</ele>
        <time>2014-04-06T09:24:57Z</time>
      </trkpt>
      <trkpt lat="44.59157" lon="0.83903">
        <ele>145.78</ele>
        <time>2014-04-06T09:25:02Z</time>
      </trkpt>
      <trkpt lat="44.5916" lon="0.83897">
        <ele>145.3</ele>
        <time>2014-04-06T09:25:03Z</time>
      </trkpt>
      <trkpt lat="44.59169" lon="0.83878">
        <ele>145.3</ele>
        <time>2014-04-06T09:25:06Z</time>
      </trkpt>
      <trkpt lat="44.59178" lon="0.83856">
        <ele>144.82</ele>
        <time>2014-04-06T09:25:09Z</time>
      </trkpt>
      <trkpt lat="44.59193" lon="0.83749">
        <ele>142.89</ele>
        <time>2014-04-06T09:25:21Z</time>
      </trkpt>
      <trkpt lat="44.59192" lon="0.8374">
        <ele>142.89</ele>
        <time>2014-04-06T09:25:22Z</time>
      </trkpt>
      <trkpt lat="44.59191" lon="0.83731">
        <ele>142.89</ele>
        <time>2014-04-06T09:25:23Z</time>
      </trkpt>
      <trkpt lat="44.59191" lon="0.83723">
        <ele>142.89</ele>
        <time>2014-04-06T09:25:24Z</time>
      </trkpt>
      <trkpt lat="44.59191" lon="0.83714">
        <ele>142.89</ele>
        <time>2014-04-06T09:25:25Z</time>
      </trkpt>
      <trkpt lat="44.59192" lon="0.83706">
        <ele>142.89</ele>
        <time>2014-04-06T09:25:26Z</time>
      </trkpt>
      <trkpt lat="44.59193" lon="0.83697">
        <ele>142.89</ele>
        <time>2014-04-06T09:25:27Z</time>
      </trkpt>
      <trkpt lat="44.59194" lon="0.83689">
        <ele>142.89</ele>
        <time>2014-04-06T09:25:28Z</time>
      </trkpt>
      <trkpt lat="44.59196" lon="0.83682">
        <ele>142.89</ele>
        <time>2014-04-06T09:25:29Z</time>
      </trkpt>
      <trkpt lat="44.59199" lon="0.83674">
        <ele>142.89</ele>
        <time>2014-04-06T09:25:30Z</time>
      </trkpt>
      <trkpt lat="44.59202" lon="0.83667">
        <ele>142.41</ele>
        <time>2014-04-06T09:25:31Z</time>
      </trkpt>
      <trkpt lat="44.59223" lon="0.83625">
        <ele>141.93</ele>
        <time>2014-04-06T09:25:37Z</time>
      </trkpt>
      <trkpt lat="44.59239" lon="0.836">
        <ele>141.45</ele>
        <time>2014-04-06T09:25:42Z</time>
      </trkpt>
      <trkpt lat="44.5924" lon="0.83601">
        <ele>141.45</ele>
        <time>2014-04-06T09:25:43Z</time>
      </trkpt>
      <trkpt lat="44.59241" lon="0.83604">
        <ele>141.93</ele>
        <time>2014-04-06T09:25:44Z</time>
      </trkpt>
      <trkpt lat="44.59241" lon="0.83606">
        <ele>141.93</ele>
        <time>2014-04-06T09:25:45Z</time>
      </trkpt>
      <trkpt lat="44.5924" lon="0.8361">
        <ele>141.45</ele>
        <time>2014-04-06T09:25:46Z</time>
      </trkpt>
      <trkpt lat="44.59239" lon="0.83615">
        <ele>141.45</ele>
        <time>2014-04-06T09:25:47Z</time>
      </trkpt>
      <trkpt lat="44.59238" lon="0.8362">
        <ele>141.45</ele>
        <time>2014-04-06T09:25:48Z</time>
      </trkpt>
      <trkpt lat="44.59236" lon="0.83625">
        <ele>141.45</ele>
        <time>2014-04-06T09:25:49Z</time>
      </trkpt>
      <trkpt lat="44.59234" lon="0.83631">
        <ele>141.93</ele>
        <time>2014-04-06T09:25:50Z</time>
      </trkpt>
      <trkpt lat="44.59233" lon="0.83636">
        <ele>141.93</ele>
        <time>2014-04-06T09:25:51Z</time>
      </trkpt>
      <trkpt lat="44.59231" lon="0.83641">
        <ele>141.93</ele>
        <time>2014-04-06T09:25:52Z</time>
      </trkpt>
      <trkpt lat="44.59228" lon="0.83657">
        <ele>142.41</ele>
        <time>2014-04-06T09:25:55Z</time>
      </trkpt>
      <trkpt lat="44.59229" lon="0.83662">
        <ele>141.93</ele>
        <time>2014-04-06T09:25:56Z</time>
      </trkpt>
      <trkpt lat="44.59231" lon="0.83667">
        <ele>141.93</ele>
        <time>2014-04-06T09:25:57Z</time>
      </trkpt>
      <trkpt lat="44.59235" lon="0.83671">
        <ele>141.45</ele>
        <time>2014-04-06T09:25:58Z</time>
      </trkpt>
      <trkpt lat="44.59239" lon="0.83676">
        <ele>140.97</ele>
        <time>2014-04-06T09:25:59Z</time>
      </trkpt>
      <trkpt lat="44.59242" lon="0.83681">
        <ele>140.97</ele>
        <time>2014-04-06T09:26:00Z</time>
      </trkpt>
      <trkpt lat="44.59243" lon="0.83688">
        <ele>140.97</ele>
        <time>2014-04-06T09:26:01Z</time>
      </trkpt>
      <trkpt lat="44.59245" lon="0.83695">
        <ele>140.97</ele>
        <time>2014-04-06T09:26:02Z</time>
      </trkpt>
      <trkpt lat="44.59246" lon="0.83703">
        <ele>140.97</ele>
        <time>2014-04-06T09:26:03Z</time>
      </trkpt>
      <trkpt lat="44.59249" lon="0.83709">
        <ele>140.97</ele>
        <time>2014-04-06T09:26:04Z</time>
      </trkpt>
      <trkpt lat="44.59252" lon="0.83715">
        <ele>140.97</ele>
        <time>2014-04-06T09:26:05Z</time>
      </trkpt>
      <trkpt lat="44.59255" lon="0.83722">
        <ele>140.97</ele>
        <time>2014-04-06T09:26:06Z</time>
      </trkpt>
      <trkpt lat="44.59258" lon="0.83728">
        <ele>141.45</ele>
        <time>2014-04-06T09:26:07Z</time>
      </trkpt>
      <trkpt lat="44.59266" lon="0.83746">
        <ele>142.41</ele>
        <time>2014-04-06T09:26:10Z</time>
      </trkpt>
      <trkpt lat="44.59272" lon="0.83757">
        <ele>142.41</ele>
        <time>2014-04-06T09:26:12Z</time>
      </trkpt>
      <trkpt lat="44.59275" lon="0.83761">
        <ele>142.89</ele>
        <time>2014-04-06T09:26:13Z</time>
      </trkpt>
      <trkpt lat="44.59279" lon="0.83764">
        <ele>143.37</ele>
        <time>2014-04-06T09:26:14Z</time>
      </trkpt>
      <trkpt lat="44.59299" lon="0.83789">
        <ele>145.78</ele>
        <time>2014-04-06T09:26:20Z</time>
      </trkpt>
      <trkpt lat="44.59327" lon="0.83785">
        <ele>145.3</ele>
        <time>2014-04-06T09:26:26Z</time>
      </trkpt>
      <trkpt lat="44.59352" lon="0.83785">
        <ele>144.34</ele>
        <time>2014-04-06T09:26:30Z</time>
      </trkpt>
      <trkpt lat="44.59364" lon="0.83785">
        <ele>143.37</ele>
        <time>2014-04-06T09:26:32Z</time>
      </trkpt>
      <trkpt lat="44.59384" lon="0.83781">
        <ele>141.93</ele>
        <time>2014-04-06T09:26:36Z</time>
      </trkpt>
      <trkpt lat="44.59415" lon="0.83792">
        <ele>137.61</ele>
        <time>2014-04-06T09:26:42Z</time>
      </trkpt>
      <trkpt lat="44.59423" lon="0.83815">
        <ele>135.2</ele>
        <time>2014-04-06T09:26:45Z</time>
      </trkpt>
      <trkpt lat="44.59441" lon="0.83851">
        <ele>131.36</ele>
        <time>2014-04-06T09:26:50Z</time>
      </trkpt>
      <trkpt lat="44.5946" lon="0.83902">
        <ele>126.55</ele>
        <time>2014-04-06T09:26:58Z</time>
      </trkpt>
      <trkpt lat="44.59476" lon="0.83922">
        <ele>126.07</ele>
        <time>2014-04-06T09:27:02Z</time>
      </trkpt>
      <trkpt lat="44.59493" lon="0.83933">
        <ele>127.03</ele>
        <time>2014-04-06T09:27:07Z</time>
      </trkpt>
      <trkpt lat="44.59504" lon="0.83956">
        <ele>129.43</ele>
        <time>2014-04-06T09:27:14Z</time>
      </trkpt>
      <trkpt lat="44.59523" lon="0.83993">
        <ele>135.2</ele>
        <time>2014-04-06T09:27:26Z</time>
      </trkpt>
      <trkpt lat="44.59552" lon="0.84014">
        <ele>134.24</ele>
        <time>2014-04-06T09:27:36Z</time>
      </trkpt>
      <trkpt lat="44.5958" lon="0.8403">
        <ele>133.76</ele>
        <time>2014-04-06T09:27:45Z</time>
      </trkpt>
      <trkpt lat="44.59603" lon="0.84028">
        <ele>135.2</ele>
        <time>2014-04-06T09:27:54Z</time>
      </trkpt>
      <trkpt lat="44.59628" lon="0.84026">
        <ele>136.16</ele>
        <time>2014-04-06T09:28:02Z</time>
      </trkpt>
      <trkpt lat="44.59646" lon="0.84035">
        <ele>138.09</ele>
        <time>2014-04-06T09:28:10Z</time>
      </trkpt>
      <trkpt lat="44.59648" lon="0.84037">
        <ele>138.57</ele>
        <time>2014-04-06T09:28:11Z</time>
      </trkpt>
      <trkpt lat="44.59661" lon="0.84049">
        <ele>138.09</ele>
        <time>2014-04-06T09:28:17Z</time>
      </trkpt>
      <trkpt lat="44.59695" lon="0.84066">
        <ele>135.68</ele>
        <time>2014-04-06T09:28:29Z</time>
      </trkpt>
      <trkpt lat="44.59729" lon="0.84056">
        <ele>136.16</ele>
        <time>2014-04-06T09:28:40Z</time>
      </trkpt>
      <trkpt lat="44.5976" lon="0.8406">
        <ele>139.05</ele>
        <time>2014-04-06T09:28:52Z</time>
      </trkpt>
      <trkpt lat="44.59775" lon="0.84066">
        <ele>140.49</ele>
        <time>2014-04-06T09:28:59Z</time>
      </trkpt>
      <trkpt lat="44.59797" lon="0.84065">
        <ele>141.45</ele>
        <time>2014-04-06T09:29:08Z</time>
      </trkpt>
      <trkpt lat="44.59822" lon="0.84037">
        <ele>140.97</ele>
        <time>2014-04-06T09:29:22Z</time>
      </trkpt>
      <trkpt lat="44.59846" lon="0.84005">
        <ele>141.45</ele>
        <time>2014-04-06T09:29:34Z</time>
      </trkpt>
      <trkpt lat="44.59849" lon="0.84005">
        <ele>141.93</ele>
        <time>2014-04-06T09:29:35Z</time>
      </trkpt>
      <trkpt lat="44.59851" lon="0.84006">
        <ele>141.93</ele>
        <time>2014-04-06T09:29:36Z</time>
      </trkpt>
      <trkpt lat="44.59852" lon="0.84008">
        <ele>142.41</ele>
        <time>2014-04-06T09:29:37Z</time>
      </trkpt>
      <trkpt lat="44.59853" lon="0.84012">
        <ele>142.89</ele>
        <time>2014-04-06T09:29:38Z</time>
      </trkpt>
      <trkpt lat="44.59855" lon="0.84015">
        <ele>142.89</ele>
        <time>2014-04-06T09:29:39Z</time>
      </trkpt>
      <trkpt lat="44.59888" lon="0.84075">
        <ele>143.37</ele>
        <time>2014-04-06T09:29:55Z</time>
      </trkpt>
      <trkpt lat="44.59906" lon="0.84117">
        <ele>143.37</ele>
        <time>2014-04-06T09:30:06Z</time>
      </trkpt>
      <trkpt lat="44.59906" lon="0.84119">
        <ele>143.37</ele>
        <time>2014-04-06T09:30:07Z</time>
      </trkpt>
      <trkpt lat="44.59905" lon="0.84119">
        <ele>143.37</ele>
        <time>2014-04-06T09:30:17Z</time>
      </trkpt>
      <trkpt lat="44.59906" lon="0.8412">
        <ele>140.49</ele>
        <time>2014-04-06T09:30:51Z</time>
      </trkpt>
      <trkpt lat="44.59907" lon="0.84119">
        <ele>140.01</ele>
        <time>2014-04-06T09:31:22Z</time>
      </trkpt>
      <trkpt lat="44.59906" lon="0.84119">
        <ele>140.01</ele>
        <time>2014-04-06T09:31:52Z</time>
      </trkpt>
      <trkpt lat="44.59906" lon="0.84119">
        <ele>140.01</ele>
        <time>2014-04-06T09:32:28Z</time>
      </trkpt>
      <trkpt lat="44.59906" lon="0.84119">
        <ele>140.49</ele>
        <time>2014-04-06T09:32:41Z</time>
      </trkpt>
      <trkpt lat="44.59906" lon="0.84118">
        <ele>142.89</ele>
        <time>2014-04-06T09:33:02Z</time>
      </trkpt>
      <trkpt lat="44.59906" lon="0.84119">
        <ele>143.37</ele>
        <time>2014-04-06T09:33:27Z</time>
      </trkpt>
      <trkpt lat="44.59906" lon="0.84118">
        <ele>143.85</ele>
        <time>2014-04-06T09:33:48Z</time>
      </trkpt>
      <trkpt lat="44.59906" lon="0.84119">
        <ele>144.34</ele>
        <time>2014-04-06T09:34:14Z</time>
      </trkpt>
      <trkpt lat="44.59906" lon="0.84118">
        <ele>144.82</ele>
        <time>2014-04-06T09:34:47Z</time>
      </trkpt>
      <trkpt lat="44.59906" lon="0.84118">
        <ele>143.85</ele>
        <time>2014-04-06T09:35:11Z</time>
      </trkpt>
      <trkpt lat="44.59907" lon="0.84119">
        <ele>143.85</ele>
        <time>2014-04-06T09:35:37Z</time>
      </trkpt>
      <trkpt lat="44.59907" lon="0.84121">
        <ele>143.85</ele>
        <time>2014-04-06T09:35:41Z</time>
      </trkpt>
      <trkpt lat="44.59908" lon="0.84123">
        <ele>143.37</ele>
        <time>2014-04-06T09:35:42Z</time>
      </trkpt>
      <trkpt lat="44.59916" lon="0.84141">
        <ele>142.41</ele>
        <time>2014-04-06T09:35:47Z</time>
      </trkpt>
      <trkpt lat="44.59918" lon="0.84147">
        <ele>142.41</ele>
        <time>2014-04-06T09:35:48Z</time>
      </trkpt>
      <trkpt lat="44.59951" lon="0.84226">
        <ele>138.09</ele>
        <time>2014-04-06T09:35:58Z</time>
      </trkpt>
      <trkpt lat="44.59955" lon="0.84234">
        <ele>137.61</ele>
        <time>2014-04-06T09:35:59Z</time>
      </trkpt>
      <trkpt lat="44.5996" lon="0.8424">
        <ele>136.64</ele>
        <time>2014-04-06T09:36:00Z</time>
      </trkpt>
      <trkpt lat="44.59965" lon="0.84246">
        <ele>136.16</ele>
        <time>2014-04-06T09:36:01Z</time>
      </trkpt>
      <trkpt lat="44.59971" lon="0.8425">
        <ele>135.68</ele>
        <time>2014-04-06T09:36:02Z</time>
      </trkpt>
      <trkpt lat="44.59978" lon="0.84253">
        <ele>134.72</ele>
        <time>2014-04-06T09:36:03Z</time>
      </trkpt>
      <trkpt lat="44.59986" lon="0.84255">
        <ele>134.24</ele>
        <time>2014-04-06T09:36:04Z</time>
      </trkpt>
      <trkpt lat="44.59994" lon="0.84256">
        <ele>133.28</ele>
        <time>2014-04-06T09:36:05Z</time>
      </trkpt>
      <trkpt lat="44.60047" lon="0.84265">
        <ele>129.92</ele>
        <time>2014-04-06T09:36:11Z</time>
      </trkpt>
      <trkpt lat="44.60054" lon="0.8427">
        <ele>129.43</ele>
        <time>2014-04-06T09:36:12Z</time>
      </trkpt>
      <trkpt lat="44.6006" lon="0.84277">
        <ele>128.95</ele>
        <time>2014-04-06T09:36:13Z</time>
      </trkpt>
      <trkpt lat="44.60066" lon="0.84285">
        <ele>128.47</ele>
        <time>2014-04-06T09:36:14Z</time>
      </trkpt>
      <trkpt lat="44.60071" lon="0.84291">
        <ele>128.47</ele>
        <time>2014-04-06T09:36:15Z</time>
      </trkpt>
      <trkpt lat="44.60075" lon="0.84296">
        <ele>128.95</ele>
        <time>2014-04-06T09:36:16Z</time>
      </trkpt>
      <trkpt lat="44.60079" lon="0.84297">
        <ele>128.95</ele>
        <time>2014-04-06T09:36:17Z</time>
      </trkpt>
      <trkpt lat="44.60084" lon="0.84296">
        <ele>128.95</ele>
        <time>2014-04-06T09:36:18Z</time>
      </trkpt>
      <trkpt lat="44.60088" lon="0.84293">
        <ele>128.47</ele>
        <time>2014-04-06T09:36:19Z</time>
      </trkpt>
      <trkpt lat="44.60091" lon="0.84289">
        <ele>128.47</ele>
        <time>2014-04-06T09:36:20Z</time>
      </trkpt>
      <trkpt lat="44.60102" lon="0.84276">
        <ele>127.03</ele>
        <time>2014-04-06T09:36:23Z</time>
      </trkpt>
      <trkpt lat="44.60106" lon="0.84271">
        <ele>126.55</ele>
        <time>2014-04-06T09:36:24Z</time>
      </trkpt>
      <trkpt lat="44.60109" lon="0.84265">
        <ele>126.55</ele>
        <time>2014-04-06T09:36:25Z</time>
      </trkpt>
      <trkpt lat="44.60111" lon="0.84259">
        <ele>126.07</ele>
        <time>2014-04-06T09:36:26Z</time>
      </trkpt>
      <trkpt lat="44.60114" lon="0.84252">
        <ele>125.59</ele>
        <time>2014-04-06T09:36:27Z</time>
      </trkpt>
      <trkpt lat="44.60119" lon="0.84239">
        <ele>125.11</ele>
        <time>2014-04-06T09:36:29Z</time>
      </trkpt>
      <trkpt lat="44.60122" lon="0.84226">
        <ele>124.63</ele>
        <time>2014-04-06T09:36:31Z</time>
      </trkpt>
      <trkpt lat="44.60123" lon="0.8422">
        <ele>124.15</ele>
        <time>2014-04-06T09:36:32Z</time>
      </trkpt>
      <trkpt lat="44.60125" lon="0.84214">
        <ele>124.15</ele>
        <time>2014-04-06T09:36:33Z</time>
      </trkpt>
      <trkpt lat="44.60129" lon="0.84201">
        <ele>123.19</ele>
        <time>2014-04-06T09:36:35Z</time>
      </trkpt>
      <trkpt lat="44.60131" lon="0.84195">
        <ele>123.19</ele>
        <time>2014-04-06T09:36:36Z</time>
      </trkpt>
      <trkpt lat="44.60132" lon="0.84188">
        <ele>122.71</ele>
        <time>2014-04-06T09:36:37Z</time>
      </trkpt>
      <trkpt lat="44.60138" lon="0.84153">
        <ele>122.22</ele>
        <time>2014-04-06T09:36:42Z</time>
      </trkpt>
      <trkpt lat="44.60141" lon="0.84147">
        <ele>122.22</ele>
        <time>2014-04-06T09:36:43Z</time>
      </trkpt>
      <trkpt lat="44.60144" lon="0.84145">
        <ele>122.71</ele>
        <time>2014-04-06T09:36:44Z</time>
      </trkpt>
      <trkpt lat="44.60148" lon="0.84143">
        <ele>122.71</ele>
        <time>2014-04-06T09:36:45Z</time>
      </trkpt>
      <trkpt lat="44.60152" lon="0.84142">
        <ele>123.19</ele>
        <time>2014-04-06T09:36:46Z</time>
      </trkpt>
      <trkpt lat="44.60161" lon="0.84133">
        <ele>124.63</ele>
        <time>2014-04-06T09:36:49Z</time>
      </trkpt>
      <trkpt lat="44.6017" lon="0.84102">
        <ele>127.99</ele>
        <time>2014-04-06T09:36:57Z</time>
      </trkpt>
      <trkpt lat="44.60187" lon="0.84098">
        <ele>131.84</ele>
        <time>2014-04-06T09:37:05Z</time>
      </trkpt>
      <trkpt lat="44.6019" lon="0.84095">
        <ele>133.28</ele>
        <time>2014-04-06T09:37:08Z</time>
      </trkpt>
      <trkpt lat="44.60203" lon="0.84075">
        <ele>134.72</ele>
        <time>2014-04-06T09:37:25Z</time>
      </trkpt>
      <trkpt lat="44.60208" lon="0.84072">
        <ele>134.72</ele>
        <time>2014-04-06T09:37:38Z</time>
      </trkpt>
      <trkpt lat="44.60212" lon="0.84073">
        <ele>135.68</ele>
        <time>2014-04-06T09:37:43Z</time>
      </trkpt>
      <trkpt lat="44.60231" lon="0.84086">
        <ele>139.53</ele>
        <time>2014-04-06T09:38:02Z</time>
      </trkpt>
      <trkpt lat="44.60251" lon="0.84098">
        <ele>141.45</ele>
        <time>2014-04-06T09:38:20Z</time>
      </trkpt>
      <trkpt lat="44.6026" lon="0.841">
        <ele>142.89</ele>
        <time>2014-04-06T09:38:33Z</time>
      </trkpt>
      <trkpt lat="44.60287" lon="0.84103">
        <ele>143.85</ele>
        <time>2014-04-06T09:38:52Z</time>
      </trkpt>
      <trkpt lat="44.60303" lon="0.84101">
        <ele>144.34</ele>
        <time>2014-04-06T09:39:08Z</time>
      </trkpt>
      <trkpt lat="44.60304" lon="0.841">
        <ele>144.82</ele>
        <time>2014-04-06T09:39:36Z</time>
      </trkpt>
      <trkpt lat="44.60312" lon="0.84094">
        <ele>145.3</ele>
        <time>2014-04-06T09:39:48Z</time>
      </trkpt>
      <trkpt lat="44.6034" lon="0.84083">
        <ele>144.82</ele>
        <time>2014-04-06T09:39:59Z</time>
      </trkpt>
      <trkpt lat="44.6035" lon="0.8408">
        <ele>144.82</ele>
        <time>2014-04-06T09:40:04Z</time>
      </trkpt>
      <trkpt lat="44.60353" lon="0.8408">
        <ele>144.82</ele>
        <time>2014-04-06T09:40:05Z</time>
      </trkpt>
      <trkpt lat="44.60356" lon="0.8408">
        <ele>144.82</ele>
        <time>2014-04-06T09:40:06Z</time>
      </trkpt>
      <trkpt lat="44.60359" lon="0.8408">
        <ele>145.3</ele>
        <time>2014-04-06T09:40:07Z</time>
      </trkpt>
      <trkpt lat="44.60363" lon="0.8408">
        <ele>144.82</ele>
        <time>2014-04-06T09:40:08Z</time>
      </trkpt>
      <trkpt lat="44.60367" lon="0.8408">
        <ele>144.82</ele>
        <time>2014-04-06T09:40:09Z</time>
      </trkpt>
      <trkpt lat="44.6041" lon="0.84076">
        <ele>145.78</ele>
        <time>2014-04-06T09:40:21Z</time>
      </trkpt>
      <trkpt lat="44.60442" lon="0.84063">
        <ele>145.3</ele>
        <time>2014-04-06T09:40:30Z</time>
      </trkpt>
      <trkpt lat="44.60446" lon="0.84061">
        <ele>145.3</ele>
        <time>2014-04-06T09:40:31Z</time>
      </trkpt>
      <trkpt lat="44.6045" lon="0.84059">
        <ele>145.3</ele>
        <time>2014-04-06T09:40:32Z</time>
      </trkpt>
      <trkpt lat="44.60488" lon="0.84031">
        <ele>145.78</ele>
        <time>2014-04-06T09:40:44Z</time>
      </trkpt>
      <trkpt lat="44.60503" lon="0.83999">
        <ele>146.26</ele>
        <time>2014-04-06T09:40:53Z</time>
      </trkpt>
      <trkpt lat="44.60518" lon="0.8399">
        <ele>147.22</ele>
        <time>2014-04-06T09:41:00Z</time>
      </trkpt>
      <trkpt lat="44.6052" lon="0.83989">
        <ele>147.22</ele>
        <time>2014-04-06T09:41:01Z</time>
      </trkpt>
      <trkpt lat="44.60521" lon="0.83989">
        <ele>147.22</ele>
        <time>2014-04-06T09:41:02Z</time>
      </trkpt>
      <trkpt lat="44.60524" lon="0.83988">
        <ele>147.22</ele>
        <time>2014-04-06T09:41:03Z</time>
      </trkpt>
      <trkpt lat="44.60526" lon="0.83988">
        <ele>147.7</ele>
        <time>2014-04-06T09:41:04Z</time>
      </trkpt>
      <trkpt lat="44.60558" lon="0.83994">
        <ele>149.62</ele>
        <time>2014-04-06T09:41:14Z</time>
      </trkpt>
      <trkpt lat="44.60586" lon="0.83997">
        <ele>153.47</ele>
        <time>2014-04-06T09:41:24Z</time>
      </trkpt>
      <trkpt lat="44.60591" lon="0.83994">
        <ele>153.95</ele>
        <time>2014-04-06T09:41:26Z</time>
      </trkpt>
      <trkpt lat="44.60597" lon="0.83962">
        <ele>153.95</ele>
        <time>2014-04-06T09:41:38Z</time>
      </trkpt>
      <trkpt lat="44.60598" lon="0.83958">
        <ele>153.95</ele>
        <time>2014-04-06T09:41:40Z</time>
      </trkpt>
      <trkpt lat="44.60599" lon="0.83945">
        <ele>153.47</ele>
        <time>2014-04-06T09:41:51Z</time>
      </trkpt>
      <trkpt lat="44.60599" lon="0.83921">
        <ele>154.43</ele>
        <time>2014-04-06T09:42:05Z</time>
      </trkpt>
      <trkpt lat="44.60599" lon="0.83912">
        <ele>155.39</ele>
        <time>2014-04-06T09:42:19Z</time>
      </trkpt>
      <trkpt lat="44.60602" lon="0.83889">
        <ele>156.35</ele>
        <time>2014-04-06T09:42:34Z</time>
      </trkpt>
      <trkpt lat="44.60607" lon="0.83872">
        <ele>157.31</ele>
        <time>2014-04-06T09:42:47Z</time>
      </trkpt>
      <trkpt lat="44.60612" lon="0.8387">
        <ele>155.87</ele>
        <time>2014-04-06T09:42:59Z</time>
      </trkpt>
      <trkpt lat="44.60613" lon="0.8387">
        <ele>156.83</ele>
        <time>2014-04-06T09:43:13Z</time>
      </trkpt>
      <trkpt lat="44.60641" lon="0.83872">
        <ele>158.27</ele>
        <time>2014-04-06T09:43:26Z</time>
      </trkpt>
      <trkpt lat="44.60672" lon="0.83862">
        <ele>156.83</ele>
        <time>2014-04-06T09:43:37Z</time>
      </trkpt>
      <trkpt lat="44.60685" lon="0.83859">
        <ele>156.83</ele>
        <time>2014-04-06T09:43:42Z</time>
      </trkpt>
      <trkpt lat="44.60708" lon="0.83861">
        <ele>158.75</ele>
        <time>2014-04-06T09:43:52Z</time>
      </trkpt>
      <trkpt lat="44.60739" lon="0.83862">
        <ele>159.24</ele>
        <time>2014-04-06T09:44:04Z</time>
      </trkpt>
      <trkpt lat="44.6077" lon="0.83862">
        <ele>160.68</ele>
        <time>2014-04-06T09:44:16Z</time>
      </trkpt>
      <trkpt lat="44.60799" lon="0.83852">
        <ele>158.75</ele>
        <time>2014-04-06T09:44:26Z</time>
      </trkpt>
      <trkpt lat="44.60801" lon="0.83851">
        <ele>158.75</ele>
        <time>2014-04-06T09:44:27Z</time>
      </trkpt>
      <trkpt lat="44.60824" lon="0.83848">
        <ele>160.68</ele>
        <time>2014-04-06T09:44:37Z</time>
      </trkpt>
      <trkpt lat="44.60862" lon="0.8385">
        <ele>161.16</ele>
        <time>2014-04-06T09:44:53Z</time>
      </trkpt>
      <trkpt lat="44.60888" lon="0.83856">
        <ele>161.64</ele>
        <time>2014-04-06T09:45:05Z</time>
      </trkpt>
      <trkpt lat="44.60891" lon="0.83857">
        <ele>161.64</ele>
        <time>2014-04-06T09:45:19Z</time>
      </trkpt>
      <trkpt lat="44.60893" lon="0.83856">
        <ele>161.16</ele>
        <time>2014-04-06T09:45:21Z</time>
      </trkpt>
      <trkpt lat="44.60894" lon="0.83854">
        <ele>161.16</ele>
        <time>2014-04-06T09:45:22Z</time>
      </trkpt>
      <trkpt lat="44.609" lon="0.83834">
        <ele>160.2</ele>
        <time>2014-04-06T09:45:32Z</time>
      </trkpt>
      <trkpt lat="44.60906" lon="0.83803">
        <ele>162.12</ele>
        <time>2014-04-06T09:45:43Z</time>
      </trkpt>
      <trkpt lat="44.60908" lon="0.83797">
        <ele>161.64</ele>
        <time>2014-04-06T09:45:45Z</time>
      </trkpt>
      <trkpt lat="44.60913" lon="0.8377">
        <ele>158.27</ele>
        <time>2014-04-06T09:45:54Z</time>
      </trkpt>
      <trkpt lat="44.60922" lon="0.83735">
        <ele>155.39</ele>
        <time>2014-04-06T09:46:05Z</time>
      </trkpt>
      <trkpt lat="44.60936" lon="0.837">
        <ele>152.99</ele>
        <time>2014-04-06T09:46:16Z</time>
      </trkpt>
      <trkpt lat="44.60946" lon="0.83659">
        <ele>152.99</ele>
        <time>2014-04-06T09:46:27Z</time>
      </trkpt>
      <trkpt lat="44.60946" lon="0.83655">
        <ele>152.99</ele>
        <time>2014-04-06T09:46:28Z</time>
      </trkpt>
      <trkpt lat="44.60945" lon="0.83651">
        <ele>152.51</ele>
        <time>2014-04-06T09:46:29Z</time>
      </trkpt>
      <trkpt lat="44.60934" lon="0.8364">
        <ele>150.58</ele>
        <time>2014-04-06T09:46:34Z</time>
      </trkpt>
      <trkpt lat="44.6092" lon="0.83621">
        <ele>144.34</ele>
        <time>2014-04-06T09:46:48Z</time>
      </trkpt>
      <trkpt lat="44.60917" lon="0.83618">
        <ele>143.85</ele>
        <time>2014-04-06T09:46:52Z</time>
      </trkpt>
      <trkpt lat="44.60902" lon="0.836">
        <ele>140.49</ele>
        <time>2014-04-06T09:47:05Z</time>
      </trkpt>
      <trkpt lat="44.60874" lon="0.83576">
        <ele>139.05</ele>
        <time>2014-04-06T09:47:19Z</time>
      </trkpt>
      <trkpt lat="44.60838" lon="0.83546">
        <ele>137.13</ele>
        <time>2014-04-06T09:47:32Z</time>
      </trkpt>
      <trkpt lat="44.60802" lon="0.83516">
        <ele>137.61</ele>
        <time>2014-04-06T09:47:45Z</time>
      </trkpt>
      <trkpt lat="44.60788" lon="0.83501">
        <ele>136.64</ele>
        <time>2014-04-06T09:47:56Z</time>
      </trkpt>
      <trkpt lat="44.60788" lon="0.83501">
        <ele>136.64</ele>
        <time>2014-04-06T09:48:16Z</time>
      </trkpt>
      <trkpt lat="44.60788" lon="0.835">
        <ele>136.64</ele>
        <time>2014-04-06T09:48:33Z</time>
      </trkpt>
      <trkpt lat="44.60787" lon="0.83499">
        <ele>136.64</ele>
        <time>2014-04-06T09:48:36Z</time>
      </trkpt>
      <trkpt lat="44.60786" lon="0.83497">
        <ele>136.64</ele>
        <time>2014-04-06T09:48:37Z</time>
      </trkpt>
      <trkpt lat="44.60747" lon="0.83474">
        <ele>134.72</ele>
        <time>2014-04-06T09:48:47Z</time>
      </trkpt>
      <trkpt lat="44.60683" lon="0.83412">
        <ele>134.72</ele>
        <time>2014-04-06T09:49:03Z</time>
      </trkpt>
      <trkpt lat="44.60622" lon="0.83338">
        <ele>136.64</ele>
        <time>2014-04-06T09:49:20Z</time>
      </trkpt>
      <trkpt lat="44.60588" lon="0.83296">
        <ele>139.53</ele>
        <time>2014-04-06T09:49:31Z</time>
      </trkpt>
      <trkpt lat="44.60555" lon="0.83254">
        <ele>142.41</ele>
        <time>2014-04-06T09:49:42Z</time>
      </trkpt>
      <trkpt lat="44.60552" lon="0.8325">
        <ele>142.41</ele>
        <time>2014-04-06T09:49:43Z</time>
      </trkpt>
      <trkpt lat="44.60506" lon="0.83209">
        <ele>141.45</ele>
        <time>2014-04-06T09:49:56Z</time>
      </trkpt>
      <trkpt lat="44.60496" lon="0.83205">
        <ele>140.97</ele>
        <time>2014-04-06T09:49:58Z</time>
      </trkpt>
      <trkpt lat="44.60491" lon="0.83205">
        <ele>140.97</ele>
        <time>2014-04-06T09:49:59Z</time>
      </trkpt>
      <trkpt lat="44.60435" lon="0.83206">
        <ele>141.45</ele>
        <time>2014-04-06T09:50:11Z</time>
      </trkpt>
      <trkpt lat="44.60402" lon="0.83193">
        <ele>140.49</ele>
        <time>2014-04-06T09:50:20Z</time>
      </trkpt>
      <trkpt lat="44.60361" lon="0.83156">
        <ele>140.01</ele>
        <time>2014-04-06T09:50:31Z</time>
      </trkpt>
      <trkpt lat="44.60357" lon="0.83152">
        <ele>140.01</ele>
        <time>2014-04-06T09:50:32Z</time>
      </trkpt>
      <trkpt lat="44.60298" lon="0.83093">
        <ele>138.09</ele>
        <time>2014-04-06T09:50:46Z</time>
      </trkpt>
      <trkpt lat="44.60294" lon="0.83087">
        <ele>138.09</ele>
        <time>2014-04-06T09:50:47Z</time>
      </trkpt>
      <trkpt lat="44.60239" lon="0.82993">
        <ele>133.76</ele>
        <time>2014-04-06T09:50:59Z</time>
      </trkpt>
      <trkpt lat="44.60187" lon="0.82902">
        <ele>133.28</ele>
        <time>2014-04-06T09:51:11Z</time>
      </trkpt>
      <trkpt lat="44.60175" lon="0.82886">
        <ele>132.8</ele>
        <time>2014-04-06T09:51:14Z</time>
      </trkpt>
      <trkpt lat="44.60165" lon="0.82876">
        <ele>131.84</ele>
        <time>2014-04-06T09:51:16Z</time>
      </trkpt>
      <trkpt lat="44.60159" lon="0.82871">
        <ele>131.36</ele>
        <time>2014-04-06T09:51:17Z</time>
      </trkpt>
      <trkpt lat="44.60153" lon="0.82868">
        <ele>130.88</ele>
        <time>2014-04-06T09:51:18Z</time>
      </trkpt>
      <trkpt lat="44.60146" lon="0.82866">
        <ele>130.4</ele>
        <time>2014-04-06T09:51:19Z</time>
      </trkpt>
      <trkpt lat="44.60139" lon="0.82865">
        <ele>129.92</ele>
        <time>2014-04-06T09:51:20Z</time>
      </trkpt>
      <trkpt lat="44.60131" lon="0.82865">
        <ele>129.43</ele>
        <time>2014-04-06T09:51:21Z</time>
      </trkpt>
      <trkpt lat="44.60123" lon="0.82866">
        <ele>128.47</ele>
        <time>2014-04-06T09:51:22Z</time>
      </trkpt>
      <trkpt lat="44.60116" lon="0.82869">
        <ele>127.99</ele>
        <time>2014-04-06T09:51:23Z</time>
      </trkpt>
      <trkpt lat="44.60108" lon="0.82873">
        <ele>127.03</ele>
        <time>2014-04-06T09:51:24Z</time>
      </trkpt>
      <trkpt lat="44.601" lon="0.82877">
        <ele>126.07</ele>
        <time>2014-04-06T09:51:25Z</time>
      </trkpt>
      <trkpt lat="44.60094" lon="0.82883">
        <ele>125.59</ele>
        <time>2014-04-06T09:51:26Z</time>
      </trkpt>
      <trkpt lat="44.60088" lon="0.82889">
        <ele>125.11</ele>
        <time>2014-04-06T09:51:27Z</time>
      </trkpt>
      <trkpt lat="44.60082" lon="0.82896">
        <ele>124.63</ele>
        <time>2014-04-06T09:51:28Z</time>
      </trkpt>
      <trkpt lat="44.60077" lon="0.82902">
        <ele>124.15</ele>
        <time>2014-04-06T09:51:29Z</time>
      </trkpt>
      <trkpt lat="44.60066" lon="0.82912">
        <ele>123.67</ele>
        <time>2014-04-06T09:51:31Z</time>
      </trkpt>
      <trkpt lat="44.60061" lon="0.82914">
        <ele>123.19</ele>
        <time>2014-04-06T09:51:32Z</time>
      </trkpt>
      <trkpt lat="44.60055" lon="0.82916">
        <ele>123.19</ele>
        <time>2014-04-06T09:51:33Z</time>
      </trkpt>
      <trkpt lat="44.60051" lon="0.82915">
        <ele>122.71</ele>
        <time>2014-04-06T09:51:34Z</time>
      </trkpt>
      <trkpt lat="44.60046" lon="0.82911">
        <ele>122.22</ele>
        <time>2014-04-06T09:51:35Z</time>
      </trkpt>
      <trkpt lat="44.60043" lon="0.82905">
        <ele>121.74</ele>
        <time>2014-04-06T09:51:36Z</time>
      </trkpt>
      <trkpt lat="44.6004" lon="0.82897">
        <ele>121.26</ele>
        <time>2014-04-06T09:51:37Z</time>
      </trkpt>
      <trkpt lat="44.60038" lon="0.82888">
        <ele>120.78</ele>
        <time>2014-04-06T09:51:38Z</time>
      </trkpt>
      <trkpt lat="44.6003" lon="0.8286">
        <ele>119.34</ele>
        <time>2014-04-06T09:51:41Z</time>
      </trkpt>
      <trkpt lat="44.60027" lon="0.82851">
        <ele>118.86</ele>
        <time>2014-04-06T09:51:42Z</time>
      </trkpt>
      <trkpt lat="44.60022" lon="0.82843">
        <ele>118.38</ele>
        <time>2014-04-06T09:51:43Z</time>
      </trkpt>
      <trkpt lat="44.60017" lon="0.82835">
        <ele>118.38</ele>
        <time>2014-04-06T09:51:44Z</time>
      </trkpt>
      <trkpt lat="44.60011" lon="0.82829">
        <ele>118.38</ele>
        <time>2014-04-06T09:51:45Z</time>
      </trkpt>
      <trkpt lat="44.60005" lon="0.82823">
        <ele>118.38</ele>
        <time>2014-04-06T09:51:46Z</time>
      </trkpt>
      <trkpt lat="44.59922" lon="0.82728">
        <ele>115.98</ele>
        <time>2014-04-06T09:52:02Z</time>
      </trkpt>
      <trkpt lat="44.599" lon="0.82707">
        <ele>114.05</ele>
        <time>2014-04-06T09:52:08Z</time>
      </trkpt>
      <trkpt lat="44.59899" lon="0.82708">
        <ele>114.05</ele>
        <time>2014-04-06T09:52:11Z</time>
      </trkpt>
      <trkpt lat="44.59898" lon="0.82708">
        <ele>114.05</ele>
        <time>2014-04-06T09:52:12Z</time>
      </trkpt>
      <trkpt lat="44.59897" lon="0.82707">
        <ele>114.05</ele>
        <time>2014-04-06T09:52:13Z</time>
      </trkpt>
      <trkpt lat="44.59899" lon="0.82705">
        <ele>113.09</ele>
        <time>2014-04-06T09:52:19Z</time>
      </trkpt>
      <trkpt lat="44.599" lon="0.82706">
        <ele>113.09</ele>
        <time>2014-04-06T09:52:20Z</time>
      </trkpt>
      <trkpt lat="44.59901" lon="0.82708">
        <ele>113.09</ele>
        <time>2014-04-06T09:52:21Z</time>
      </trkpt>
      <trkpt lat="44.59903" lon="0.82711">
        <ele>113.09</ele>
        <time>2014-04-06T09:52:22Z</time>
      </trkpt>
      <trkpt lat="44.59905" lon="0.82713">
        <ele>113.09</ele>
        <time>2014-04-06T09:52:23Z</time>
      </trkpt>
      <trkpt lat="44.59908" lon="0.82715">
        <ele>113.57</ele>
        <time>2014-04-06T09:52:24Z</time>
      </trkpt>
      <trkpt lat="44.5991" lon="0.82718">
        <ele>113.57</ele>
        <time>2014-04-06T09:52:25Z</time>
      </trkpt>
      <trkpt lat="44.59912" lon="0.8272">
        <ele>113.57</ele>
        <time>2014-04-06T09:52:26Z</time>
      </trkpt>
      <trkpt lat="44.59914" lon="0.82722">
        <ele>113.57</ele>
        <time>2014-04-06T09:52:27Z</time>
      </trkpt>
      <trkpt lat="44.59916" lon="0.82725">
        <ele>113.57</ele>
        <time>2014-04-06T09:52:28Z</time>
      </trkpt>
      <trkpt lat="44.59918" lon="0.82727">
        <ele>113.57</ele>
        <time>2014-04-06T09:52:29Z</time>
      </trkpt>
      <trkpt lat="44.5992" lon="0.82729">
        <ele>114.05</ele>
        <time>2014-04-06T09:52:30Z</time>
      </trkpt>
      <trkpt lat="44.59922" lon="0.8273">
        <ele>114.05</ele>
        <time>2014-04-06T09:52:31Z</time>
      </trkpt>
      <trkpt lat="44.59924" lon="0.82731">
        <ele>114.53</ele>
        <time>2014-04-06T09:52:32Z</time>
      </trkpt>
      <trkpt lat="44.59926" lon="0.82733">
        <ele>115.01</ele>
        <time>2014-04-06T09:52:33Z</time>
      </trkpt>
      <trkpt lat="44.59928" lon="0.82736">
        <ele>115.5</ele>
        <time>2014-04-06T09:52:34Z</time>
      </trkpt>
      <trkpt lat="44.59931" lon="0.82739">
        <ele>115.5</ele>
        <time>2014-04-06T09:52:35Z</time>
      </trkpt>
      <trkpt lat="44.59933" lon="0.82742">
        <ele>115.5</ele>
        <time>2014-04-06T09:52:36Z</time>
      </trkpt>
      <trkpt lat="44.59935" lon="0.82745">
        <ele>115.98</ele>
        <time>2014-04-06T09:52:37Z</time>
      </trkpt>
      <trkpt lat="44.59937" lon="0.82748">
        <ele>115.98</ele>
        <time>2014-04-06T09:52:38Z</time>
      </trkpt>
      <trkpt lat="44.59942" lon="0.82755">
        <ele>116.46</ele>
        <time>2014-04-06T09:52:41Z</time>
      </trkpt>
      <trkpt lat="44.59942" lon="0.82757">
        <ele>116.46</ele>
        <time>2014-04-06T09:52:42Z</time>
      </trkpt>
      <trkpt lat="44.5994" lon="0.82757">
        <ele>116.46</ele>
        <time>2014-04-06T09:52:44Z</time>
      </trkpt>
      <trkpt lat="44.59938" lon="0.82758">
        <ele>116.46</ele>
        <time>2014-04-06T09:52:45Z</time>
      </trkpt>
      <trkpt lat="44.59936" lon="0.82758">
        <ele>116.46</ele>
        <time>2014-04-06T09:52:46Z</time>
      </trkpt>
      <trkpt lat="44.59933" lon="0.82758">
        <ele>116.46</ele>
        <time>2014-04-06T09:52:47Z</time>
      </trkpt>
      <trkpt lat="44.59931" lon="0.82757">
        <ele>116.46</ele>
        <time>2014-04-06T09:52:48Z</time>
      </trkpt>
      <trkpt lat="44.59902" lon="0.8273">
        <ele>115.01</ele>
        <time>2014-04-06T09:53:01Z</time>
      </trkpt>
      <trkpt lat="44.59865" lon="0.82695">
        <ele>113.09</ele>
        <time>2014-04-06T09:53:12Z</time>
      </trkpt>
      <trkpt lat="44.59853" lon="0.82673">
        <ele>109.73</ele>
        <time>2014-04-06T09:53:19Z</time>
      </trkpt>
      <trkpt lat="44.59842" lon="0.82666">
        <ele>107.32</ele>
        <time>2014-04-06T09:53:22Z</time>
      </trkpt>
      <trkpt lat="44.59822" lon="0.82649">
        <ele>104.44</ele>
        <time>2014-04-06T09:53:27Z</time>
      </trkpt>
      <trkpt lat="44.59807" lon="0.82632">
        <ele>103</ele>
        <time>2014-04-06T09:53:34Z</time>
      </trkpt>
      <trkpt lat="44.59797" lon="0.82623">
        <ele>103.48</ele>
        <time>2014-04-06T09:53:44Z</time>
      </trkpt>
      <trkpt lat="44.59794" lon="0.82621">
        <ele>104.92</ele>
        <time>2014-04-06T09:53:52Z</time>
      </trkpt>
      <trkpt lat="44.5979" lon="0.82616">
        <ele>106.36</ele>
        <time>2014-04-06T09:54:06Z</time>
      </trkpt>
      <trkpt lat="44.59787" lon="0.82611">
        <ele>108.77</ele>
        <time>2014-04-06T09:54:22Z</time>
      </trkpt>
      <trkpt lat="44.59782" lon="0.82605">
        <ele>109.73</ele>
        <time>2014-04-06T09:54:34Z</time>
      </trkpt>
      <trkpt lat="44.59776" lon="0.82599">
        <ele>109.73</ele>
        <time>2014-04-06T09:54:51Z</time>
      </trkpt>
      <trkpt lat="44.5977" lon="0.82594">
        <ele>108.29</ele>
        <time>2014-04-06T09:55:08Z</time>
      </trkpt>
      <trkpt lat="44.59766" lon="0.8259">
        <ele>107.32</ele>
        <time>2014-04-06T09:55:22Z</time>
      </trkpt>
      <trkpt lat="44.5976" lon="0.82577">
        <ele>105.88</ele>
        <time>2014-04-06T09:55:39Z</time>
      </trkpt>
      <trkpt lat="44.59756" lon="0.82569">
        <ele>104.92</ele>
        <time>2014-04-06T09:55:56Z</time>
      </trkpt>
      <trkpt lat="44.59754" lon="0.82564">
        <ele>105.4</ele>
        <time>2014-04-06T09:56:01Z</time>
      </trkpt>
      <trkpt lat="44.59751" lon="0.82558">
        <ele>105.88</ele>
        <time>2014-04-06T09:56:08Z</time>
      </trkpt>
      <trkpt lat="44.59734" lon="0.82527">
        <ele>103</ele>
        <time>2014-04-06T09:56:20Z</time>
      </trkpt>
      <trkpt lat="44.59721" lon="0.82508">
        <ele>103.48</ele>
        <time>2014-04-06T09:56:34Z</time>
      </trkpt>
      <trkpt lat="44.59709" lon="0.82488">
        <ele>107.81</ele>
        <time>2014-04-06T09:56:48Z</time>
      </trkpt>
      <trkpt lat="44.59703" lon="0.82482">
        <ele>109.25</ele>
        <time>2014-04-06T09:57:03Z</time>
      </trkpt>
      <trkpt lat="44.59678" lon="0.82455">
        <ele>110.21</ele>
        <time>2014-04-06T09:57:13Z</time>
      </trkpt>
      <trkpt lat="44.59665" lon="0.8243">
        <ele>109.73</ele>
        <time>2014-04-06T09:57:24Z</time>
      </trkpt>
      <trkpt lat="44.59656" lon="0.82415">
        <ele>114.05</ele>
        <time>2014-04-06T09:57:37Z</time>
      </trkpt>
      <trkpt lat="44.59649" lon="0.82406">
        <ele>116.94</ele>
        <time>2014-04-06T09:57:49Z</time>
      </trkpt>
      <trkpt lat="44.59639" lon="0.82394">
        <ele>118.86</ele>
        <time>2014-04-06T09:58:04Z</time>
      </trkpt>
      <trkpt lat="44.59629" lon="0.82382">
        <ele>118.38</ele>
        <time>2014-04-06T09:58:19Z</time>
      </trkpt>
      <trkpt lat="44.59619" lon="0.8237">
        <ele>120.3</ele>
        <time>2014-04-06T09:58:36Z</time>
      </trkpt>
      <trkpt lat="44.59609" lon="0.8236">
        <ele>124.15</ele>
        <time>2014-04-06T09:58:52Z</time>
      </trkpt>
      <trkpt lat="44.59596" lon="0.82346">
        <ele>124.63</ele>
        <time>2014-04-06T09:59:07Z</time>
      </trkpt>
      <trkpt lat="44.59589" lon="0.82335">
        <ele>123.19</ele>
        <time>2014-04-06T09:59:20Z</time>
      </trkpt>
      <trkpt lat="44.59585" lon="0.82328">
        <ele>123.67</ele>
        <time>2014-04-06T09:59:33Z</time>
      </trkpt>
      <trkpt lat="44.59576" lon="0.82317">
        <ele>124.15</ele>
        <time>2014-04-06T09:59:49Z</time>
      </trkpt>
      <trkpt lat="44.59572" lon="0.82313">
        <ele>125.59</ele>
        <time>2014-04-06T09:59:53Z</time>
      </trkpt>
      <trkpt lat="44.59571" lon="0.82312">
        <ele>125.59</ele>
        <time>2014-04-06T09:59:54Z</time>
      </trkpt>
      <trkpt lat="44.59569" lon="0.8231">
        <ele>125.59</ele>
        <time>2014-04-06T09:59:55Z</time>
      </trkpt>
      <trkpt lat="44.59568" lon="0.82309">
        <ele>126.07</ele>
        <time>2014-04-06T09:59:56Z</time>
      </trkpt>
      <trkpt lat="44.59567" lon="0.82308">
        <ele>126.07</ele>
        <time>2014-04-06T09:59:57Z</time>
      </trkpt>
      <trkpt lat="44.59565" lon="0.82308">
        <ele>126.07</ele>
        <time>2014-04-06T09:59:58Z</time>
      </trkpt>
      <trkpt lat="44.5956" lon="0.82305">
        <ele>126.07</ele>
        <time>2014-04-06T10:00:11Z</time>
      </trkpt>
      <trkpt lat="44.59558" lon="0.82305">
        <ele>126.07</ele>
        <time>2014-04-06T10:00:29Z</time>
      </trkpt>
      <trkpt lat="44.59558" lon="0.82305">
        <ele>126.07</ele>
        <time>2014-04-06T10:00:49Z</time>
      </trkpt>
      <trkpt lat="44.59546" lon="0.82291">
        <ele>125.11</ele>
        <time>2014-04-06T10:01:00Z</time>
      </trkpt>
      <trkpt lat="44.59521" lon="0.82273">
        <ele>121.26</ele>
        <time>2014-04-06T10:01:12Z</time>
      </trkpt>
      <trkpt lat="44.59513" lon="0.82269">
        <ele>118.38</ele>
        <time>2014-04-06T10:01:22Z</time>
      </trkpt>
      <trkpt lat="44.59503" lon="0.82262">
        <ele>115.5</ele>
        <time>2014-04-06T10:01:36Z</time>
      </trkpt>
      <trkpt lat="44.5948" lon="0.82249">
        <ele>112.13</ele>
        <time>2014-04-06T10:01:48Z</time>
      </trkpt>
      <trkpt lat="44.59472" lon="0.82243">
        <ele>111.17</ele>
        <time>2014-04-06T10:01:57Z</time>
      </trkpt>
      <trkpt lat="44.59459" lon="0.82237">
        <ele>110.21</ele>
        <time>2014-04-06T10:02:09Z</time>
      </trkpt>
      <trkpt lat="44.59458" lon="0.82236">
        <ele>110.21</ele>
        <time>2014-04-06T10:02:11Z</time>
      </trkpt>
      <trkpt lat="44.59441" lon="0.82224">
        <ele>107.32</ele>
        <time>2014-04-06T10:02:25Z</time>
      </trkpt>
      <trkpt lat="44.59438" lon="0.82222">
        <ele>107.32</ele>
        <time>2014-04-06T10:02:28Z</time>
      </trkpt>
      <trkpt lat="44.59426" lon="0.82213">
        <ele>105.4</ele>
        <time>2014-04-06T10:02:37Z</time>
      </trkpt>
      <trkpt lat="44.59413" lon="0.82203">
        <ele>104.44</ele>
        <time>2014-04-06T10:02:51Z</time>
      </trkpt>
      <trkpt lat="44.59406" lon="0.82197">
        <ele>103.48</ele>
        <time>2014-04-06T10:02:59Z</time>
      </trkpt>
      <trkpt lat="44.59404" lon="0.82188">
        <ele>103.48</ele>
        <time>2014-04-06T10:03:12Z</time>
      </trkpt>
      <trkpt lat="44.59403" lon="0.82187">
        <ele>105.4</ele>
        <time>2014-04-06T10:03:35Z</time>
      </trkpt>
      <trkpt lat="44.59403" lon="0.82187">
        <ele>105.4</ele>
        <time>2014-04-06T10:03:38Z</time>
      </trkpt>
      <trkpt lat="44.59385" lon="0.8218">
        <ele>104.44</ele>
        <time>2014-04-06T10:03:44Z</time>
      </trkpt>
      <trkpt lat="44.59337" lon="0.82152">
        <ele>105.88</ele>
        <time>2014-04-06T10:03:57Z</time>
      </trkpt>
      <trkpt lat="44.59294" lon="0.82131">
        <ele>109.73</ele>
        <time>2014-04-06T10:04:10Z</time>
      </trkpt>
      <trkpt lat="44.5925" lon="0.82118">
        <ele>114.53</ele>
        <time>2014-04-06T10:04:24Z</time>
      </trkpt>
      <trkpt lat="44.59222" lon="0.8212">
        <ele>116.46</ele>
        <time>2014-04-06T10:04:34Z</time>
      </trkpt>
      <trkpt lat="44.59194" lon="0.82111">
        <ele>116.94</ele>
        <time>2014-04-06T10:04:46Z</time>
      </trkpt>
      <trkpt lat="44.59193" lon="0.82109">
        <ele>116.94</ele>
        <time>2014-04-06T10:04:47Z</time>
      </trkpt>
      <trkpt lat="44.59192" lon="0.82107">
        <ele>116.94</ele>
        <time>2014-04-06T10:04:48Z</time>
      </trkpt>
      <trkpt lat="44.5919" lon="0.82102">
        <ele>116.46</ele>
        <time>2014-04-06T10:04:50Z</time>
      </trkpt>
      <trkpt lat="44.59189" lon="0.821">
        <ele>116.46</ele>
        <time>2014-04-06T10:04:51Z</time>
      </trkpt>
      <trkpt lat="44.59188" lon="0.82099">
        <ele>115.98</ele>
        <time>2014-04-06T10:04:52Z</time>
      </trkpt>
      <trkpt lat="44.59168" lon="0.82071">
        <ele>115.01</ele>
        <time>2014-04-06T10:05:05Z</time>
      </trkpt>
      <trkpt lat="44.59165" lon="0.82062">
        <ele>115.5</ele>
        <time>2014-04-06T10:05:09Z</time>
      </trkpt>
      <trkpt lat="44.59189" lon="0.82036">
        <ele>115.5</ele>
        <time>2014-04-06T10:05:20Z</time>
      </trkpt>
      <trkpt lat="44.59195" lon="0.82031">
        <ele>115.01</ele>
        <time>2014-04-06T10:05:23Z</time>
      </trkpt>
      <trkpt lat="44.59197" lon="0.82029">
        <ele>115.01</ele>
        <time>2014-04-06T10:05:24Z</time>
      </trkpt>
      <trkpt lat="44.59199" lon="0.82027">
        <ele>115.01</ele>
        <time>2014-04-06T10:05:25Z</time>
      </trkpt>
      <trkpt lat="44.59201" lon="0.82025">
        <ele>115.01</ele>
        <time>2014-04-06T10:05:26Z</time>
      </trkpt>
      <trkpt lat="44.59204" lon="0.82023">
        <ele>115.01</ele>
        <time>2014-04-06T10:05:27Z</time>
      </trkpt>
      <trkpt lat="44.59233" lon="0.81998">
        <ele>114.53</ele>
        <time>2014-04-06T10:05:36Z</time>
      </trkpt>
      <trkpt lat="44.59243" lon="0.81994">
        <ele>114.05</ele>
        <time>2014-04-06T10:05:38Z</time>
      </trkpt>
      <trkpt lat="44.59259" lon="0.8199">
        <ele>114.05</ele>
        <time>2014-04-06T10:05:41Z</time>
      </trkpt>
      <trkpt lat="44.59274" lon="0.81983">
        <ele>113.57</ele>
        <time>2014-04-06T10:05:44Z</time>
      </trkpt>
      <trkpt lat="44.59284" lon="0.81978">
        <ele>113.57</ele>
        <time>2014-04-06T10:05:46Z</time>
      </trkpt>
      <trkpt lat="44.59289" lon="0.81976">
        <ele>113.57</ele>
        <time>2014-04-06T10:05:47Z</time>
      </trkpt>
      <trkpt lat="44.59303" lon="0.81971">
        <ele>113.57</ele>
        <time>2014-04-06T10:05:50Z</time>
      </trkpt>
      <trkpt lat="44.59332" lon="0.81951">
        <ele>114.05</ele>
        <time>2014-04-06T10:05:58Z</time>
      </trkpt>
      <trkpt lat="44.59383" lon="0.81894">
        <ele>107.81</ele>
        <time>2014-04-06T10:06:07Z</time>
      </trkpt>
      <trkpt lat="44.59396" lon="0.81873">
        <ele>106.36</ele>
        <time>2014-04-06T10:06:09Z</time>
      </trkpt>
      <trkpt lat="44.59402" lon="0.81862">
        <ele>105.4</ele>
        <time>2014-04-06T10:06:10Z</time>
      </trkpt>
      <trkpt lat="44.59414" lon="0.8183">
        <ele>102.04</ele>
        <time>2014-04-06T10:06:14Z</time>
      </trkpt>
      <trkpt lat="44.59413" lon="0.81826">
        <ele>101.08</ele>
        <time>2014-04-06T10:06:15Z</time>
      </trkpt>
      <trkpt lat="44.59411" lon="0.81823">
        <ele>101.08</ele>
        <time>2014-04-06T10:06:16Z</time>
      </trkpt>
      <trkpt lat="44.59409" lon="0.8182">
        <ele>101.08</ele>
        <time>2014-04-06T10:06:17Z</time>
      </trkpt>
      <trkpt lat="44.59406" lon="0.81818">
        <ele>101.56</ele>
        <time>2014-04-06T10:06:18Z</time>
      </trkpt>
      <trkpt lat="44.59352" lon="0.81784">
        <ele>101.08</ele>
        <time>2014-04-06T10:06:32Z</time>
      </trkpt>
      <trkpt lat="44.59326" lon="0.81769">
        <ele>100.6</ele>
        <time>2014-04-06T10:06:38Z</time>
      </trkpt>
      <trkpt lat="44.59322" lon="0.81766">
        <ele>100.6</ele>
        <time>2014-04-06T10:06:39Z</time>
      </trkpt>
      <trkpt lat="44.59252" lon="0.81719">
        <ele>99.63</ele>
        <time>2014-04-06T10:06:55Z</time>
      </trkpt>
      <trkpt lat="44.59238" lon="0.81711">
        <ele>99.15</ele>
        <time>2014-04-06T10:06:58Z</time>
      </trkpt>
      <trkpt lat="44.59228" lon="0.81707">
        <ele>99.15</ele>
        <time>2014-04-06T10:07:00Z</time>
      </trkpt>
      <trkpt lat="44.59223" lon="0.81706">
        <ele>99.15</ele>
        <time>2014-04-06T10:07:01Z</time>
      </trkpt>
      <trkpt lat="44.59209" lon="0.81704">
        <ele>98.67</ele>
        <time>2014-04-06T10:07:04Z</time>
      </trkpt>
      <trkpt lat="44.59205" lon="0.81701">
        <ele>98.67</ele>
        <time>2014-04-06T10:07:05Z</time>
      </trkpt>
      <trkpt lat="44.59202" lon="0.81698">
        <ele>98.67</ele>
        <time>2014-04-06T10:07:06Z</time>
      </trkpt>
      <trkpt lat="44.59199" lon="0.81693">
        <ele>98.19</ele>
        <time>2014-04-06T10:07:07Z</time>
      </trkpt>
      <trkpt lat="44.59196" lon="0.81687">
        <ele>98.19</ele>
        <time>2014-04-06T10:07:08Z</time>
      </trkpt>
      <trkpt lat="44.59193" lon="0.81682">
        <ele>97.71</ele>
        <time>2014-04-06T10:07:09Z</time>
      </trkpt>
      <trkpt lat="44.5919" lon="0.81677">
        <ele>97.71</ele>
        <time>2014-04-06T10:07:10Z</time>
      </trkpt>
      <trkpt lat="44.59186" lon="0.81672">
        <ele>97.71</ele>
        <time>2014-04-06T10:07:11Z</time>
      </trkpt>
      <trkpt lat="44.59182" lon="0.81667">
        <ele>97.71</ele>
        <time>2014-04-06T10:07:12Z</time>
      </trkpt>
      <trkpt lat="44.59178" lon="0.81664">
        <ele>97.71</ele>
        <time>2014-04-06T10:07:13Z</time>
      </trkpt>
      <trkpt lat="44.59173" lon="0.81661">
        <ele>98.19</ele>
        <time>2014-04-06T10:07:14Z</time>
      </trkpt>
      <trkpt lat="44.59143" lon="0.81641">
        <ele>98.19</ele>
        <time>2014-04-06T10:07:21Z</time>
      </trkpt>
      <trkpt lat="44.59094" lon="0.81593">
        <ele>98.67</ele>
        <time>2014-04-06T10:07:33Z</time>
      </trkpt>
      <trkpt lat="44.59017" lon="0.8157">
        <ele>99.63</ele>
        <time>2014-04-06T10:07:49Z</time>
      </trkpt>
      <trkpt lat="44.58993" lon="0.81564">
        <ele>100.6</ele>
        <time>2014-04-06T10:07:54Z</time>
      </trkpt>
      <trkpt lat="44.58921" lon="0.81551">
        <ele>102.04</ele>
        <time>2014-04-06T10:08:09Z</time>
      </trkpt>
      <trkpt lat="44.58892" lon="0.81546">
        <ele>104.44</ele>
        <time>2014-04-06T10:08:15Z</time>
      </trkpt>
      <trkpt lat="44.58845" lon="0.81512">
        <ele>104.44</ele>
        <time>2014-04-06T10:08:26Z</time>
      </trkpt>
      <trkpt lat="44.5884" lon="0.81512">
        <ele>104.92</ele>
        <time>2014-04-06T10:08:27Z</time>
      </trkpt>
      <trkpt lat="44.58836" lon="0.81514">
        <ele>104.44</ele>
        <time>2014-04-06T10:08:28Z</time>
      </trkpt>
      <trkpt lat="44.58831" lon="0.81517">
        <ele>104.44</ele>
        <time>2014-04-06T10:08:29Z</time>
      </trkpt>
      <trkpt lat="44.58828" lon="0.81522">
        <ele>104.92</ele>
        <time>2014-04-06T10:08:30Z</time>
      </trkpt>
      <trkpt lat="44.58825" lon="0.81527">
        <ele>104.92</ele>
        <time>2014-04-06T10:08:31Z</time>
      </trkpt>
      <trkpt lat="44.58822" lon="0.81532">
        <ele>105.4</ele>
        <time>2014-04-06T10:08:32Z</time>
      </trkpt>
      <trkpt lat="44.5881" lon="0.8155">
        <ele>105.4</ele>
        <time>2014-04-06T10:08:37Z</time>
      </trkpt>
      <trkpt lat="44.58807" lon="0.8155">
        <ele>105.4</ele>
        <time>2014-04-06T10:08:38Z</time>
      </trkpt>
      <trkpt lat="44.58804" lon="0.81548">
        <ele>105.4</ele>
        <time>2014-04-06T10:08:39Z</time>
      </trkpt>
      <trkpt lat="44.58802" lon="0.81545">
        <ele>105.4</ele>
        <time>2014-04-06T10:08:40Z</time>
      </trkpt>
      <trkpt lat="44.588" lon="0.81542">
        <ele>105.4</ele>
        <time>2014-04-06T10:08:41Z</time>
      </trkpt>
      <trkpt lat="44.58797" lon="0.81538">
        <ele>105.4</ele>
        <time>2014-04-06T10:08:42Z</time>
      </trkpt>
      <trkpt lat="44.58794" lon="0.81534">
        <ele>104.92</ele>
        <time>2014-04-06T10:08:43Z</time>
      </trkpt>
      <trkpt lat="44.58756" lon="0.81493">
        <ele>103</ele>
        <time>2014-04-06T10:08:54Z</time>
      </trkpt>
      <trkpt lat="44.58753" lon="0.81489">
        <ele>102.52</ele>
        <time>2014-04-06T10:08:55Z</time>
      </trkpt>
      <trkpt lat="44.58749" lon="0.81485">
        <ele>102.52</ele>
        <time>2014-04-06T10:08:56Z</time>
      </trkpt>
      <trkpt lat="44.58729" lon="0.81469">
        <ele>101.08</ele>
        <time>2014-04-06T10:09:01Z</time>
      </trkpt>
      <trkpt lat="44.58702" lon="0.81456">
        <ele>101.08</ele>
        <time>2014-04-06T10:09:10Z</time>
      </trkpt>
      <trkpt lat="44.58677" lon="0.81424">
        <ele>101.56</ele>
        <time>2014-04-06T10:09:19Z</time>
      </trkpt>
      <trkpt lat="44.58639" lon="0.81415">
        <ele>101.56</ele>
        <time>2014-04-06T10:09:31Z</time>
      </trkpt>
      <trkpt lat="44.58617" lon="0.81385">
        <ele>100.11</ele>
        <time>2014-04-06T10:09:41Z</time>
      </trkpt>
      <trkpt lat="44.58602" lon="0.81349">
        <ele>102.04</ele>
        <time>2014-04-06T10:09:52Z</time>
      </trkpt>
      <trkpt lat="44.58589" lon="0.81342">
        <ele>103.96</ele>
        <time>2014-04-06T10:09:58Z</time>
      </trkpt>
      <trkpt lat="44.58578" lon="0.81352">
        <ele>106.84</ele>
        <time>2014-04-06T10:10:04Z</time>
      </trkpt>
      <trkpt lat="44.58575" lon="0.81356">
        <ele>107.81</ele>
        <time>2014-04-06T10:10:06Z</time>
      </trkpt>
      <trkpt lat="44.58561" lon="0.81381">
        <ele>112.13</ele>
        <time>2014-04-06T10:10:16Z</time>
      </trkpt>
      <trkpt lat="44.58548" lon="0.81398">
        <ele>114.53</ele>
        <time>2014-04-06T10:10:23Z</time>
      </trkpt>
      <trkpt lat="44.5853" lon="0.81426">
        <ele>117.9</ele>
        <time>2014-04-06T10:10:33Z</time>
      </trkpt>
      <trkpt lat="44.58513" lon="0.8145">
        <ele>121.74</ele>
        <time>2014-04-06T10:10:42Z</time>
      </trkpt>
      <trkpt lat="44.58488" lon="0.81473">
        <ele>124.63</ele>
        <time>2014-04-06T10:10:54Z</time>
      </trkpt>
      <trkpt lat="44.58466" lon="0.81488">
        <ele>127.99</ele>
        <time>2014-04-06T10:11:04Z</time>
      </trkpt>
      <trkpt lat="44.58443" lon="0.81503">
        <ele>130.4</ele>
        <time>2014-04-06T10:11:15Z</time>
      </trkpt>
      <trkpt lat="44.58419" lon="0.81504">
        <ele>129.92</ele>
        <time>2014-04-06T10:11:27Z</time>
      </trkpt>
      <trkpt lat="44.58381" lon="0.8153">
        <ele>129.43</ele>
        <time>2014-04-06T10:11:46Z</time>
      </trkpt>
      <trkpt lat="44.58351" lon="0.81554">
        <ele>130.4</ele>
        <time>2014-04-06T10:12:00Z</time>
      </trkpt>
      <trkpt lat="44.58325" lon="0.81586">
        <ele>131.36</ele>
        <time>2014-04-06T10:12:13Z</time>
      </trkpt>
      <trkpt lat="44.58315" lon="0.816">
        <ele>132.8</ele>
        <time>2014-04-06T10:12:19Z</time>
      </trkpt>
      <trkpt lat="44.58314" lon="0.81602">
        <ele>133.28</ele>
        <time>2014-04-06T10:12:20Z</time>
      </trkpt>
      <trkpt lat="44.58313" lon="0.81604">
        <ele>132.8</ele>
        <time>2014-04-06T10:12:21Z</time>
      </trkpt>
      <trkpt lat="44.58312" lon="0.81605">
        <ele>133.28</ele>
        <time>2014-04-06T10:12:22Z</time>
      </trkpt>
      <trkpt lat="44.5831" lon="0.81605">
        <ele>133.28</ele>
        <time>2014-04-06T10:12:23Z</time>
      </trkpt>
      <trkpt lat="44.58309" lon="0.81607">
        <ele>133.28</ele>
        <time>2014-04-06T10:12:24Z</time>
      </trkpt>
      <trkpt lat="44.58308" lon="0.81608">
        <ele>133.28</ele>
        <time>2014-04-06T10:12:25Z</time>
      </trkpt>
      <trkpt lat="44.58306" lon="0.8161">
        <ele>133.28</ele>
        <time>2014-04-06T10:12:26Z</time>
      </trkpt>
      <trkpt lat="44.58288" lon="0.81632">
        <ele>134.72</ele>
        <time>2014-04-06T10:12:39Z</time>
      </trkpt>
      <trkpt lat="44.58284" lon="0.81636">
        <ele>135.2</ele>
        <time>2014-04-06T10:12:42Z</time>
      </trkpt>
      <trkpt lat="44.58283" lon="0.81638">
        <ele>135.2</ele>
        <time>2014-04-06T10:12:43Z</time>
      </trkpt>
      <trkpt lat="44.58282" lon="0.8164">
        <ele>135.2</ele>
        <time>2014-04-06T10:12:44Z</time>
      </trkpt>
      <trkpt lat="44.5828" lon="0.81642">
        <ele>135.2</ele>
        <time>2014-04-06T10:12:45Z</time>
      </trkpt>
      <trkpt lat="44.58279" lon="0.81643">
        <ele>135.2</ele>
        <time>2014-04-06T10:12:46Z</time>
      </trkpt>
      <trkpt lat="44.58278" lon="0.81645">
        <ele>135.68</ele>
        <time>2014-04-06T10:12:47Z</time>
      </trkpt>
      <trkpt lat="44.58277" lon="0.81647">
        <ele>135.68</ele>
        <time>2014-04-06T10:12:48Z</time>
      </trkpt>
      <trkpt lat="44.58277" lon="0.81648">
        <ele>135.68</ele>
        <time>2014-04-06T10:12:49Z</time>
      </trkpt>
      <trkpt lat="44.58276" lon="0.8165">
        <ele>135.68</ele>
        <time>2014-04-06T10:12:50Z</time>
      </trkpt>
      <trkpt lat="44.58275" lon="0.8165">
        <ele>135.68</ele>
        <time>2014-04-06T10:12:51Z</time>
      </trkpt>
      <trkpt lat="44.58274" lon="0.81651">
        <ele>135.68</ele>
        <time>2014-04-06T10:12:52Z</time>
      </trkpt>
      <trkpt lat="44.58273" lon="0.81652">
        <ele>135.68</ele>
        <time>2014-04-06T10:12:53Z</time>
      </trkpt>
      <trkpt lat="44.58272" lon="0.81653">
        <ele>135.68</ele>
        <time>2014-04-06T10:12:54Z</time>
      </trkpt>
      <trkpt lat="44.58271" lon="0.81655">
        <ele>135.68</ele>
        <time>2014-04-06T10:12:55Z</time>
      </trkpt>
      <trkpt lat="44.5827" lon="0.81656">
        <ele>135.68</ele>
        <time>2014-04-06T10:12:56Z</time>
      </trkpt>
      <trkpt lat="44.58269" lon="0.81658">
        <ele>135.68</ele>
        <time>2014-04-06T10:12:57Z</time>
      </trkpt>
      <trkpt lat="44.58269" lon="0.81659">
        <ele>136.16</ele>
        <time>2014-04-06T10:12:58Z</time>
      </trkpt>
      <trkpt lat="44.58268" lon="0.81661">
        <ele>136.16</ele>
        <time>2014-04-06T10:12:59Z</time>
      </trkpt>
      <trkpt lat="44.58256" lon="0.81683">
        <ele>136.16</ele>
        <time>2014-04-06T10:13:14Z</time>
      </trkpt>
      <trkpt lat="44.58243" lon="0.81704">
        <ele>137.13</ele>
        <time>2014-04-06T10:13:27Z</time>
      </trkpt>
      <trkpt lat="44.58222" lon="0.81734">
        <ele>136.64</ele>
        <time>2014-04-06T10:13:42Z</time>
      </trkpt>
      <trkpt lat="44.58191" lon="0.81771">
        <ele>136.64</ele>
        <time>2014-04-06T10:13:58Z</time>
      </trkpt>
      <trkpt lat="44.58186" lon="0.81779">
        <ele>136.64</ele>
        <time>2014-04-06T10:14:01Z</time>
      </trkpt>
      <trkpt lat="44.58168" lon="0.81807">
        <ele>136.64</ele>
        <time>2014-04-06T10:14:13Z</time>
      </trkpt>
      <trkpt lat="44.58159" lon="0.81829">
        <ele>137.61</ele>
        <time>2014-04-06T10:14:22Z</time>
      </trkpt>
      <trkpt lat="44.58158" lon="0.8183">
        <ele>137.61</ele>
        <time>2014-04-06T10:14:23Z</time>
      </trkpt>
      <trkpt lat="44.58157" lon="0.81831">
        <ele>138.09</ele>
        <time>2014-04-06T10:14:37Z</time>
      </trkpt>
      <trkpt lat="44.58157" lon="0.8183">
        <ele>137.13</ele>
        <time>2014-04-06T10:15:01Z</time>
      </trkpt>
      <trkpt lat="44.58154" lon="0.81833">
        <ele>138.09</ele>
        <time>2014-04-06T10:15:24Z</time>
      </trkpt>
      <trkpt lat="44.58153" lon="0.81833">
        <ele>138.57</ele>
        <time>2014-04-06T10:15:25Z</time>
      </trkpt>
      <trkpt lat="44.58151" lon="0.81834">
        <ele>138.57</ele>
        <time>2014-04-06T10:15:26Z</time>
      </trkpt>
      <trkpt lat="44.58148" lon="0.81834">
        <ele>138.57</ele>
        <time>2014-04-06T10:15:27Z</time>
      </trkpt>
      <trkpt lat="44.58146" lon="0.81834">
        <ele>139.05</ele>
        <time>2014-04-06T10:15:28Z</time>
      </trkpt>
      <trkpt lat="44.58144" lon="0.81834">
        <ele>139.05</ele>
        <time>2014-04-06T10:15:29Z</time>
      </trkpt>
      <trkpt lat="44.5812" lon="0.81815">
        <ele>141.93</ele>
        <time>2014-04-06T10:15:40Z</time>
      </trkpt>
      <trkpt lat="44.58088" lon="0.81792">
        <ele>146.26</ele>
        <time>2014-04-06T10:15:52Z</time>
      </trkpt>
      <trkpt lat="44.5808" lon="0.81784">
        <ele>146.74</ele>
        <time>2014-04-06T10:15:56Z</time>
      </trkpt>
      <trkpt lat="44.58079" lon="0.81781">
        <ele>146.74</ele>
        <time>2014-04-06T10:15:57Z</time>
      </trkpt>
      <trkpt lat="44.58079" lon="0.81777">
        <ele>146.74</ele>
        <time>2014-04-06T10:15:58Z</time>
      </trkpt>
      <trkpt lat="44.58076" lon="0.81749">
        <ele>145.78</ele>
        <time>2014-04-06T10:16:05Z</time>
      </trkpt>
      <trkpt lat="44.58064" lon="0.81649">
        <ele>140.01</ele>
        <time>2014-04-06T10:16:16Z</time>
      </trkpt>
      <trkpt lat="44.58056" lon="0.81569">
        <ele>135.2</ele>
        <time>2014-04-06T10:16:25Z</time>
      </trkpt>
      <trkpt lat="44.58053" lon="0.81559">
        <ele>134.72</ele>
        <time>2014-04-06T10:16:30Z</time>
      </trkpt>
      <trkpt lat="44.58051" lon="0.81558">
        <ele>134.72</ele>
        <time>2014-04-06T10:16:31Z</time>
      </trkpt>
      <trkpt lat="44.58041" lon="0.81561">
        <ele>134.72</ele>
        <time>2014-04-06T10:16:41Z</time>
      </trkpt>
      <trkpt lat="44.57981" lon="0.81571">
        <ele>132.32</ele>
        <time>2014-04-06T10:16:53Z</time>
      </trkpt>
      <trkpt lat="44.57969" lon="0.81577">
        <ele>131.84</ele>
        <time>2014-04-06T10:16:55Z</time>
      </trkpt>
      <trkpt lat="44.57964" lon="0.81581">
        <ele>131.84</ele>
        <time>2014-04-06T10:16:56Z</time>
      </trkpt>
      <trkpt lat="44.5796" lon="0.81586">
        <ele>131.84</ele>
        <time>2014-04-06T10:16:57Z</time>
      </trkpt>
      <trkpt lat="44.57939" lon="0.81608">
        <ele>131.84</ele>
        <time>2014-04-06T10:17:02Z</time>
      </trkpt>
      <trkpt lat="44.57934" lon="0.81612">
        <ele>131.84</ele>
        <time>2014-04-06T10:17:03Z</time>
      </trkpt>
      <trkpt lat="44.57929" lon="0.81615">
        <ele>131.84</ele>
        <time>2014-04-06T10:17:04Z</time>
      </trkpt>
      <trkpt lat="44.57924" lon="0.81617">
        <ele>132.32</ele>
        <time>2014-04-06T10:17:05Z</time>
      </trkpt>
      <trkpt lat="44.57919" lon="0.81618">
        <ele>132.32</ele>
        <time>2014-04-06T10:17:06Z</time>
      </trkpt>
      <trkpt lat="44.57909" lon="0.81619">
        <ele>132.8</ele>
        <time>2014-04-06T10:17:08Z</time>
      </trkpt>
      <trkpt lat="44.57904" lon="0.81619">
        <ele>132.8</ele>
        <time>2014-04-06T10:17:09Z</time>
      </trkpt>
      <trkpt lat="44.57899" lon="0.81617">
        <ele>132.8</ele>
        <time>2014-04-06T10:17:10Z</time>
      </trkpt>
      <trkpt lat="44.57894" lon="0.81615">
        <ele>132.8</ele>
        <time>2014-04-06T10:17:11Z</time>
      </trkpt>
      <trkpt lat="44.57889" lon="0.81611">
        <ele>132.32</ele>
        <time>2014-04-06T10:17:12Z</time>
      </trkpt>
      <trkpt lat="44.57884" lon="0.81606">
        <ele>131.84</ele>
        <time>2014-04-06T10:17:13Z</time>
      </trkpt>
      <trkpt lat="44.57879" lon="0.81602">
        <ele>130.88</ele>
        <time>2014-04-06T10:17:14Z</time>
      </trkpt>
      <trkpt lat="44.57858" lon="0.81584">
        <ele>127.99</ele>
        <time>2014-04-06T10:17:18Z</time>
      </trkpt>
      <trkpt lat="44.57852" lon="0.8158">
        <ele>127.03</ele>
        <time>2014-04-06T10:17:19Z</time>
      </trkpt>
      <trkpt lat="44.57845" lon="0.81575">
        <ele>125.59</ele>
        <time>2014-04-06T10:17:20Z</time>
      </trkpt>
      <trkpt lat="44.57839" lon="0.81568">
        <ele>124.63</ele>
        <time>2014-04-06T10:17:21Z</time>
      </trkpt>
      <trkpt lat="44.57833" lon="0.8156">
        <ele>123.67</ele>
        <time>2014-04-06T10:17:22Z</time>
      </trkpt>
      <trkpt lat="44.57826" lon="0.81551">
        <ele>122.71</ele>
        <time>2014-04-06T10:17:23Z</time>
      </trkpt>
      <trkpt lat="44.5782" lon="0.81544">
        <ele>121.74</ele>
        <time>2014-04-06T10:17:24Z</time>
      </trkpt>
      <trkpt lat="44.57814" lon="0.81538">
        <ele>120.78</ele>
        <time>2014-04-06T10:17:25Z</time>
      </trkpt>
      <trkpt lat="44.57795" lon="0.81523">
        <ele>115.98</ele>
        <time>2014-04-06T10:17:31Z</time>
      </trkpt>
      <trkpt lat="44.57785" lon="0.81513">
        <ele>111.65</ele>
        <time>2014-04-06T10:17:35Z</time>
      </trkpt>
      <trkpt lat="44.57781" lon="0.8151">
        <ele>110.69</ele>
        <time>2014-04-06T10:17:36Z</time>
      </trkpt>
      <trkpt lat="44.57751" lon="0.81477">
        <ele>103.48</ele>
        <time>2014-04-06T10:17:47Z</time>
      </trkpt>
      <trkpt lat="44.57726" lon="0.8145">
        <ele>98.67</ele>
        <time>2014-04-06T10:17:57Z</time>
      </trkpt>
      <trkpt lat="44.57721" lon="0.81446">
        <ele>97.23</ele>
        <time>2014-04-06T10:17:59Z</time>
      </trkpt>
      <trkpt lat="44.57718" lon="0.81443">
        <ele>96.75</ele>
        <time>2014-04-06T10:18:00Z</time>
      </trkpt>
      <trkpt lat="44.57716" lon="0.81441">
        <ele>96.27</ele>
        <time>2014-04-06T10:18:01Z</time>
      </trkpt>
      <trkpt lat="44.57714" lon="0.8144">
        <ele>95.31</ele>
        <time>2014-04-06T10:18:02Z</time>
      </trkpt>
      <trkpt lat="44.57712" lon="0.81438">
        <ele>95.31</ele>
        <time>2014-04-06T10:18:03Z</time>
      </trkpt>
      <trkpt lat="44.5771" lon="0.81436">
        <ele>94.35</ele>
        <time>2014-04-06T10:18:04Z</time>
      </trkpt>
      <trkpt lat="44.57708" lon="0.81434">
        <ele>94.35</ele>
        <time>2014-04-06T10:18:05Z</time>
      </trkpt>
      <trkpt lat="44.57706" lon="0.81432">
        <ele>94.35</ele>
        <time>2014-04-06T10:18:06Z</time>
      </trkpt>
      <trkpt lat="44.57704" lon="0.8143">
        <ele>93.87</ele>
        <time>2014-04-06T10:18:07Z</time>
      </trkpt>
      <trkpt lat="44.57702" lon="0.81428">
        <ele>93.87</ele>
        <time>2014-04-06T10:18:08Z</time>
      </trkpt>
      <trkpt lat="44.57701" lon="0.81427">
        <ele>93.87</ele>
        <time>2014-04-06T10:18:09Z</time>
      </trkpt>
      <trkpt lat="44.57682" lon="0.81405">
        <ele>92.9</ele>
        <time>2014-04-06T10:18:20Z</time>
      </trkpt>
      <trkpt lat="44.57681" lon="0.81403">
        <ele>92.42</ele>
        <time>2014-04-06T10:18:21Z</time>
      </trkpt>
      <trkpt lat="44.57677" lon="0.81395">
        <ele>95.31</ele>
        <time>2014-04-06T10:18:32Z</time>
      </trkpt>
      <trkpt lat="44.57671" lon="0.81379">
        <ele>101.08</ele>
        <time>2014-04-06T10:18:46Z</time>
      </trkpt>
      <trkpt lat="44.5767" lon="0.81379">
        <ele>101.08</ele>
        <time>2014-04-06T10:18:47Z</time>
      </trkpt>
      <trkpt lat="44.57666" lon="0.81374">
        <ele>99.63</ele>
        <time>2014-04-06T10:18:58Z</time>
      </trkpt>
      <trkpt lat="44.57664" lon="0.81373">
        <ele>100.11</ele>
        <time>2014-04-06T10:19:19Z</time>
      </trkpt>
      <trkpt lat="44.57664" lon="0.81373">
        <ele>100.11</ele>
        <time>2014-04-06T10:19:23Z</time>
      </trkpt>
      <trkpt lat="44.57659" lon="0.81372">
        <ele>100.11</ele>
        <time>2014-04-06T10:19:26Z</time>
      </trkpt>
      <trkpt lat="44.57604" lon="0.81358">
        <ele>102.52</ele>
        <time>2014-04-06T10:19:42Z</time>
      </trkpt>
      <trkpt lat="44.57577" lon="0.81328">
        <ele>102.52</ele>
        <time>2014-04-06T10:19:53Z</time>
      </trkpt>
      <trkpt lat="44.5758" lon="0.81282">
        <ele>107.32</ele>
        <time>2014-04-06T10:20:04Z</time>
      </trkpt>
      <trkpt lat="44.57582" lon="0.81274">
        <ele>107.81</ele>
        <time>2014-04-06T10:20:06Z</time>
      </trkpt>
      <trkpt lat="44.57566" lon="0.81271">
        <ele>109.25</ele>
        <time>2014-04-06T10:20:14Z</time>
      </trkpt>
      <trkpt lat="44.57538" lon="0.81275">
        <ele>110.69</ele>
        <time>2014-04-06T10:20:25Z</time>
      </trkpt>
      <trkpt lat="44.57509" lon="0.81274">
        <ele>112.13</ele>
        <time>2014-04-06T10:20:39Z</time>
      </trkpt>
      <trkpt lat="44.57494" lon="0.81271">
        <ele>111.17</ele>
        <time>2014-04-06T10:20:45Z</time>
      </trkpt>
      <trkpt lat="44.57443" lon="0.81223">
        <ele>106.84</ele>
        <time>2014-04-06T10:20:59Z</time>
      </trkpt>
      <trkpt lat="44.57442" lon="0.81188">
        <ele>104.92</ele>
        <time>2014-04-06T10:21:08Z</time>
      </trkpt>
      <trkpt lat="44.57452" lon="0.81141">
        <ele>103.48</ele>
        <time>2014-04-06T10:21:20Z</time>
      </trkpt>
      <trkpt lat="44.57464" lon="0.81073">
        <ele>102.04</ele>
        <time>2014-04-06T10:21:34Z</time>
      </trkpt>
      <trkpt lat="44.57463" lon="0.81024">
        <ele>102.52</ele>
        <time>2014-04-06T10:21:46Z</time>
      </trkpt>
      <trkpt lat="44.57463" lon="0.81024">
        <ele>102.52</ele>
        <time>2014-04-06T10:21:49Z</time>
      </trkpt>
      <trkpt lat="44.57454" lon="0.81015">
        <ele>102.04</ele>
        <time>2014-04-06T10:21:55Z</time>
      </trkpt>
      <trkpt lat="44.57424" lon="0.80986">
        <ele>102.04</ele>
        <time>2014-04-06T10:22:10Z</time>
      </trkpt>
      <trkpt lat="44.57404" lon="0.80963">
        <ele>103</ele>
        <time>2014-04-06T10:22:21Z</time>
      </trkpt>
      <trkpt lat="44.5739" lon="0.80945">
        <ele>103.48</ele>
        <time>2014-04-06T10:22:32Z</time>
      </trkpt>
      <trkpt lat="44.57384" lon="0.80939">
        <ele>104.44</ele>
        <time>2014-04-06T10:22:39Z</time>
      </trkpt>
      <trkpt lat="44.57379" lon="0.80934">
        <ele>105.88</ele>
        <time>2014-04-06T10:22:45Z</time>
      </trkpt>
      <trkpt lat="44.57377" lon="0.80927">
        <ele>107.32</ele>
        <time>2014-04-06T10:22:50Z</time>
      </trkpt>
      <trkpt lat="44.57379" lon="0.80916">
        <ele>108.29</ele>
        <time>2014-04-06T10:23:05Z</time>
      </trkpt>
      <trkpt lat="44.5739" lon="0.80891">
        <ele>108.29</ele>
        <time>2014-04-06T10:23:16Z</time>
      </trkpt>
      <trkpt lat="44.57404" lon="0.8086">
        <ele>110.21</ele>
        <time>2014-04-06T10:23:27Z</time>
      </trkpt>
      <trkpt lat="44.57405" lon="0.80859">
        <ele>110.21</ele>
        <time>2014-04-06T10:23:28Z</time>
      </trkpt>
      <trkpt lat="44.57405" lon="0.80849">
        <ele>111.17</ele>
        <time>2014-04-06T10:23:34Z</time>
      </trkpt>
      <trkpt lat="44.57408" lon="0.80824">
        <ele>112.13</ele>
        <time>2014-04-06T10:23:49Z</time>
      </trkpt>
      <trkpt lat="44.57409" lon="0.80806">
        <ele>109.73</ele>
        <time>2014-04-06T10:24:02Z</time>
      </trkpt>
      <trkpt lat="44.57411" lon="0.80775">
        <ele>108.29</ele>
        <time>2014-04-06T10:24:10Z</time>
      </trkpt>
      <trkpt lat="44.57416" lon="0.80739">
        <ele>111.17</ele>
        <time>2014-04-06T10:24:19Z</time>
      </trkpt>
      <trkpt lat="44.57416" lon="0.80723">
        <ele>114.53</ele>
        <time>2014-04-06T10:24:28Z</time>
      </trkpt>
      <trkpt lat="44.57415" lon="0.8071">
        <ele>116.46</ele>
        <time>2014-04-06T10:24:36Z</time>
      </trkpt>
      <trkpt lat="44.57416" lon="0.80692">
        <ele>116.46</ele>
        <time>2014-04-06T10:24:50Z</time>
      </trkpt>
      <trkpt lat="44.57416" lon="0.80691">
        <ele>117.42</ele>
        <time>2014-04-06T10:25:09Z</time>
      </trkpt>
      <trkpt lat="44.57415" lon="0.80691">
        <ele>118.86</ele>
        <time>2014-04-06T10:25:30Z</time>
      </trkpt>
      <trkpt lat="44.57415" lon="0.80691">
        <ele>118.86</ele>
        <time>2014-04-06T10:25:47Z</time>
      </trkpt>
      <trkpt lat="44.57414" lon="0.8069">
        <ele>119.34</ele>
        <time>2014-04-06T10:26:03Z</time>
      </trkpt>
      <trkpt lat="44.57415" lon="0.80689">
        <ele>119.34</ele>
        <time>2014-04-06T10:26:29Z</time>
      </trkpt>
      <trkpt lat="44.57414" lon="0.80688">
        <ele>119.82</ele>
        <time>2014-04-06T10:26:55Z</time>
      </trkpt>
      <trkpt lat="44.57415" lon="0.8069">
        <ele>120.3</ele>
        <time>2014-04-06T10:27:23Z</time>
      </trkpt>
      <trkpt lat="44.57415" lon="0.80691">
        <ele>119.34</ele>
        <time>2014-04-06T10:27:41Z</time>
      </trkpt>
      <trkpt lat="44.57415" lon="0.80692">
        <ele>117.9</ele>
        <time>2014-04-06T10:28:04Z</time>
      </trkpt>
      <trkpt lat="44.57415" lon="0.80692">
        <ele>119.34</ele>
        <time>2014-04-06T10:28:32Z</time>
      </trkpt>
      <trkpt lat="44.57415" lon="0.80691">
        <ele>119.34</ele>
        <time>2014-04-06T10:28:44Z</time>
      </trkpt>
      <trkpt lat="44.57418" lon="0.80663">
        <ele>119.82</ele>
        <time>2014-04-06T10:28:53Z</time>
      </trkpt>
      <trkpt lat="44.57421" lon="0.8061">
        <ele>122.22</ele>
        <time>2014-04-06T10:29:05Z</time>
      </trkpt>
      <trkpt lat="44.57409" lon="0.80562">
        <ele>124.15</ele>
        <time>2014-04-06T10:29:17Z</time>
      </trkpt>
      <trkpt lat="44.57403" lon="0.80554">
        <ele>123.19</ele>
        <time>2014-04-06T10:29:21Z</time>
      </trkpt>
      <trkpt lat="44.57401" lon="0.80554">
        <ele>123.19</ele>
        <time>2014-04-06T10:29:22Z</time>
      </trkpt>
      <trkpt lat="44.574" lon="0.80555">
        <ele>123.19</ele>
        <time>2014-04-06T10:29:23Z</time>
      </trkpt>
      <trkpt lat="44.57398" lon="0.80557">
        <ele>123.67</ele>
        <time>2014-04-06T10:29:24Z</time>
      </trkpt>
      <trkpt lat="44.57397" lon="0.80559">
        <ele>124.15</ele>
        <time>2014-04-06T10:29:25Z</time>
      </trkpt>
      <trkpt lat="44.57395" lon="0.80561">
        <ele>124.63</ele>
        <time>2014-04-06T10:29:26Z</time>
      </trkpt>
      <trkpt lat="44.57392" lon="0.80566">
        <ele>125.59</ele>
        <time>2014-04-06T10:29:28Z</time>
      </trkpt>
      <trkpt lat="44.57369" lon="0.80599">
        <ele>129.92</ele>
        <time>2014-04-06T10:29:40Z</time>
      </trkpt>
      <trkpt lat="44.57348" lon="0.80628">
        <ele>133.76</ele>
        <time>2014-04-06T10:29:50Z</time>
      </trkpt>
      <trkpt lat="44.57327" lon="0.80653">
        <ele>134.24</ele>
        <time>2014-04-06T10:30:01Z</time>
      </trkpt>
      <trkpt lat="44.57304" lon="0.80674">
        <ele>135.2</ele>
        <time>2014-04-06T10:30:12Z</time>
      </trkpt>
      <trkpt lat="44.57281" lon="0.80694">
        <ele>135.68</ele>
        <time>2014-04-06T10:30:22Z</time>
      </trkpt>
      <trkpt lat="44.57264" lon="0.8071">
        <ele>135.68</ele>
        <time>2014-04-06T10:30:30Z</time>
      </trkpt>
      <trkpt lat="44.57242" lon="0.80733">
        <ele>136.64</ele>
        <time>2014-04-06T10:30:44Z</time>
      </trkpt>
      <trkpt lat="44.57229" lon="0.80743">
        <ele>137.13</ele>
        <time>2014-04-06T10:30:51Z</time>
      </trkpt>
      <trkpt lat="44.57219" lon="0.80753">
        <ele>137.13</ele>
        <time>2014-04-06T10:30:58Z</time>
      </trkpt>
      <trkpt lat="44.57212" lon="0.8076">
        <ele>137.13</ele>
        <time>2014-04-06T10:31:02Z</time>
      </trkpt>
      <trkpt lat="44.57191" lon="0.80783">
        <ele>138.09</ele>
        <time>2014-04-06T10:31:15Z</time>
      </trkpt>
      <trkpt lat="44.57161" lon="0.80811">
        <ele>138.09</ele>
        <time>2014-04-06T10:31:30Z</time>
      </trkpt>
      <trkpt lat="44.57133" lon="0.80836">
        <ele>138.09</ele>
        <time>2014-04-06T10:31:43Z</time>
      </trkpt>
      <trkpt lat="44.57113" lon="0.80863">
        <ele>137.61</ele>
        <time>2014-04-06T10:31:54Z</time>
      </trkpt>
      <trkpt lat="44.57093" lon="0.80892">
        <ele>137.61</ele>
        <time>2014-04-06T10:32:07Z</time>
      </trkpt>
      <trkpt lat="44.57079" lon="0.80911">
        <ele>136.64</ele>
        <time>2014-04-06T10:32:18Z</time>
      </trkpt>
      <trkpt lat="44.57059" lon="0.80942">
        <ele>135.68</ele>
        <time>2014-04-06T10:32:31Z</time>
      </trkpt>
      <trkpt lat="44.57045" lon="0.80966">
        <ele>136.64</ele>
        <time>2014-04-06T10:32:41Z</time>
      </trkpt>
      <trkpt lat="44.57026" lon="0.80989">
        <ele>138.09</ele>
        <time>2014-04-06T10:32:52Z</time>
      </trkpt>
      <trkpt lat="44.57013" lon="0.80999">
        <ele>138.09</ele>
        <time>2014-04-06T10:32:59Z</time>
      </trkpt>
      <trkpt lat="44.57004" lon="0.81007">
        <ele>138.57</ele>
        <time>2014-04-06T10:33:05Z</time>
      </trkpt>
      <trkpt lat="44.56977" lon="0.81021">
        <ele>139.53</ele>
        <time>2014-04-06T10:33:17Z</time>
      </trkpt>
      <trkpt lat="44.56954" lon="0.81031">
        <ele>140.49</ele>
        <time>2014-04-06T10:33:28Z</time>
      </trkpt>
      <trkpt lat="44.56939" lon="0.81029">
        <ele>141.45</ele>
        <time>2014-04-06T10:33:36Z</time>
      </trkpt>
      <trkpt lat="44.56937" lon="0.81029">
        <ele>141.93</ele>
        <time>2014-04-06T10:33:37Z</time>
      </trkpt>
      <trkpt lat="44.56936" lon="0.8103">
        <ele>141.45</ele>
        <time>2014-04-06T10:33:38Z</time>
      </trkpt>
      <trkpt lat="44.56935" lon="0.81032">
        <ele>141.93</ele>
        <time>2014-04-06T10:33:39Z</time>
      </trkpt>
      <trkpt lat="44.56935" lon="0.81035">
        <ele>141.93</ele>
        <time>2014-04-06T10:33:40Z</time>
      </trkpt>
      <trkpt lat="44.56935" lon="0.81037">
        <ele>141.93</ele>
        <time>2014-04-06T10:33:41Z</time>
      </trkpt>
      <trkpt lat="44.56935" lon="0.81042">
        <ele>141.45</ele>
        <time>2014-04-06T10:33:52Z</time>
      </trkpt>
      <trkpt lat="44.56935" lon="0.81044">
        <ele>140.97</ele>
        <time>2014-04-06T10:34:09Z</time>
      </trkpt>
      <trkpt lat="44.56934" lon="0.81044">
        <ele>141.45</ele>
        <time>2014-04-06T10:34:34Z</time>
      </trkpt>
      <trkpt lat="44.56934" lon="0.81044">
        <ele>141.45</ele>
        <time>2014-04-06T10:34:50Z</time>
      </trkpt>
      <trkpt lat="44.56933" lon="0.81047">
        <ele>141.93</ele>
        <time>2014-04-06T10:34:52Z</time>
      </trkpt>
      <trkpt lat="44.56909" lon="0.81081">
        <ele>142.89</ele>
        <time>2014-04-06T10:35:05Z</time>
      </trkpt>
      <trkpt lat="44.56876" lon="0.81135">
        <ele>143.37</ele>
        <time>2014-04-06T10:35:19Z</time>
      </trkpt>
      <trkpt lat="44.56838" lon="0.81201">
        <ele>143.37</ele>
        <time>2014-04-06T10:35:34Z</time>
      </trkpt>
      <trkpt lat="44.56787" lon="0.81286">
        <ele>144.34</ele>
        <time>2014-04-06T10:35:53Z</time>
      </trkpt>
      <trkpt lat="44.56785" lon="0.8129">
        <ele>144.34</ele>
        <time>2014-04-06T10:35:54Z</time>
      </trkpt>
      <trkpt lat="44.56741" lon="0.81365">
        <ele>145.78</ele>
        <time>2014-04-06T10:36:10Z</time>
      </trkpt>
      <trkpt lat="44.56678" lon="0.81469">
        <ele>148.18</ele>
        <time>2014-04-06T10:36:31Z</time>
      </trkpt>
      <trkpt lat="44.56657" lon="0.81497">
        <ele>148.66</ele>
        <time>2014-04-06T10:36:37Z</time>
      </trkpt>
      <trkpt lat="44.5662" lon="0.81543">
        <ele>149.14</ele>
        <time>2014-04-06T10:36:47Z</time>
      </trkpt>
      <trkpt lat="44.56586" lon="0.81592">
        <ele>148.66</ele>
        <time>2014-04-06T10:36:56Z</time>
      </trkpt>
      <trkpt lat="44.56583" lon="0.81598">
        <ele>148.66</ele>
        <time>2014-04-06T10:36:57Z</time>
      </trkpt>
      <trkpt lat="44.56563" lon="0.81636">
        <ele>147.7</ele>
        <time>2014-04-06T10:37:03Z</time>
      </trkpt>
      <trkpt lat="44.56559" lon="0.81642">
        <ele>147.22</ele>
        <time>2014-04-06T10:37:04Z</time>
      </trkpt>
      <trkpt lat="44.56485" lon="0.81724">
        <ele>144.82</ele>
        <time>2014-04-06T10:37:19Z</time>
      </trkpt>
      <trkpt lat="44.56424" lon="0.81787">
        <ele>144.82</ele>
        <time>2014-04-06T10:37:32Z</time>
      </trkpt>
      <trkpt lat="44.56408" lon="0.81807">
        <ele>145.3</ele>
        <time>2014-04-06T10:37:36Z</time>
      </trkpt>
      <trkpt lat="44.56404" lon="0.81811">
        <ele>145.3</ele>
        <time>2014-04-06T10:37:37Z</time>
      </trkpt>
      <trkpt lat="44.564" lon="0.81815">
        <ele>145.3</ele>
        <time>2014-04-06T10:37:38Z</time>
      </trkpt>
      <trkpt lat="44.56395" lon="0.8182">
        <ele>145.3</ele>
        <time>2014-04-06T10:37:39Z</time>
      </trkpt>
      <trkpt lat="44.56391" lon="0.81825">
        <ele>145.3</ele>
        <time>2014-04-06T10:37:40Z</time>
      </trkpt>
      <trkpt lat="44.56336" lon="0.81894">
        <ele>146.74</ele>
        <time>2014-04-06T10:37:54Z</time>
      </trkpt>
      <trkpt lat="44.56332" lon="0.81899">
        <ele>146.74</ele>
        <time>2014-04-06T10:37:55Z</time>
      </trkpt>
      <trkpt lat="44.56269" lon="0.81968">
        <ele>147.22</ele>
        <time>2014-04-06T10:38:11Z</time>
      </trkpt>
      <trkpt lat="44.5624" lon="0.81996">
        <ele>147.22</ele>
        <time>2014-04-06T10:38:18Z</time>
      </trkpt>
      <trkpt lat="44.56221" lon="0.82014">
        <ele>147.22</ele>
        <time>2014-04-06T10:38:23Z</time>
      </trkpt>
      <trkpt lat="44.5621" lon="0.82024">
        <ele>147.7</ele>
        <time>2014-04-06T10:38:26Z</time>
      </trkpt>
      <trkpt lat="44.56207" lon="0.82027">
        <ele>147.7</ele>
        <time>2014-04-06T10:38:27Z</time>
      </trkpt>
      <trkpt lat="44.56204" lon="0.82031">
        <ele>147.7</ele>
        <time>2014-04-06T10:38:28Z</time>
      </trkpt>
      <trkpt lat="44.56189" lon="0.82039">
        <ele>148.18</ele>
        <time>2014-04-06T10:38:32Z</time>
      </trkpt>
      <trkpt lat="44.56186" lon="0.82038">
        <ele>148.18</ele>
        <time>2014-04-06T10:38:33Z</time>
      </trkpt>
      <trkpt lat="44.56184" lon="0.82038">
        <ele>148.18</ele>
        <time>2014-04-06T10:38:34Z</time>
      </trkpt>
      <trkpt lat="44.56182" lon="0.82037">
        <ele>148.18</ele>
        <time>2014-04-06T10:38:35Z</time>
      </trkpt>
      <trkpt lat="44.56181" lon="0.82035">
        <ele>148.18</ele>
        <time>2014-04-06T10:38:36Z</time>
      </trkpt>
      <trkpt lat="44.56181" lon="0.82034">
        <ele>148.18</ele>
        <time>2014-04-06T10:38:50Z</time>
      </trkpt>
      <trkpt lat="44.56179" lon="0.82035">
        <ele>148.18</ele>
        <time>2014-04-06T10:39:02Z</time>
      </trkpt>
      <trkpt lat="44.56179" lon="0.82033">
        <ele>147.7</ele>
        <time>2014-04-06T10:39:19Z</time>
      </trkpt>
      <trkpt lat="44.56179" lon="0.82033">
        <ele>147.7</ele>
        <time>2014-04-06T10:39:35Z</time>
      </trkpt>
      <trkpt lat="44.56179" lon="0.82032">
        <ele>147.22</ele>
        <time>2014-04-06T10:39:48Z</time>
      </trkpt>
      <trkpt lat="44.56178" lon="0.82029">
        <ele>147.7</ele>
        <time>2014-04-06T10:40:16Z</time>
      </trkpt>
      <trkpt lat="44.56178" lon="0.82029">
        <ele>146.26</ele>
        <time>2014-04-06T10:40:47Z</time>
      </trkpt>
      <trkpt lat="44.56178" lon="0.82029">
        <ele>145.3</ele>
        <time>2014-04-06T10:41:16Z</time>
      </trkpt>
    </trkseg>
  </trk>
</gpx>